Provisional Data: Kitchen Creek near Huntington Mills, PA


Please select a monitoring station.
Please select start date.
Please select start date.

Toggle Unit: C/F Toggle Unit: C/F
Sample Time Temperature (C) Temperature (F) Specific Conductivity (mS/cm) pH   Turbidity (NTU+) DO (mg/L)
12/4/2020 12:00:00 AM 3.48 38.264 0.063 6.36 3.2 13.96
12/4/2020 12:15:00 AM 3.48 38.264 0.063 6.42 3.18 13.96
12/4/2020 12:30:00 AM 3.47 38.246 0.063 6.3 2.71 13.96
12/4/2020 12:45:00 AM 3.47 38.246 0.063 6.27 8.43 13.96
12/4/2020 1:00:00 AM 3.45 38.21 0.062 6.22 2.65 13.96
12/4/2020 1:15:00 AM 3.44 38.192 0.062 6.31 29.5 13.96
12/4/2020 1:30:00 AM 3.43 38.174 0.062 6.38 3.18 13.96
12/4/2020 1:45:00 AM 3.42 38.156 0.062 6.32 4.76 13.98
12/4/2020 2:00:00 AM 3.41 38.138 0.062 6.29 2.99 13.98
12/4/2020 2:15:00 AM 3.41 38.138 0.062 6.14 3 13.98
12/4/2020 2:30:00 AM 3.4 38.12 0.062 6.31 2.97 13.98
12/4/2020 2:45:00 AM 3.4 38.12 0.062 6.3 2.99 13.98
12/4/2020 3:00:00 AM 3.41 38.138 0.062 6.23 2.88 13.97
12/4/2020 3:15:00 AM 3.41 38.138 0.062 6.28 2.85 13.97
12/4/2020 3:30:00 AM 3.41 38.138 0.062 6.33 2.83 13.97
12/4/2020 3:45:00 AM 3.41 38.138 0.062 6.31 2.94 13.96
12/4/2020 4:00:00 AM 3.41 38.138 0.062 6.25 2.86 13.96
12/4/2020 4:15:00 AM 3.41 38.138 0.062 6.23 2.86 13.97
12/4/2020 4:30:00 AM 3.42 38.156 0.062 6.28 2.82 13.97
12/4/2020 4:45:00 AM 3.42 38.156 0.061 6.34 2.91 13.95
12/4/2020 5:00:00 AM 3.43 38.174 0.061 6.26 2.84 13.95
12/4/2020 5:15:00 AM 3.43 38.174 0.061 6.38 2.81 13.96
12/4/2020 5:30:00 AM 3.44 38.192 0.061 6.46 2.81 13.95
12/4/2020 5:45:00 AM 3.44 38.192 0.061 6.48 2.66 13.95
12/4/2020 6:00:00 AM 3.45 38.21 0.061 6.39 2.66 13.95
12/4/2020 6:15:00 AM 3.45 38.21 0.061 6.39 2.7 13.94
12/4/2020 6:30:00 AM 3.46 38.228 0.061 6.26 2.73 13.94
12/4/2020 6:45:00 AM 3.46 38.228 0.061 6.27 2.74 13.94
12/4/2020 7:00:00 AM 3.47 38.246 0.061 6.28 2.78 13.93
12/4/2020 7:15:00 AM 3.47 38.246 0.061 6.31 2.77 13.94
12/4/2020 7:30:00 AM 3.48 38.264 0.061 6.34 2.79 13.94
12/4/2020 7:45:00 AM 3.48 38.264 0.061 6.35 2.72 13.96
12/4/2020 8:00:00 AM 3.49 38.282 0.061 6.35 2.72 13.99
12/4/2020 8:15:00 AM 3.49 38.282 0.061 6.33 2.8 14.02
12/4/2020 8:30:00 AM 3.51 38.318 0.061 6.36 2.82 14.05
12/4/2020 8:45:00 AM 3.52 38.336 0.061 6.36 2.89 14.06
12/4/2020 9:00:00 AM 3.53 38.354 0.061 6.35 2.97 14.06
12/4/2020 9:15:00 AM 3.55 38.39 0.061 6.37 2.8 14.06
12/4/2020 9:30:00 AM 3.57 38.426 0.061 6.34 2.69 14.06
12/4/2020 9:45:00 AM 3.6 38.48 0.061 6.43 2.74 14.06
12/4/2020 10:00:00 AM 3.64 38.552 0.061 6.41 2.71 14.05
12/4/2020 10:15:00 AM 3.7 38.66 0.061 6.38 2.76 14.04
12/4/2020 10:30:00 AM 3.77 38.786 0.061 6.42 2.73 14.02
12/4/2020 10:45:00 AM 3.89 39.002 0.061 6.42 2.66 14.01
12/4/2020 11:00:00 AM 3.99 39.182 0.061 6.41 1.93 13.09
12/4/2020 11:15:00 AM 4.09 39.362 0.061 6.13 1.87 13.05
12/4/2020 11:30:00 AM 4.2 39.56 0.061 6.04 1.88 13.03
12/4/2020 11:45:00 AM 4.27 39.686 0.061 6.04 1.88 13
12/4/2020 12:00:00 PM 4.32 39.776 0.061 6.05 1.87 12.98
12/4/2020 12:15:00 PM 4.34 39.812 0.061 6.05 1.83 12.97
12/4/2020 12:30:00 PM 4.36 39.848 0.061 6.06 1.89 12.94
12/4/2020 12:45:00 PM 4.37 39.866 0.061 6.08 2.05 12.91
12/4/2020 1:00:00 PM 4.38 39.884 0.061 6.08 1.94 12.9
12/4/2020 1:15:00 PM 4.39 39.902 0.061 6.06 1.89 12.89
12/4/2020 1:30:00 PM 4.39 39.902 0.061 6.06 1.9 12.88
12/4/2020 1:45:00 PM 4.39 39.902 0.061 6.06 1.88 12.87
12/4/2020 2:00:00 PM 4.39 39.902 0.061 6.08 1.91 12.85
12/4/2020 2:15:00 PM 4.41 39.938 0.061 6.07 1.92 12.84
12/4/2020 2:30:00 PM 4.45 40.01 0.061 6.07 1.88 12.86
12/4/2020 2:45:00 PM 4.49 40.082 0.06 6.07 1.87 12.86
12/4/2020 3:00:00 PM 4.51 40.118 0.06 6.07 1.86 12.84
12/4/2020 3:15:00 PM 4.53 40.154 0.06 6.07 1.85 12.81
12/4/2020 3:30:00 PM 4.55 40.19 0.06 6.07 1.9 12.79
12/4/2020 3:45:00 PM 4.57 40.226 0.06 6.06 1.88 12.75
12/4/2020 4:00:00 PM 4.59 40.262 0.06 6.06 1.92 12.72
12/4/2020 4:15:00 PM 4.6 40.28 0.06 6.04 1.88 12.69
12/4/2020 4:30:00 PM 4.6 40.28 0.061 6.03 1.86 12.66
12/4/2020 4:45:00 PM 4.59 40.262 0.061 6.03 1.87 12.64
12/4/2020 5:00:00 PM 4.58 40.244 0.061 6.01 1.89 12.62
12/4/2020 5:15:00 PM 4.58 40.244 0.061 6.05 1.97 12.61
12/4/2020 5:30:00 PM 4.58 40.244 0.061 5.99 1.95 12.6
12/4/2020 5:45:00 PM 4.59 40.262 0.061 5.98 1.88 12.6
12/4/2020 6:00:00 PM 4.59 40.262 0.061 5.98 2.08 12.6
12/4/2020 6:15:00 PM 4.6 40.28 0.061 5.98 1.88 12.59
12/4/2020 6:30:00 PM 4.6 40.28 0.061 5.98 1.88 12.59
12/4/2020 6:45:00 PM 4.61 40.298 0.061 6.01 1.92 12.59
12/4/2020 7:00:00 PM 4.61 40.298 0.061 6.01 1.96 12.58
12/4/2020 7:15:00 PM 4.62 40.316 0.061 6 1.93 12.59
12/4/2020 7:30:00 PM 4.63 40.334 0.06 6.01 1.91 12.58
12/4/2020 7:45:00 PM 4.64 40.352 0.06 6.02 2.03 12.58
12/4/2020 8:00:00 PM 4.65 40.37 0.06 6.03 1.93 12.58
12/4/2020 8:15:00 PM 4.66 40.388 0.06 6.03 1.9 12.57
12/4/2020 8:30:00 PM 4.68 40.424 0.06 6.02 1.87 12.57
12/4/2020 8:45:00 PM 4.69 40.442 0.06 6 1.98 12.56
12/4/2020 9:00:00 PM 4.7 40.46 0.06 6 1.91 12.56
12/4/2020 9:15:00 PM 4.72 40.496 0.06 5.99 1.95 12.55
12/4/2020 9:30:00 PM 4.73 40.514 0.06 6.02 1.99 12.55
12/4/2020 9:45:00 PM 4.74 40.532 0.06 6.01 1.95 12.54
12/4/2020 10:00:00 PM 4.75 40.55 0.06 6 1.86 12.54
12/4/2020 10:15:00 PM 4.76 40.568 0.06 5.99 2.03 12.53
12/4/2020 10:30:00 PM 4.77 40.586 0.06 5.98 1.91 12.53
12/4/2020 10:45:00 PM 4.78 40.604 0.06 6.02 1.9 12.52
12/4/2020 11:00:00 PM 4.79 40.622 0.06 6.01 1.97 12.52
12/4/2020 11:15:00 PM 4.8 40.64 0.06 6.01 1.93 12.51
12/4/2020 11:30:00 PM 4.8 40.64 0.06 6 1.89 12.5
12/4/2020 11:45:00 PM 4.81 40.658 0.06 6.01 1.96 12.5
12/5/2020 12:00:00 AM 4.81 40.658 0.06 6.01 1.98 12.5
12/5/2020 12:15:00 AM 4.82 40.676 0.06 6 1.94 12.49
12/5/2020 12:30:00 AM 4.82 40.676 0.06 6.02 1.94 12.48
12/5/2020 12:45:00 AM 4.82 40.676 0.06 6 1.87 12.48
12/5/2020 1:00:00 AM 4.83 40.694 0.06 6.02 1.93 12.48
12/5/2020 1:15:00 AM 4.83 40.694 0.06 6.02 1.96 12.47
12/5/2020 1:30:00 AM 4.83 40.694 0.06 6.01 1.9 12.47
12/5/2020 1:45:00 AM 4.84 40.712 0.06 5.99 1.93 12.47
12/5/2020 2:00:00 AM 4.84 40.712 0.06 5.99 1.94 12.46
12/5/2020 2:15:00 AM 4.84 40.712 0.06 6 1.98 12.46
12/5/2020 2:30:00 AM 4.84 40.712 0.06 6 2.03 12.46
12/5/2020 2:45:00 AM 4.83 40.694 0.06 6 1.95 12.45
12/5/2020 3:00:00 AM 4.83 40.694 0.06 5.99 1.9 12.45
12/5/2020 3:15:00 AM 4.83 40.694 0.06 6 1.93 12.44
12/5/2020 3:30:00 AM 4.82 40.676 0.06 5.99 1.93 12.45
12/5/2020 3:45:00 AM 4.81 40.658 0.06 5.98 1.9 12.44
12/5/2020 4:00:00 AM 4.8 40.64 0.06 6 1.88 12.45
12/5/2020 4:15:00 AM 4.79 40.622 0.06 6.01 1.92 12.45
12/5/2020 4:30:00 AM 4.79 40.622 0.06 5.99 1.92 12.45
12/5/2020 4:45:00 AM 4.78 40.604 0.06 6 1.85 12.45
12/5/2020 5:00:00 AM 4.78 40.604 0.06 6.01 1.9 12.45
12/5/2020 5:15:00 AM 4.77 40.586 0.06 5.99 1.9 12.45
12/5/2020 5:30:00 AM 4.77 40.586 0.06 6.02 2.01 12.45
12/5/2020 5:45:00 AM 4.76 40.568 0.06 6.03 1.9 12.45
12/5/2020 6:00:00 AM 4.76 40.568 0.06 6.05 2 12.45
12/5/2020 6:15:00 AM 4.76 40.568 0.06 6.02 1.93 12.46
12/5/2020 6:30:00 AM 4.75 40.55 0.06 6 1.92 12.46
12/5/2020 6:45:00 AM 4.75 40.55 0.059 5.99 1.88 12.46
12/5/2020 7:00:00 AM 4.75 40.55 0.059 6.01 1.94 12.46
12/5/2020 7:15:00 AM 4.75 40.55 0.059 6 1.91 12.46
12/5/2020 7:30:00 AM 4.75 40.55 0.059 6 1.93 12.47
12/5/2020 7:45:00 AM 4.76 40.568 0.059 6 1.9 12.48
12/5/2020 8:00:00 AM 4.76 40.568 0.059 6.01 1.89 12.5
12/5/2020 8:15:00 AM 4.76 40.568 0.059 6.02 1.92 12.52
12/5/2020 8:30:00 AM 4.77 40.586 0.059 6.02 2.09 12.56
12/5/2020 8:45:00 AM 4.78 40.604 0.059 6.04 1.97 12.57
12/5/2020 9:00:00 AM 4.78 40.604 0.059 6.06 1.91 12.58
12/5/2020 9:15:00 AM 4.79 40.622 0.059 6.05 1.87 12.58
12/5/2020 9:30:00 AM 4.79 40.622 0.059 6.05 1.89 12.58
12/5/2020 9:45:00 AM 4.8 40.64 0.059 6.07 1.86 12.6
12/5/2020 10:00:00 AM 4.81 40.658 0.059 6.05 1.93 12.62
12/5/2020 10:15:00 AM 4.82 40.676 0.059 6.07 1.91 12.62
12/5/2020 10:30:00 AM 4.83 40.694 0.059 6.07 1.9 12.63
12/5/2020 10:45:00 AM 4.84 40.712 0.059 6.06 1.9 12.63
12/5/2020 11:00:00 AM 4.84 40.712 0.059 6.05 1.83 12.63
12/5/2020 11:15:00 AM 4.84 40.712 0.059 6.06 1.9 12.61
12/5/2020 11:30:00 AM 4.82 40.676 0.059 6.06 1.88 12.59
12/5/2020 11:45:00 AM 4.81 40.658 0.059 6.06 1.88 12.58
12/5/2020 12:00:00 PM 4.8 40.64 0.059 6.06 1.86 12.58
12/5/2020 12:15:00 PM 4.8 40.64 0.059 6.07 1.83 12.59
12/5/2020 12:30:00 PM 4.79 40.622 0.059 6.1 1.89 12.6
12/5/2020 12:45:00 PM 4.79 40.622 0.059 6.1 1.9 12.63
12/5/2020 1:00:00 PM 4.8 40.64 0.059 6.1 1.86 12.65
12/5/2020 1:15:00 PM 4.82 40.676 0.059 6.09 1.88 12.67
12/5/2020 1:30:00 PM 4.82 40.676 0.058 6.09 1.95 12.65
12/5/2020 1:45:00 PM 4.83 40.694 0.058 6.11 1.93 12.66
12/5/2020 2:00:00 PM 4.84 40.712 0.058 6.1 1.89 12.66
12/5/2020 2:15:00 PM 4.85 40.73 0.058 6.07 2.01 12.63
12/5/2020 2:30:00 PM 4.86 40.748 0.058 6.07 1.94 12.61
12/5/2020 2:45:00 PM 4.86 40.748 0.058 6.07 1.9 12.59
12/5/2020 3:00:00 PM 4.85 40.73 0.058 6.05 1.84 12.56
12/5/2020 3:15:00 PM 4.84 40.712 0.058 6.07 1.87 12.55
12/5/2020 3:30:00 PM 4.84 40.712 0.058 6.05 1.86 12.54
12/5/2020 3:45:00 PM 4.84 40.712 0.058 6.04 1.9 12.51
12/5/2020 4:00:00 PM 4.83 40.694 0.058 6.05 1.91 12.51
12/5/2020 4:15:00 PM 4.82 40.676 0.058 6.04 1.91 12.5
12/5/2020 4:30:00 PM 4.81 40.658 0.058 6.03 1.96 12.49
12/5/2020 4:45:00 PM 4.8 40.64 0.059 6.02 1.88 12.48
12/5/2020 5:00:00 PM 4.79 40.622 0.059 6.03 1.91 12.48
12/5/2020 5:15:00 PM 4.78 40.604 0.059 6.01 1.96 12.48
12/5/2020 5:30:00 PM 4.76 40.568 0.059 6.01 1.9 12.48
12/5/2020 5:45:00 PM 4.74 40.532 0.059 5.99 1.89 12.48
12/5/2020 6:00:00 PM 4.71 40.478 0.059 6 1.96 12.49
12/5/2020 6:15:00 PM 4.69 40.442 0.059 6 1.87 12.5
12/5/2020 6:30:00 PM 4.66 40.388 0.059 6.02 1.9 12.5
12/5/2020 6:45:00 PM 4.64 40.352 0.059 6.02 1.89 12.51
12/5/2020 7:00:00 PM 4.61 40.298 0.059 5.99 1.9 12.52
12/5/2020 7:15:00 PM 4.58 40.244 0.059 6 1.9 12.53
12/5/2020 7:30:00 PM 4.55 40.19 0.059 5.97 1.91 12.54
12/5/2020 7:45:00 PM 4.53 40.154 0.059 5.98 1.86 12.55
12/5/2020 8:00:00 PM 4.51 40.118 0.059 5.97 1.95 12.56
12/5/2020 8:15:00 PM 4.5 40.1 0.059 5.98 1.89 12.57
12/5/2020 8:30:00 PM 4.48 40.064 0.059 5.97 1.87 12.57
12/5/2020 8:45:00 PM 4.46 40.028 0.059 5.98 1.93 12.57
12/5/2020 9:00:00 PM 4.43 39.974 0.059 5.98 1.88 12.59
12/5/2020 9:15:00 PM 4.41 39.938 0.059 5.97 1.96 12.6
12/5/2020 9:30:00 PM 4.38 39.884 0.059 5.97 1.92 12.6
12/5/2020 9:45:00 PM 4.36 39.848 0.059 5.97 1.87 12.62
12/5/2020 10:00:00 PM 4.34 39.812 0.059 5.98 2 12.63
12/5/2020 10:15:00 PM 4.32 39.776 0.059 5.98 1.99 12.63
12/5/2020 10:30:00 PM 4.3 39.74 0.059 5.96 1.94 12.65
12/5/2020 10:45:00 PM 4.28 39.704 0.059 5.98 1.9 12.65
12/5/2020 11:00:00 PM 4.27 39.686 0.059 5.96 1.94 12.65
12/5/2020 11:15:00 PM 4.26 39.668 0.059 5.99 1.95 12.67
12/5/2020 11:30:00 PM 4.24 39.632 0.059 5.98 1.91 12.68
12/5/2020 11:45:00 PM 4.22 39.596 0.059 5.99 1.87 12.68
12/6/2020 12:00:00 AM 4.21 39.578 0.059 5.98 1.9 12.68
12/6/2020 12:15:00 AM 4.19 39.542 0.059 5.98 1.86 12.7
12/6/2020 12:30:00 AM 4.17 39.506 0.059 5.98 1.9 12.7
12/6/2020 12:45:00 AM 4.15 39.47 0.059 5.98 1.94 12.7
12/6/2020 1:00:00 AM 4.13 39.434 0.059 5.98 1.86 12.71
12/6/2020 1:15:00 AM 4.11 39.398 0.059 5.97 1.86 12.72
12/6/2020 1:30:00 AM 4.1 39.38 0.059 5.97 1.92 12.72
12/6/2020 1:45:00 AM 4.08 39.344 0.059 5.99 1.86 12.73
12/6/2020 2:00:00 AM 4.06 39.308 0.059 5.97 1.85 12.74
12/6/2020 2:15:00 AM 4.04 39.272 0.059 5.96 1.85 12.74
12/6/2020 2:30:00 AM 4.02 39.236 0.059 5.98 1.9 12.74
12/6/2020 2:45:00 AM 4 39.2 0.059 5.96 1.87 12.75
12/6/2020 3:00:00 AM 3.97 39.146 0.059 5.96 1.87 12.76
12/6/2020 3:15:00 AM 3.94 39.092 0.059 5.97 1.89 12.77
12/6/2020 3:30:00 AM 3.92 39.056 0.059 5.98 1.84 12.77
12/6/2020 3:45:00 AM 3.89 39.002 0.059 5.98 1.84 12.79
12/6/2020 4:00:00 AM 3.87 38.966 0.059 5.99 1.84 12.79
12/6/2020 4:15:00 AM 3.84 38.912 0.059 5.99 1.87 12.81
12/6/2020 4:30:00 AM 3.81 38.858 0.059 5.98 1.9 12.82
12/6/2020 4:45:00 AM 3.77 38.786 0.059 5.99 1.86 12.83
12/6/2020 5:00:00 AM 3.74 38.732 0.059 5.98 1.87 12.85
12/6/2020 5:15:00 AM 3.72 38.696 0.059 5.97 1.87 12.86
12/6/2020 5:30:00 AM 3.7 38.66 0.059 5.98 1.88 12.87
12/6/2020 5:45:00 AM 3.67 38.606 0.059 5.97 1.86 12.88
12/6/2020 6:00:00 AM 3.65 38.57 0.059 5.96 1.88 12.9
12/6/2020 6:15:00 AM 3.62 38.516 0.059 5.97 1.86 12.91
12/6/2020 6:30:00 AM 3.6 38.48 0.058 5.95 1.9 12.92
12/6/2020 6:45:00 AM 3.56 38.408 0.059 5.97 1.87 12.93
12/6/2020 7:00:00 AM 3.51 38.318 0.059 5.95 1.86 12.94
12/6/2020 7:15:00 AM 3.48 38.264 0.058 5.96 1.9 12.96
12/6/2020 7:30:00 AM 3.44 38.192 0.059 5.97 1.86 12.98
12/6/2020 7:45:00 AM 3.41 38.138 0.058 5.97 1.87 13
12/6/2020 8:00:00 AM 3.38 38.084 0.058 5.97 1.83 13.04
12/6/2020 8:15:00 AM 3.35 38.03 0.058 5.96 2.36 13.09
12/6/2020 8:30:00 AM 3.32 37.976 0.058 5.99 1.9 13.13
12/6/2020 8:45:00 AM 3.29 37.922 0.058 5.99 1.87 13.17
12/6/2020 9:00:00 AM 3.27 37.886 0.058 5.99 1.91 13.2
12/6/2020 9:15:00 AM 3.28 37.904 0.058 6.03 1.82 13.23
12/6/2020 9:30:00 AM 3.28 37.904 0.058 6.02 1.84 13.24
12/6/2020 9:45:00 AM 3.28 37.904 0.058 6.04 1.85 13.25
12/6/2020 10:00:00 AM 3.28 37.904 0.058 6.04 1.88 13.26
12/6/2020 10:15:00 AM 3.28 37.904 0.058 6.06 1.85 13.26
12/6/2020 10:30:00 AM 3.3 37.94 0.058 6.07 1.84 13.26
12/6/2020 10:45:00 AM 3.33 37.994 0.058 6.06 1.87 13.26
12/6/2020 11:00:00 AM 3.38 38.084 0.058 6.08 1.84 13.25
12/6/2020 11:15:00 AM 3.42 38.156 0.058 6.06 1.85 13.24
12/6/2020 11:30:00 AM 3.45 38.21 0.058 6.04 1.83 13.23
12/6/2020 11:45:00 AM 3.52 38.336 0.058 6.06 1.83 13.21
12/6/2020 12:00:00 PM 3.59 38.462 0.058 6.06 1.88 13.18
12/6/2020 12:15:00 PM 3.6 38.48 0.058 6.05 1.88 13.17
12/6/2020 12:30:00 PM 3.65 38.57 0.058 6.06 1.82 13.16
12/6/2020 12:45:00 PM 3.66 38.588 0.058 6.06 1.82 13.14
12/6/2020 1:00:00 PM 3.64 38.552 0.058 6.05 1.79 13.13
12/6/2020 1:15:00 PM 3.63 38.534 0.058 6.05 1.81 13.12
12/6/2020 1:30:00 PM 3.61 38.498 0.058 6.05 1.89 13.13
12/6/2020 1:45:00 PM 3.57 38.426 0.058 6.04 1.85 13.13
12/6/2020 2:00:00 PM 3.53 38.354 0.058 6.04 1.85 13.12
12/6/2020 2:15:00 PM 3.48 38.264 0.058 6.05 1.84 13.12
12/6/2020 2:30:00 PM 3.44 38.192 0.058 6.03 1.87 13.12
12/6/2020 2:45:00 PM 3.4 38.12 0.058 6.04 1.85 13.12
12/6/2020 3:00:00 PM 3.36 38.048 0.058 6.03 1.81 13.13
12/6/2020 3:15:00 PM 3.31 37.958 0.058 6.02 1.86 13.13
12/6/2020 3:30:00 PM 3.27 37.886 0.058 6.02 1.86 13.13
12/6/2020 3:45:00 PM 3.24 37.832 0.058 6.01 1.84 13.14
12/6/2020 4:00:00 PM 3.2 37.76 0.058 5.99 1.86 13.14
12/6/2020 4:15:00 PM 3.16 37.688 0.058 6 1.86 13.14
12/6/2020 4:30:00 PM 3.13 37.634 0.058 5.99 1.87 13.13
12/6/2020 4:45:00 PM 3.09 37.562 0.058 6 1.86 13.13
12/6/2020 5:00:00 PM 3.05 37.49 0.058 5.98 1.91 13.14
12/6/2020 5:15:00 PM 3.01 37.418 0.058 6 1.9 13.14
12/6/2020 5:30:00 PM 2.96 37.328 0.059 5.99 1.91 13.15
12/6/2020 5:45:00 PM 2.91 37.238 0.059 6 1.84 13.17
12/6/2020 6:00:00 PM 2.87 37.166 0.059 5.99 1.87 13.18
12/6/2020 6:15:00 PM 2.83 37.094 0.059 5.99 1.85 13.2
12/6/2020 6:30:00 PM 2.8 37.04 0.059 5.99 1.87 13.2
12/6/2020 6:45:00 PM 2.77 36.986 0.059 5.98 1.87 13.22
12/6/2020 7:00:00 PM 2.73 36.914 0.059 5.96 1.83 13.23
12/6/2020 7:15:00 PM 2.71 36.878 0.059 5.95 1.84 13.23
12/6/2020 7:30:00 PM 2.69 36.842 0.059 5.99 1.83 13.24
12/6/2020 7:45:00 PM 2.67 36.806 0.059 6 1.83 13.25
12/6/2020 8:00:00 PM 2.65 36.77 0.059 5.99 1.87 13.26
12/6/2020 8:15:00 PM 2.63 36.734 0.059 5.99 1.87 13.26
12/6/2020 8:30:00 PM 2.61 36.698 0.059 6.01 1.83 13.27
12/6/2020 8:45:00 PM 2.61 36.698 0.059 6.01 1.82 13.27
12/6/2020 9:00:00 PM 2.59 36.662 0.059 6.01 1.83 13.28
12/6/2020 9:15:00 PM 2.58 36.644 0.059 5.99 1.78 13.29
12/6/2020 9:30:00 PM 2.56 36.608 0.059 6.01 1.84 13.29
12/6/2020 9:45:00 PM 2.54 36.572 0.059 5.99 1.85 13.3
12/6/2020 10:00:00 PM 2.53 36.554 0.059 5.99 1.85 13.31
12/6/2020 10:15:00 PM 2.51 36.518 0.059 5.99 1.79 13.32
12/6/2020 10:30:00 PM 2.48 36.464 0.059 5.99 1.74 13.32
12/6/2020 10:45:00 PM 2.46 36.428 0.059 5.99 1.79 13.34
12/6/2020 11:00:00 PM 2.45 36.41 0.059 5.96 1.82 13.34
12/6/2020 11:15:00 PM 2.43 36.374 0.059 6 1.86 13.35
12/6/2020 11:30:00 PM 2.41 36.338 0.059 5.98 1.88 13.36
12/6/2020 11:45:00 PM 2.39 36.302 0.059 6.01 1.85 13.37
12/7/2020 12:00:00 AM 2.37 36.266 0.059 5.99 1.79 13.38
12/7/2020 12:15:00 AM 2.35 36.23 0.059 6 1.78 13.39
12/7/2020 12:30:00 AM 2.34 36.212 0.059 5.99 1.83 13.39
12/7/2020 12:45:00 AM 2.32 36.176 0.059 6.01 1.81 13.4
12/7/2020 1:00:00 AM 2.3 36.14 0.059 6.01 1.82 13.41
12/7/2020 1:15:00 AM 2.27 36.086 0.059 5.99 1.8 13.41
12/7/2020 1:30:00 AM 2.24 36.032 0.059 6 1.83 13.42
12/7/2020 1:45:00 AM 2.23 36.014 0.059 6 1.82 13.42
12/7/2020 2:00:00 AM 2.22 35.996 0.059 5.99 1.85 13.43
12/7/2020 2:15:00 AM 2.21 35.978 0.059 6.01 1.88 13.43
12/7/2020 2:30:00 AM 2.19 35.942 0.059 6 1.86 13.44
12/7/2020 2:45:00 AM 2.18 35.924 0.059 6 1.88 13.44
12/7/2020 3:00:00 AM 2.17 35.906 0.059 6.02 1.84 13.44
12/7/2020 3:15:00 AM 2.16 35.888 0.059 5.99 1.88 13.44
12/7/2020 3:30:00 AM 2.15 35.87 0.059 5.99 1.9 13.44
12/7/2020 3:45:00 AM 2.14 35.852 0.059 5.98 1.8 13.44
12/7/2020 4:00:00 AM 2.14 35.852 0.059 5.99 1.88 13.44
12/7/2020 4:15:00 AM 2.13 35.834 0.059 6 1.87 13.44
12/7/2020 4:30:00 AM 2.13 35.834 0.059 6 1.86 13.45
12/7/2020 4:45:00 AM 2.12 35.816 0.059 6 1.91 13.45
12/7/2020 5:00:00 AM 2.11 35.798 0.059 5.99 1.88 13.45
12/7/2020 5:15:00 AM 2.11 35.798 0.059 5.99 1.88 13.45
12/7/2020 5:30:00 AM 2.1 35.78 0.059 6 1.82 13.45
12/7/2020 5:45:00 AM 2.1 35.78 0.059 5.97 1.81 13.45
12/7/2020 6:00:00 AM 2.08 35.744 0.059 5.98 1.86 13.45
12/7/2020 6:15:00 AM 2.06 35.708 0.059 5.99 1.86 13.46
12/7/2020 6:30:00 AM 2.04 35.672 0.059 5.99 1.87 13.46
12/7/2020 6:45:00 AM 2.01 35.618 0.059 5.98 1.82 13.47
12/7/2020 7:00:00 AM 1.98 35.564 0.059 5.97 1.8 13.49
12/7/2020 7:15:00 AM 1.96 35.528 0.059 5.98 1.82 13.5
12/7/2020 7:30:00 AM 1.95 35.51 0.06 5.99 1.85 13.52
12/7/2020 7:45:00 AM 1.93 35.474 0.06 6 1.77 13.55
12/7/2020 8:00:00 AM 1.93 35.474 0.061 6.01 1.86 13.58
12/7/2020 8:15:00 AM 1.92 35.456 0.062 6.04 1.85 13.62
12/7/2020 8:30:00 AM 1.93 35.474 0.062 6.06 1.88 13.66
12/7/2020 8:45:00 AM 1.95 35.51 0.062 6.06 1.91 13.68
12/7/2020 9:00:00 AM 1.96 35.528 0.062 6.07 1.88 13.69
12/7/2020 9:15:00 AM 1.98 35.564 0.062 6.08 1.84 13.7
12/7/2020 9:30:00 AM 2 35.6 0.062 6.07 1.91 13.71
12/7/2020 9:45:00 AM 2.02 35.636 0.062 6.1 1.87 13.71
12/7/2020 10:00:00 AM 2.06 35.708 0.062 6.08 1.84 13.71
12/7/2020 10:15:00 AM 2.1 35.78 0.062 6.08 1.87 13.71
12/7/2020 10:30:00 AM 2.14 35.852 0.061 6.12 1.94 13.71
12/7/2020 10:45:00 AM 2.19 35.942 0.061 6.1 1.88 13.69
12/7/2020 11:00:00 AM 2.24 36.032 0.061 6.11 1.88 13.67
12/7/2020 11:15:00 AM 2.31 36.158 0.061 6.12 1.85 13.64
12/7/2020 11:30:00 AM 2.36 36.248 0.061 6.11 1.85 13.62
12/7/2020 11:45:00 AM 2.38 36.284 0.061 6.13 1.92 13.59
12/7/2020 12:00:00 PM 2.4 36.32 0.061 6.13 1.91 13.57
12/7/2020 12:15:00 PM 2.43 36.374 0.061 6.12 2.06 13.56
12/7/2020 12:30:00 PM 2.46 36.428 0.061 6.12 2.05 13.55
12/7/2020 12:45:00 PM 2.5 36.5 0.061 6.1 2.15 13.53
12/7/2020 1:00:00 PM 2.52 36.536 0.061 6.12 2.16 13.51
12/7/2020 1:15:00 PM 2.53 36.554 0.061 6.11 2.16 13.5
12/7/2020 1:30:00 PM 2.54 36.572 0.06 6.11 2.18 13.49
12/7/2020 1:45:00 PM 2.55 36.59 0.06 6.12 2.16 13.48
12/7/2020 2:00:00 PM 2.58 36.644 0.06 6.12 2.08 13.48
12/7/2020 2:15:00 PM 2.58 36.644 0.06 6.11 2.09 13.47
12/7/2020 2:30:00 PM 2.57 36.626 0.06 6.11 2.03 13.45
12/7/2020 2:45:00 PM 2.58 36.644 0.06 6.1 2.01 13.45
12/7/2020 3:00:00 PM 2.58 36.644 0.06 6.09 1.99 13.44
12/7/2020 3:15:00 PM 2.56 36.608 0.06 6.12 1.97 13.42
12/7/2020 3:30:00 PM 2.52 36.536 0.06 6.1 1.98 13.4
12/7/2020 3:45:00 PM 2.48 36.464 0.06 6.07 1.93 13.39
12/7/2020 4:00:00 PM 2.44 36.392 0.06 6.06 1.96 13.38
12/7/2020 4:15:00 PM 2.39 36.302 0.061 6.06 1.88 13.37
12/7/2020 4:30:00 PM 2.35 36.23 0.061 6.05 1.91 13.37
12/7/2020 4:45:00 PM 2.3 36.14 0.061 6.04 1.91 13.37
12/7/2020 5:00:00 PM 2.26 36.068 0.061 6.04 1.95 13.37
12/7/2020 5:15:00 PM 2.22 35.996 0.061 6.04 1.94 13.37
12/7/2020 5:30:00 PM 2.18 35.924 0.061 6.03 1.91 13.39
12/7/2020 5:45:00 PM 2.14 35.852 0.061 6.04 1.88 13.4
12/7/2020 6:00:00 PM 2.1 35.78 0.061 6.03 1.84 13.42
12/7/2020 6:15:00 PM 2.06 35.708 0.061 6.01 1.89 13.44
12/7/2020 6:30:00 PM 2.02 35.636 0.061 6 1.88 13.45
12/7/2020 6:45:00 PM 1.97 35.546 0.061 5.99 1.86 13.48
12/7/2020 7:00:00 PM 1.93 35.474 0.061 6.02 1.86 13.49
12/7/2020 7:15:00 PM 1.89 35.402 0.061 6.01 1.84 13.51
12/7/2020 7:30:00 PM 1.84 35.312 0.061 6 1.9 13.53
12/7/2020 7:45:00 PM 1.8 35.24 0.06 6.01 1.91 13.54
12/7/2020 8:00:00 PM 1.76 35.168 0.06 6.01 1.9 13.56
12/7/2020 8:15:00 PM 1.73 35.114 0.06 6.01 1.87 13.56
12/7/2020 8:30:00 PM 1.71 35.078 0.06 6.02 1.84 13.57
12/7/2020 8:45:00 PM 1.69 35.042 0.059 6.01 1.84 13.58
12/7/2020 9:00:00 PM 1.68 35.024 0.059 6.01 1.83 13.58
12/7/2020 9:15:00 PM 1.67 35.006 0.059 6 1.77 13.58
12/7/2020 9:30:00 PM 1.66 34.988 0.059 6 1.85 13.59
12/7/2020 9:45:00 PM 1.66 34.988 0.059 5.99 1.8 13.59
12/7/2020 10:00:00 PM 1.66 34.988 0.059 6 1.83 13.59
12/7/2020 10:15:00 PM 1.65 34.97 0.059 5.99 1.85 13.59
12/7/2020 10:30:00 PM 1.65 34.97 0.059 5.99 1.8 13.59
12/7/2020 10:45:00 PM 1.65 34.97 0.059 6 1.81 13.6
12/7/2020 11:00:00 PM 1.65 34.97 0.059 6 1.84 13.6
12/7/2020 11:15:00 PM 1.65 34.97 0.059 6.01 1.88 13.6
12/7/2020 11:30:00 PM 1.65 34.97 0.059 6.01 1.89 13.6
12/7/2020 11:45:00 PM 1.65 34.97 0.059 5.99 1.93 13.6
12/8/2020 12:00:00 AM 1.65 34.97 0.059 6 1.94 13.6
12/8/2020 12:15:00 AM 1.65 34.97 0.059 5.99 1.93 13.6
12/8/2020 12:30:00 AM 1.65 34.97 0.059 6 1.92 13.6
12/8/2020 12:45:00 AM 1.65 34.97 0.059 5.99 1.93 13.6
12/8/2020 1:00:00 AM 1.64 34.952 0.059 6 1.96 13.6
12/8/2020 1:15:00 AM 1.63 34.934 0.059 6.01 1.99 13.6
12/8/2020 1:30:00 AM 1.63 34.934 0.059 6 1.92 13.6
12/8/2020 1:45:00 AM 1.62 34.916 0.059 5.98 1.95 13.6
12/8/2020 2:00:00 AM 1.62 34.916 0.059 5.99 1.96 13.61
12/8/2020 2:15:00 AM 1.62 34.916 0.059 5.98 2.03 13.61
12/8/2020 2:30:00 AM 1.61 34.898 0.059 6 2.05 13.61
12/8/2020 2:45:00 AM 1.61 34.898 0.059 5.98 2.08 13.61
12/8/2020 3:00:00 AM 1.61 34.898 0.059 6 2.13 13.62
12/8/2020 3:15:00 AM 1.6 34.88 0.059 6 2.18 13.62
12/8/2020 3:30:00 AM 1.59 34.862 0.059 6.01 2.13 13.62
12/8/2020 3:45:00 AM 1.59 34.862 0.059 6 2.13 13.62
12/8/2020 4:00:00 AM 1.59 34.862 0.059 6 2.1 13.62
12/8/2020 4:15:00 AM 1.58 34.844 0.059 5.99 2.11 13.63
12/8/2020 4:30:00 AM 1.57 34.826 0.059 6 2.04 13.63
12/8/2020 4:45:00 AM 1.56 34.808 0.059 6 2.01 13.64
12/8/2020 5:00:00 AM 1.56 34.808 0.059 6 1.99 13.64
12/8/2020 5:15:00 AM 1.55 34.79 0.059 6 1.99 13.64
12/8/2020 5:30:00 AM 1.54 34.772 0.059 5.99 1.93 13.65
12/8/2020 5:45:00 AM 1.53 34.754 0.059 6 2 13.65
12/8/2020 6:00:00 AM 1.52 34.736 0.059 6 1.91 13.66
12/8/2020 6:15:00 AM 1.5 34.7 0.059 6 1.9 13.67
12/8/2020 6:30:00 AM 1.49 34.682 0.059 5.99 1.88 13.68
12/8/2020 6:45:00 AM 1.48 34.664 0.059 6 1.88 13.69
12/8/2020 7:00:00 AM 1.45 34.61 0.059 6.01 1.83 13.7
12/8/2020 7:15:00 AM 1.44 34.592 0.059 6 1.85 13.71
12/8/2020 7:30:00 AM 1.43 34.574 0.059 6.01 1.86 13.72
12/8/2020 7:45:00 AM 1.42 34.556 0.059 6.01 1.83 13.75
12/8/2020 8:00:00 AM 1.41 34.538 0.059 6.01 1.84 13.78
12/8/2020 8:15:00 AM 1.41 34.538 0.059 6.01 1.8 13.83
12/8/2020 8:30:00 AM 1.4 34.52 0.059 6.04 1.83 13.86
12/8/2020 8:45:00 AM 1.41 34.538 0.059 6.03 1.8 13.88
12/8/2020 9:00:00 AM 1.45 34.61 0.059 6.06 1.79 13.91
12/8/2020 9:15:00 AM 1.46 34.628 0.059 6.06 1.79 13.93
12/8/2020 9:30:00 AM 1.48 34.664 0.059 6.05 1.86 13.94
12/8/2020 9:45:00 AM 1.51 34.718 0.059 6.07 1.8 13.94
12/8/2020 10:00:00 AM 1.55 34.79 0.059 6.08 1.8 13.94
12/8/2020 10:15:00 AM 1.58 34.844 0.059 6.07 1.81 13.93
12/8/2020 10:30:00 AM 1.6 34.88 0.059 6.1 1.77 13.92
12/8/2020 10:45:00 AM 1.64 34.952 0.059 6.09 1.82 13.9
12/8/2020 11:00:00 AM 1.7 35.06 0.059 6.08 1.81 13.88
12/8/2020 11:15:00 AM 1.78 35.204 0.059 6.1 1.82 13.85
12/8/2020 11:30:00 AM 1.88 35.384 0.059 6.1 1.84 13.81
12/8/2020 11:45:00 AM 1.97 35.546 0.058 6.11 1.84 13.78
12/8/2020 12:00:00 PM 2.04 35.672 0.058 6.09 1.76 13.74
12/8/2020 12:15:00 PM 2.08 35.744 0.058 6.1 1.8 13.71
12/8/2020 12:30:00 PM 2.11 35.798 0.058 6.1 1.77 13.69
12/8/2020 12:45:00 PM 2.13 35.834 0.058 6.09 1.76 13.66
12/8/2020 1:00:00 PM 2.13 35.834 0.058 6.07 1.78 13.65
12/8/2020 1:15:00 PM 2.11 35.798 0.058 6.07 1.73 13.65
12/8/2020 1:30:00 PM 2.08 35.744 0.058 6.1 1.83 13.65
12/8/2020 1:45:00 PM 2.05 35.69 0.059 6.08 1.79 13.65
12/8/2020 2:00:00 PM 2.02 35.636 0.059 6.05 1.78 13.65
12/8/2020 2:15:00 PM 2.01 35.618 0.059 6.05 1.82 13.66
12/8/2020 2:30:00 PM 1.99 35.582 0.059 6.08 1.84 13.65
12/8/2020 2:45:00 PM 1.98 35.564 0.059 6.07 1.88 13.65
12/8/2020 3:00:00 PM 1.96 35.528 0.059 6.06 1.9 13.65
12/8/2020 3:15:00 PM 1.94 35.492 0.059 6.06 1.95 13.65
12/8/2020 3:30:00 PM 1.92 35.456 0.059 6.06 1.93 13.65
12/8/2020 3:45:00 PM 1.9 35.42 0.059 6.06 1.95 13.64
12/8/2020 4:00:00 PM 1.89 35.402 0.059 6.05 1.97 13.63
12/8/2020 4:15:00 PM 1.87 35.366 0.059 6.03 1.89 13.62
12/8/2020 4:30:00 PM 1.85 35.33 0.059 6.03 1.88 13.61
12/8/2020 4:45:00 PM 1.82 35.276 0.059 6.03 1.9 13.6
12/8/2020 5:00:00 PM 1.79 35.222 0.059 6.02 1.88 13.59
12/8/2020 5:15:00 PM 1.75 35.15 0.059 6.02 1.89 13.6
12/8/2020 5:30:00 PM 1.71 35.078 0.059 6.02 1.89 13.61
12/8/2020 5:45:00 PM 1.67 35.006 0.059 6.01 1.85 13.63
12/8/2020 6:00:00 PM 1.63 34.934 0.059 6.01 1.84 13.64
12/8/2020 6:15:00 PM 1.59 34.862 0.059 6 1.82 13.66
12/8/2020 6:30:00 PM 1.55 34.79 0.059 6.01 1.85 13.67
12/8/2020 6:45:00 PM 1.52 34.736 0.059 6 1.81 13.68
12/8/2020 7:00:00 PM 1.49 34.682 0.059 6.01 1.83 13.69
12/8/2020 7:15:00 PM 1.47 34.646 0.059 6.01 1.76 13.7
12/8/2020 7:30:00 PM 1.44 34.592 0.059 5.99 1.78 13.7
12/8/2020 7:45:00 PM 1.42 34.556 0.059 6.01 1.8 13.71
12/8/2020 8:00:00 PM 1.4 34.52 0.059 6.01 1.8 13.72
12/8/2020 8:15:00 PM 1.38 34.484 0.059 6.01 1.78 13.73
12/8/2020 8:30:00 PM 1.35 34.43 0.059 6.03 1.82 13.74
12/8/2020 8:45:00 PM 1.32 34.376 0.059 6 1.8 13.74
12/8/2020 9:00:00 PM 1.29 34.322 0.059 6.01 1.9 13.76
12/8/2020 9:15:00 PM 1.27 34.286 0.059 5.99 1.81 13.77
12/8/2020 9:30:00 PM 1.24 34.232 0.059 5.99 1.81 13.78
12/8/2020 9:45:00 PM 1.22 34.196 0.059 5.98 1.77 13.79
12/8/2020 10:00:00 PM 1.2 34.16 0.059 6 1.83 13.8
12/8/2020 10:15:00 PM 1.17 34.106 0.059 5.99 1.85 13.81
12/8/2020 10:30:00 PM 1.15 34.07 0.059 5.98 1.81 13.82
12/8/2020 10:45:00 PM 1.14 34.052 0.06 5.99 1.84 13.83
12/8/2020 11:00:00 PM 1.11 33.998 0.06 6.01 1.81 13.84
12/8/2020 11:15:00 PM 1.09 33.962 0.06 5.98 1.77 13.85
12/8/2020 11:30:00 PM 1.07 33.926 0.06 5.99 1.79 13.86
12/8/2020 11:45:00 PM 1.06 33.908 0.06 5.99 1.77 13.87
12/9/2020 12:00:00 AM 1.04 33.872 0.06 5.99 1.82 13.88
12/9/2020 12:15:00 AM 1.02 33.836 0.06 5.99 1.82 13.89
12/9/2020 12:30:00 AM 0.99 33.782 0.06 5.98 1.82 13.9
12/9/2020 12:45:00 AM 0.97 33.746 0.06 5.97 1.76 13.91
12/9/2020 1:00:00 AM 0.95 33.71 0.06 6 1.78 13.92
12/9/2020 1:15:00 AM 0.94 33.692 0.06 5.99 1.74 13.92
12/9/2020 1:30:00 AM 0.93 33.674 0.06 6 1.76 13.92
12/9/2020 1:45:00 AM 0.93 33.674 0.06 6.01 1.78 13.93
12/9/2020 2:00:00 AM 0.92 33.656 0.06 6 1.81 13.93
12/9/2020 2:15:00 AM 0.92 33.656 0.06 6 1.77 13.93
12/9/2020 2:30:00 AM 0.91 33.638 0.06 5.99 1.75 13.93
12/9/2020 2:45:00 AM 0.9 33.62 0.06 5.99 1.81 13.94
12/9/2020 3:00:00 AM 0.89 33.602 0.06 5.99 1.83 13.94
12/9/2020 3:15:00 AM 0.89 33.602 0.06 6 1.82 13.94
12/9/2020 3:30:00 AM 0.89 33.602 0.06 6.01 1.81 13.94
12/9/2020 3:45:00 AM 0.89 33.602 0.06 6 1.83 13.94
12/9/2020 4:00:00 AM 0.89 33.602 0.06 6 1.84 13.94
12/9/2020 4:15:00 AM 0.89 33.602 0.06 5.99 1.87 13.94
12/9/2020 4:30:00 AM 0.89 33.602 0.06 5.99 1.82 13.94
12/9/2020 4:45:00 AM 0.89 33.602 0.06 6 1.8 13.94
12/9/2020 5:00:00 AM 0.89 33.602 0.06 6 1.84 13.94
12/9/2020 5:15:00 AM 0.9 33.62 0.06 5.99 1.84 13.94
12/9/2020 5:30:00 AM 0.91 33.638 0.06 6 1.89 13.93
12/9/2020 5:45:00 AM 0.91 33.638 0.06 5.99 1.88 13.92
12/9/2020 6:00:00 AM 0.92 33.656 0.06 5.99 1.91 13.93
12/9/2020 6:15:00 AM 0.93 33.674 0.06 6.01 1.91 13.92
12/9/2020 6:30:00 AM 0.93 33.674 0.06 6 1.91 13.91
12/9/2020 6:45:00 AM 0.94 33.692 0.06 5.99 1.92 13.91
12/9/2020 7:00:00 AM 0.95 33.71 0.06 5.97 1.9 13.91
12/9/2020 7:15:00 AM 0.97 33.746 0.06 6.01 1.87 13.9
12/9/2020 7:30:00 AM 0.98 33.764 0.06 6.02 1.87 13.9
12/9/2020 7:45:00 AM 1 33.8 0.06 6.01 1.9 13.9
12/9/2020 8:00:00 AM 1.02 33.836 0.06 6 1.82 13.9
12/9/2020 8:15:00 AM 1.03 33.854 0.06 6.01 1.85 13.9
12/9/2020 8:30:00 AM 0.95 33.71 0.06 6 1.89 13.91
12/9/2020 8:45:00 AM 0.88 33.584 0.06 6 1.84 13.93
12/9/2020 9:00:00 AM 0.82 33.476 0.059 6.01 1.91 13.96
12/9/2020 9:15:00 AM 0.68 33.224 0.059 5.99 1.85 13.97
12/9/2020 9:30:00 AM 0.59 33.062 0.059 6 1.81 14.02
12/9/2020 9:45:00 AM 0.61 33.098 0.059 6.03 1.84 14.07
12/9/2020 10:00:00 AM 0.59 33.062 0.059 6 1.82 14.11
12/9/2020 10:15:00 AM 0.55 32.99 0.059 6.03 1.8 14.14
12/9/2020 10:30:00 AM 0.54 32.972 0.059 6.02 1.82 14.17
12/9/2020 10:45:00 AM 0.56 33.008 0.059 6.03 1.77 14.2
12/9/2020 11:00:00 AM 0.58 33.044 0.059 6.04 1.77 14.21
12/9/2020 11:15:00 AM 0.6 33.08 0.059 6.04 1.75 14.21
12/9/2020 11:30:00 AM 0.64 33.152 0.059 6.05 1.8 14.2
12/9/2020 11:45:00 AM 0.67 33.206 0.059 6.05 1.82 14.2
12/9/2020 12:00:00 PM 0.71 33.278 0.059 6.06 1.79 14.19
12/9/2020 12:15:00 PM 0.75 33.35 0.059 6.07 1.76 14.17
12/9/2020 12:30:00 PM 0.78 33.404 0.059 6.06 1.73 14.15
12/9/2020 12:45:00 PM 0.81 33.458 0.059 6.08 1.79 14.12
12/9/2020 1:00:00 PM 0.84 33.512 0.059 6.06 1.71 14.11
12/9/2020 1:15:00 PM 0.88 33.584 0.059 6.07 1.72 14.1
12/9/2020 1:30:00 PM 0.91 33.638 0.059 6.08 1.74 14.08
12/9/2020 1:45:00 PM 0.96 33.728 0.059 6.08 1.73 14.07
12/9/2020 2:00:00 PM 1 33.8 0.059 6.06 1.77 14.06
12/9/2020 2:15:00 PM 1.04 33.872 0.059 6.08 1.74 14.04
12/9/2020 2:30:00 PM 1.08 33.944 0.059 6.07 1.72 14.01
12/9/2020 2:45:00 PM 1.11 33.998 0.059 6.05 1.7 13.98
12/9/2020 3:00:00 PM 1.13 34.034 0.059 6.05 1.73 13.94
12/9/2020 3:15:00 PM 1.15 34.07 0.059 6.05 1.72 13.92
12/9/2020 3:30:00 PM 1.18 34.124 0.059 6.04 1.7 13.9
12/9/2020 3:45:00 PM 1.2 34.16 0.059 6.03 1.72 13.88
12/9/2020 4:00:00 PM 1.22 34.196 0.059 6.04 1.74 13.86
12/9/2020 4:15:00 PM 1.24 34.232 0.059 6.04 1.72 13.84
12/9/2020 4:30:00 PM 1.26 34.268 0.059 6.03 1.72 13.82
12/9/2020 4:45:00 PM 1.27 34.286 0.059 6.02 1.72 13.79
12/9/2020 5:00:00 PM 1.29 34.322 0.059 6.01 1.77 13.77
12/9/2020 5:15:00 PM 1.31 34.358 0.059 6.01 1.73 13.76
12/9/2020 5:30:00 PM 1.32 34.376 0.059 6.01 1.74 13.75
12/9/2020 5:45:00 PM 1.34 34.412 0.059 6.01 1.72 13.75
12/9/2020 6:00:00 PM 1.35 34.43 0.059 6.01 1.75 13.75
12/9/2020 6:15:00 PM 1.37 34.466 0.059 6.02 1.76 13.74
12/9/2020 6:30:00 PM 1.38 34.484 0.059 6.01 1.75 13.73
12/9/2020 6:45:00 PM 1.4 34.52 0.059 6.01 1.69 13.73
12/9/2020 7:00:00 PM 1.41 34.538 0.059 6.01 1.72 13.72
12/9/2020 7:15:00 PM 1.42 34.556 0.059 6 1.74 13.72
12/9/2020 7:30:00 PM 1.44 34.592 0.059 6.01 1.75 13.72
12/9/2020 7:45:00 PM 1.45 34.61 0.059 6 1.73 13.71
12/9/2020 8:00:00 PM 1.46 34.628 0.059 6 1.75 13.71
12/9/2020 8:15:00 PM 1.47 34.646 0.059 6 1.77 13.71
12/9/2020 8:30:00 PM 1.48 34.664 0.059 6.01 1.75 13.71
12/9/2020 8:45:00 PM 1.49 34.682 0.059 5.99 1.78 13.7
12/9/2020 9:00:00 PM 1.51 34.718 0.059 5.99 1.8 13.7
12/9/2020 9:15:00 PM 1.52 34.736 0.059 5.99 1.76 13.7
12/9/2020 9:30:00 PM 1.53 34.754 0.059 5.99 1.77 13.69
12/9/2020 9:45:00 PM 1.54 34.772 0.059 6 1.76 13.69
12/9/2020 10:00:00 PM 1.55 34.79 0.059 6 1.75 13.68
12/9/2020 10:15:00 PM 1.56 34.808 0.059 6.01 1.76 13.68
12/9/2020 10:30:00 PM 1.58 34.844 0.059 6 1.77 13.68
12/9/2020 10:45:00 PM 1.59 34.862 0.059 5.99 1.77 13.68
12/9/2020 11:00:00 PM 1.61 34.898 0.059 5.99 1.72 13.67
12/9/2020 11:15:00 PM 1.62 34.916 0.059 5.99 1.74 13.66
12/9/2020 11:30:00 PM 1.64 34.952 0.059 6.01 1.74 13.66
12/9/2020 11:45:00 PM 1.65 34.97 0.06 6 1.76 13.65
12/10/2020 12:00:00 AM 1.67 35.006 0.06 6.02 1.74 13.65
12/10/2020 12:15:00 AM 1.68 35.024 0.06 6 1.77 13.64
12/10/2020 12:30:00 AM 1.7 35.06 0.06 6.01 1.77 13.64
12/10/2020 12:45:00 AM 1.71 35.078 0.06 6.02 1.75 13.63
12/10/2020 1:00:00 AM 1.72 35.096 0.059 5.99 1.74 13.63
12/10/2020 1:15:00 AM 1.74 35.132 0.059 6.01 1.76 13.63
12/10/2020 1:30:00 AM 1.75 35.15 0.059 5.99 1.71 13.62
12/10/2020 1:45:00 AM 1.76 35.168 0.059 6.01 1.72 13.61
12/10/2020 2:00:00 AM 1.77 35.186 0.059 6 1.72 13.61
12/10/2020 2:15:00 AM 1.78 35.204 0.059 6 1.71 13.61
12/10/2020 2:30:00 AM 1.79 35.222 0.059 5.99 1.71 13.6
12/10/2020 2:45:00 AM 1.81 35.258 0.059 6.01 1.69 13.6
12/10/2020 3:00:00 AM 1.82 35.276 0.059 6.02 1.71 13.6
12/10/2020 3:15:00 AM 1.83 35.294 0.059 6 1.72 13.6
12/10/2020 3:30:00 AM 1.84 35.312 0.059 5.99 1.71 13.59
12/10/2020 3:45:00 AM 1.86 35.348 0.059 6.02 1.7 13.59
12/10/2020 4:00:00 AM 1.87 35.366 0.059 6.02 1.7 13.59
12/10/2020 4:15:00 AM 1.88 35.384 0.059 5.99 1.69 13.59
12/10/2020 4:30:00 AM 1.89 35.402 0.059 6 1.7 13.58
12/10/2020 4:45:00 AM 1.9 35.42 0.059 6.01 1.72 13.58
12/10/2020 5:00:00 AM 1.91 35.438 0.059 6.01 1.69 13.58
12/10/2020 5:15:00 AM 1.91 35.438 0.059 5.99 1.7 13.57
12/10/2020 5:30:00 AM 1.92 35.456 0.059 6 1.71 13.57
12/10/2020 5:45:00 AM 1.93 35.474 0.059 6.01 1.72 13.58
12/10/2020 6:00:00 AM 1.93 35.474 0.059 6 1.68 13.58
12/10/2020 6:15:00 AM 1.93 35.474 0.059 5.98 1.68 13.58
12/10/2020 6:30:00 AM 1.93 35.474 0.059 6 1.69 13.58
12/10/2020 6:45:00 AM 1.94 35.492 0.059 6 1.7 13.58
12/10/2020 7:00:00 AM 1.94 35.492 0.059 6 1.74 13.58
12/10/2020 7:15:00 AM 1.95 35.51 0.059 6 1.71 13.58
12/10/2020 7:30:00 AM 1.95 35.51 0.059 6 1.79 13.59
12/10/2020 7:45:00 AM 1.97 35.546 0.059 6.01 1.72 13.61
12/10/2020 8:00:00 AM 1.98 35.564 0.059 6.01 1.72 13.64
12/10/2020 8:15:00 AM 1.98 35.564 0.059 6.03 1.67 13.67
12/10/2020 8:30:00 AM 1.99 35.582 0.059 6.02 1.66 13.7
12/10/2020 8:45:00 AM 2.02 35.636 0.059 6.04 1.7 13.73
12/10/2020 9:00:00 AM 2.05 35.69 0.059 6.05 1.65 13.75
12/10/2020 9:15:00 AM 2.09 35.762 0.059 6.06 1.67 13.77
12/10/2020 9:30:00 AM 2.13 35.834 0.059 6.08 1.68 13.77
12/10/2020 9:45:00 AM 2.17 35.906 0.059 6.09 1.73 13.77
12/10/2020 10:00:00 AM 2.21 35.978 0.059 6.08 1.68 13.77
12/10/2020 10:15:00 AM 2.26 36.068 0.059 6.09 1.66 13.76
12/10/2020 10:30:00 AM 2.32 36.176 0.059 6.08 1.71 13.75
12/10/2020 10:45:00 AM 2.39 36.302 0.059 6.1 1.69 13.73
12/10/2020 11:00:00 AM 2.46 36.428 0.059 6.13 1.71 13.71
12/10/2020 11:15:00 AM 2.53 36.554 0.059 6.12 1.75 13.68
12/10/2020 11:30:00 AM 2.62 36.716 0.059 6.12 1.71 13.67
12/10/2020 11:45:00 AM 2.7 36.86 0.059 6.12 1.73 13.64
12/10/2020 12:00:00 PM 2.76 36.968 0.058 6.12 1.67 13.61
12/10/2020 12:15:00 PM 2.83 37.094 0.058 6.14 1.74 13.59
12/10/2020 12:30:00 PM 2.9 37.22 0.058 6.13 1.71 13.57
12/10/2020 12:45:00 PM 2.95 37.31 0.058 6.14 1.7 13.55
12/10/2020 1:00:00 PM 3.02 37.436 0.058 6.12 1.67 13.51
12/10/2020 1:15:00 PM 3.08 37.544 0.058 6.11 1.71 13.49
12/10/2020 1:30:00 PM 3.13 37.634 0.058 6.13 1.66 13.46
12/10/2020 1:45:00 PM 3.14 37.652 0.058 6.12 1.69 13.43
12/10/2020 2:00:00 PM 3.14 37.652 0.058 6.1 1.66 13.41
12/10/2020 2:15:00 PM 3.14 37.652 0.058 6.1 1.67 13.38
12/10/2020 2:30:00 PM 3.15 37.67 0.058 6.11 1.67 13.38
12/10/2020 2:45:00 PM 3.14 37.652 0.058 6.09 1.68 13.36
12/10/2020 3:00:00 PM 3.12 37.616 0.059 6.08 1.74 13.34
12/10/2020 3:15:00 PM 3.09 37.562 0.059 6.06 1.68 13.34
12/10/2020 3:30:00 PM 3.06 37.508 0.059 6.08 1.64 13.33
12/10/2020 3:45:00 PM 3.03 37.454 0.059 6.08 1.69 13.33
12/10/2020 4:00:00 PM 2.99 37.382 0.059 6.05 1.7 13.33
12/10/2020 4:15:00 PM 2.95 37.31 0.059 6.05 1.69 13.33
12/10/2020 4:30:00 PM 2.91 37.238 0.059 6.04 1.75 13.33
12/10/2020 4:45:00 PM 2.87 37.166 0.059 6.05 1.74 13.32
12/10/2020 5:00:00 PM 2.84 37.112 0.059 6.03 1.7 13.31
12/10/2020 5:15:00 PM 2.8 37.04 0.059 6.02 1.74 13.31
12/10/2020 5:30:00 PM 2.76 36.968 0.059 6.02 1.73 13.32
12/10/2020 5:45:00 PM 2.73 36.914 0.059 6.01 1.69 13.33
12/10/2020 6:00:00 PM 2.69 36.842 0.059 6.02 1.64 13.34
12/10/2020 6:15:00 PM 2.65 36.77 0.059 6.01 1.68 13.36
12/10/2020 6:30:00 PM 2.61 36.698 0.059 6.01 1.72 13.37
12/10/2020 6:45:00 PM 2.57 36.626 0.059 6 1.75 13.39
12/10/2020 7:00:00 PM 2.54 36.572 0.059 6.01 1.71 13.4
12/10/2020 7:15:00 PM 2.51 36.518 0.059 6.01 1.73 13.41
12/10/2020 7:30:00 PM 2.48 36.464 0.059 5.99 1.73 13.42
12/10/2020 7:45:00 PM 2.45 36.41 0.06 6 1.69 13.43
12/10/2020 8:00:00 PM 2.42 36.356 0.06 6.01 1.73 13.44
12/10/2020 8:15:00 PM 2.39 36.302 0.06 6 1.73 13.46
12/10/2020 8:30:00 PM 2.37 36.266 0.06 6.01 1.73 13.46
12/10/2020 8:45:00 PM 2.34 36.212 0.06 6.01 1.72 13.47
12/10/2020 9:00:00 PM 2.32 36.176 0.06 6 1.68 13.48
12/10/2020 9:15:00 PM 2.29 36.122 0.06 6.01 1.65 13.49
12/10/2020 9:30:00 PM 2.27 36.086 0.06 6.01 1.69 13.5
12/10/2020 9:45:00 PM 2.25 36.05 0.06 6.01 1.73 13.5
12/10/2020 10:00:00 PM 2.23 36.014 0.06 6 1.71 13.51
12/10/2020 10:15:00 PM 2.21 35.978 0.06 6.01 1.73 13.52
12/10/2020 10:30:00 PM 2.19 35.942 0.06 6.01 1.71 13.53
12/10/2020 10:45:00 PM 2.17 35.906 0.06 6 1.72 13.53
12/10/2020 11:00:00 PM 2.15 35.87 0.06 6.02 1.75 13.53
12/10/2020 11:15:00 PM 2.12 35.816 0.06 6.01 1.71 13.54
12/10/2020 11:30:00 PM 2.1 35.78 0.06 6.01 1.76 13.55
12/10/2020 11:45:00 PM 2.08 35.744 0.06 6 1.77 13.56
12/11/2020 12:00:00 AM 2.06 35.708 0.06 6 1.92 13.57
12/11/2020 12:15:00 AM 2.04 35.672 0.06 6.02 1.77 13.57
12/11/2020 12:30:00 AM 2.02 35.636 0.06 6.02 1.75 13.58
12/11/2020 12:45:00 AM 1.99 35.582 0.06 5.99 1.82 13.59
12/11/2020 1:00:00 AM 1.97 35.546 0.06 6 1.75 13.6
12/11/2020 1:15:00 AM 1.95 35.51 0.06 6.01 1.77 13.61
12/11/2020 1:30:00 AM 1.92 35.456 0.06 5.99 1.74 13.61
12/11/2020 1:45:00 AM 1.9 35.42 0.06 6.01 1.76 13.62
12/11/2020 2:00:00 AM 1.88 35.384 0.06 6.01 1.82 13.63
12/11/2020 2:15:00 AM 1.86 35.348 0.06 6.01 1.8 13.64
12/11/2020 2:30:00 AM 1.84 35.312 0.06 6 1.78 13.65
12/11/2020 2:45:00 AM 1.82 35.276 0.06 5.99 1.8 13.66
12/11/2020 3:00:00 AM 1.8 35.24 0.06 6 1.82 13.67
12/11/2020 3:15:00 AM 1.78 35.204 0.06 6 1.83 13.68
12/11/2020 3:30:00 AM 1.76 35.168 0.06 6.01 1.84 13.7
12/11/2020 3:45:00 AM 1.74 35.132 0.06 6 1.87 13.7
12/11/2020 4:00:00 AM 1.72 35.096 0.06 6 1.88 13.71
12/11/2020 4:15:00 AM 1.7 35.06 0.06 6 1.86 13.72
12/11/2020 4:30:00 AM 1.68 35.024 0.06 6.01 1.86 13.73
12/11/2020 4:45:00 AM 1.66 34.988 0.06 6 1.94 13.74
12/11/2020 5:00:00 AM 1.64 34.952 0.06 6.01 1.92 13.74
12/11/2020 5:15:00 AM 1.62 34.916 0.06 6.02 1.89 13.75
12/11/2020 5:30:00 AM 1.6 34.88 0.06 6.02 1.99 13.76
12/11/2020 5:45:00 AM 1.59 34.862 0.06 6 1.97 13.77
12/11/2020 6:00:00 AM 1.57 34.826 0.06 6 1.97 13.78
12/11/2020 6:15:00 AM 1.55 34.79 0.06 5.99 1.95 13.78
12/11/2020 6:30:00 AM 1.53 34.754 0.06 6.01 1.99 13.79
12/11/2020 6:45:00 AM 1.52 34.736 0.06 6 1.92 13.8
12/11/2020 7:00:00 AM 1.5 34.7 0.06 6.02 1.88 13.8
12/11/2020 7:15:00 AM 1.49 34.682 0.06 6.02 1.88 13.82
12/11/2020 7:30:00 AM 1.47 34.646 0.06 6.01 1.87 13.83
12/11/2020 7:45:00 AM 1.46 34.628 0.06 6.03 1.91 13.86
12/11/2020 8:00:00 AM 1.45 34.61 0.06 6.04 1.88 13.89
12/11/2020 8:15:00 AM 1.45 34.61 0.06 6.04 1.84 13.93
12/11/2020 8:30:00 AM 1.45 34.61 0.06 6.03 1.84 13.96
12/11/2020 8:45:00 AM 1.46 34.628 0.06 6.04 1.85 13.98
12/11/2020 9:00:00 AM 1.48 34.664 0.06 6.05 1.82 14.01
12/11/2020 9:15:00 AM 1.51 34.718 0.06 6.06 1.8 14.02
12/11/2020 9:30:00 AM 1.54 34.772 0.06 6.08 1.82 14.03
12/11/2020 9:45:00 AM 1.59 34.862 0.06 6.09 1.76 14.03
12/11/2020 10:00:00 AM 1.64 34.952 0.06 6.08 1.75 14.02
12/11/2020 10:15:00 AM 1.7 35.06 0.06 6.09 1.75 14.01
12/11/2020 10:30:00 AM 1.78 35.204 0.06 6.1 1.83 13.99
12/11/2020 10:45:00 AM 1.87 35.366 0.06 6.12 1.7 13.96
12/11/2020 11:00:00 AM 1.98 35.564 0.06 6.11 1.73 13.92
12/11/2020 11:15:00 AM 2.12 35.816 0.06 6.13 1.69 13.87
12/11/2020 11:30:00 AM 2.26 36.068 0.06 6.14 1.69 13.82
12/11/2020 11:45:00 AM 2.37 36.266 0.06 6.15 1.66 13.77
12/11/2020 12:00:00 PM 2.48 36.464 0.06 6.15 1.67 13.72
12/11/2020 12:15:00 PM 2.57 36.626 0.06 6.13 1.67 13.68
12/11/2020 12:30:00 PM 2.64 36.752 0.06 6.14 1.67 13.65
12/11/2020 12:45:00 PM 2.69 36.842 0.06 6.13 1.72 13.62
12/11/2020 1:00:00 PM 2.74 36.932 0.06 6.14 1.67 13.59
12/11/2020 1:15:00 PM 2.78 37.004 0.06 6.14 1.62 13.57
12/11/2020 1:30:00 PM 2.82 37.076 0.06 6.14 1.65 13.56
12/11/2020 1:45:00 PM 2.84 37.112 0.06 6.12 1.67 13.53
12/11/2020 2:00:00 PM 2.86 37.148 0.06 6.13 1.63 13.5
12/11/2020 2:15:00 PM 2.89 37.202 0.06 6.13 1.66 13.49
12/11/2020 2:30:00 PM 2.9 37.22 0.06 6.11 1.65 13.47
12/11/2020 2:45:00 PM 2.93 37.274 0.06 6.11 1.65 13.45
12/11/2020 3:00:00 PM 2.95 37.31 0.06 6.11 1.62 13.44
12/11/2020 3:15:00 PM 2.96 37.328 0.06 6.1 1.65 13.43
12/11/2020 3:30:00 PM 2.97 37.346 0.06 6.09 1.63 13.41
12/11/2020 3:45:00 PM 2.97 37.346 0.06 6.12 1.66 13.38
12/11/2020 4:00:00 PM 2.96 37.328 0.06 6.1 1.63 13.37
12/11/2020 4:15:00 PM 2.94 37.292 0.06 6.14 1.66 13.34
12/11/2020 4:30:00 PM 2.92 37.256 0.06 6.1 1.67 13.32
12/11/2020 4:45:00 PM 2.91 37.238 0.06 6.09 1.66 13.29
12/11/2020 5:00:00 PM 2.88 37.184 0.06 6.06 1.63 13.28
12/11/2020 5:15:00 PM 2.86 37.148 0.061 6.06 1.62 13.27
12/11/2020 5:30:00 PM 2.84 37.112 0.061 6.05 1.7 13.27
12/11/2020 5:45:00 PM 2.81 37.058 0.061 6.04 1.61 13.27
12/11/2020 6:00:00 PM 2.79 37.022 0.061 6.03 1.64 13.28
12/11/2020 6:15:00 PM 2.76 36.968 0.061 6.05 1.67 13.29
12/11/2020 6:30:00 PM 2.73 36.914 0.061 6.03 1.63 13.3
12/11/2020 6:45:00 PM 2.7 36.86 0.061 6.04 1.65 13.32
12/11/2020 7:00:00 PM 2.68 36.824 0.061 6.04 1.65 13.32
12/11/2020 7:15:00 PM 2.65 36.77 0.061 6.01 1.63 13.33
12/11/2020 7:30:00 PM 2.62 36.716 0.061 6.01 1.64 13.34
12/11/2020 7:45:00 PM 2.59 36.662 0.061 6.01 1.64 13.36
12/11/2020 8:00:00 PM 2.56 36.608 0.061 6 1.63 13.37
12/11/2020 8:15:00 PM 2.54 36.572 0.061 6.02 1.64 13.38
12/11/2020 8:30:00 PM 2.51 36.518 0.061 6.01 1.63 13.39
12/11/2020 8:45:00 PM 2.49 36.482 0.061 6.01 1.65 13.39
12/11/2020 9:00:00 PM 2.46 36.428 0.061 6.05 1.71 13.4
12/11/2020 9:15:00 PM 2.44 36.392 0.061 6.03 1.8 13.41
12/11/2020 9:30:00 PM 2.42 36.356 0.06 6.02 1.65 13.41
12/11/2020 9:45:00 PM 2.4 36.32 0.06 6.01 1.65 13.42
12/11/2020 10:00:00 PM 2.39 36.302 0.06 6.01 1.64 13.43
12/11/2020 10:15:00 PM 2.38 36.284 0.06 6.02 1.65 13.43
12/11/2020 10:30:00 PM 2.37 36.266 0.06 6.01 1.71 13.43
12/11/2020 10:45:00 PM 2.36 36.248 0.06 6.01 1.64 13.44
12/11/2020 11:00:00 PM 2.35 36.23 0.06 6.01 1.62 13.44
12/11/2020 11:15:00 PM 2.34 36.212 0.06 6.01 1.65 13.44
12/11/2020 11:30:00 PM 2.33 36.194 0.06 6.02 1.64 13.44
12/11/2020 11:45:00 PM 2.32 36.176 0.06 6 1.64 13.45
12/12/2020 12:00:00 AM 2.31 36.158 0.06 6.01 1.65 13.45
12/12/2020 12:15:00 AM 2.3 36.14 0.06 6.02 1.64 13.45
12/12/2020 12:30:00 AM 2.3 36.14 0.06 6.03 1.64 13.45
12/12/2020 12:45:00 AM 2.29 36.122 0.06 6.03 1.64 13.45
12/12/2020 1:00:00 AM 2.29 36.122 0.06 6.02 1.61 13.45
12/12/2020 1:15:00 AM 2.28 36.104 0.06 6.02 1.66 13.45
12/12/2020 1:30:00 AM 2.28 36.104 0.06 6.01 1.61 13.45
12/12/2020 1:45:00 AM 2.27 36.086 0.06 6.01 1.65 13.45
12/12/2020 2:00:00 AM 2.27 36.086 0.06 6.04 1.66 13.45
12/12/2020 2:15:00 AM 2.27 36.086 0.06 6.01 1.64 13.46
12/12/2020 2:30:00 AM 2.27 36.086 0.06 6.01 1.63 13.46
12/12/2020 2:45:00 AM 2.26 36.068 0.06 6.01 1.65 13.46
12/12/2020 3:00:00 AM 2.27 36.086 0.06 6.02 1.65 13.46
12/12/2020 3:15:00 AM 2.27 36.086 0.06 6.01 1.61 13.46
12/12/2020 3:30:00 AM 2.27 36.086 0.06 6.02 1.62 13.46
12/12/2020 3:45:00 AM 2.27 36.086 0.06 6.01 1.62 13.46
12/12/2020 4:00:00 AM 2.27 36.086 0.06 6 1.63 13.46
12/12/2020 4:15:00 AM 2.26 36.068 0.06 6.02 1.64 13.46
12/12/2020 4:30:00 AM 2.25 36.05 0.06 6.01 1.62 13.46
12/12/2020 4:45:00 AM 2.26 36.068 0.06 6.02 1.63 13.46
12/12/2020 5:00:00 AM 2.26 36.068 0.06 6.01 1.65 13.46
12/12/2020 5:15:00 AM 2.26 36.068 0.06 6.02 1.61 13.46
12/12/2020 5:30:00 AM 2.25 36.05 0.06 6.01 1.59 13.46
12/12/2020 5:45:00 AM 2.24 36.032 0.06 6.02 1.6 13.46
12/12/2020 6:00:00 AM 2.23 36.014 0.06 6 1.66 13.47
12/12/2020 6:15:00 AM 2.22 35.996 0.06 6.01 1.58 13.46
12/12/2020 6:30:00 AM 2.22 35.996 0.06 6.01 1.66 13.47
12/12/2020 6:45:00 AM 2.22 35.996 0.06 6.01 1.64 13.47
12/12/2020 7:00:00 AM 2.21 35.978 0.06 6 1.61 13.47
12/12/2020 7:15:00 AM 2.21 35.978 0.06 6.01 1.64 13.48
12/12/2020 7:30:00 AM 2.22 35.996 0.06 6.01 1.65 13.48
12/12/2020 7:45:00 AM 2.22 35.996 0.06 6.02 1.61 13.49
12/12/2020 8:00:00 AM 2.24 36.032 0.06 6.02 1.65 13.51
12/12/2020 8:15:00 AM 2.25 36.05 0.06 6.04 1.68 13.52
12/12/2020 8:30:00 AM 2.27 36.086 0.06 6.03 1.69 13.55
12/12/2020 8:45:00 AM 2.3 36.14 0.06 6.05 1.68 13.56
12/12/2020 9:00:00 AM 2.32 36.176 0.06 6.06 1.65 13.59
12/12/2020 9:15:00 AM 2.36 36.248 0.06 6.07 1.67 13.62
12/12/2020 9:30:00 AM 2.4 36.32 0.06 6.08 1.64 13.63
12/12/2020 9:45:00 AM 2.44 36.392 0.06 6.09 1.7 13.64
12/12/2020 10:00:00 AM 2.5 36.5 0.06 6.1 1.64 13.63
12/12/2020 10:15:00 AM 2.56 36.608 0.06 6.09 1.65 13.63
12/12/2020 10:30:00 AM 2.63 36.734 0.06 6.12 1.65 13.61
12/12/2020 10:45:00 AM 2.71 36.878 0.06 6.12 1.63 13.6
12/12/2020 11:00:00 AM 2.76 36.968 0.06 6.13 1.6 13.57
12/12/2020 11:15:00 AM 2.81 37.058 0.06 6.12 1.62 13.53
12/12/2020 11:30:00 AM 2.88 37.184 0.06 6.13 1.65 13.51
12/12/2020 11:45:00 AM 2.95 37.31 0.06 6.13 1.61 13.49
12/12/2020 12:00:00 PM 3.03 37.454 0.06 6.14 1.57 13.47
12/12/2020 12:15:00 PM 3.1 37.58 0.06 6.14 1.63 13.44
12/12/2020 12:30:00 PM 3.17 37.706 0.06 6.14 1.65 13.41
12/12/2020 12:45:00 PM 3.24 37.832 0.06 6.13 1.64 13.37
12/12/2020 1:00:00 PM 3.3 37.94 0.06 6.15 1.57 13.34
12/12/2020 1:15:00 PM 3.36 38.048 0.06 6.14 1.57 13.3
12/12/2020 1:30:00 PM 3.43 38.174 0.06 6.14 1.58 13.26
12/12/2020 1:45:00 PM 3.5 38.3 0.06 6.14 1.58 13.24
12/12/2020 2:00:00 PM 3.57 38.426 0.06 6.14 1.58 13.21
12/12/2020 2:15:00 PM 3.64 38.552 0.06 6.15 1.56 13.18
12/12/2020 2:30:00 PM 3.7 38.66 0.06 6.16 1.57 13.16
12/12/2020 2:45:00 PM 3.74 38.732 0.06 6.15 1.64 13.12
12/12/2020 3:00:00 PM 3.77 38.786 0.06 6.16 1.53 13.09
12/12/2020 3:15:00 PM 3.79 38.822 0.06 6.14 1.57 13.06
12/12/2020 3:30:00 PM 3.82 38.876 0.06 6.14 1.58 13.03
12/12/2020 3:45:00 PM 3.84 38.912 0.06 6.13 1.55 13.02
12/12/2020 4:00:00 PM 3.86 38.948 0.06 6.13 1.55 13
12/12/2020 4:15:00 PM 3.87 38.966 0.06 6.11 1.55 12.97
12/12/2020 4:30:00 PM 3.88 38.984 0.061 6.1 1.58 12.92
12/12/2020 4:45:00 PM 3.88 38.984 0.061 6.1 1.56 12.88
12/12/2020 5:00:00 PM 3.88 38.984 0.061 6.08 1.59 12.85
12/12/2020 5:15:00 PM 3.88 38.984 0.061 6.09 1.57 12.83
12/12/2020 5:30:00 PM 3.88 38.984 0.061 6.06 1.61 12.82
12/12/2020 5:45:00 PM 3.88 38.984 0.061 6.06 1.59 12.81
12/12/2020 6:00:00 PM 3.87 38.966 0.061 6.07 1.58 12.81
12/12/2020 6:15:00 PM 3.88 38.984 0.061 6.05 1.58 12.8
12/12/2020 6:30:00 PM 3.88 38.984 0.061 6.05 1.58 12.8
12/12/2020 6:45:00 PM 3.89 39.002 0.061 6.05 1.61 12.8
12/12/2020 7:00:00 PM 3.9 39.02 0.061 6.05 1.58 12.79
12/12/2020 7:15:00 PM 3.91 39.038 0.061 6.03 1.55 12.79
12/12/2020 7:30:00 PM 3.92 39.056 0.061 6.05 1.58 12.78
12/12/2020 7:45:00 PM 3.93 39.074 0.061 6.05 1.57 12.77
12/12/2020 8:00:00 PM 3.94 39.092 0.061 6.04 1.6 12.77
12/12/2020 8:15:00 PM 3.95 39.11 0.061 6.04 1.57 12.77
12/12/2020 8:30:00 PM 3.95 39.11 0.061 6.03 1.55 12.76
12/12/2020 8:45:00 PM 3.96 39.128 0.061 6.04 1.58 12.76
12/12/2020 9:00:00 PM 3.96 39.128 0.061 6.04 1.59 12.76
12/12/2020 9:15:00 PM 3.96 39.128 0.061 6.04 1.57 12.75
12/12/2020 9:30:00 PM 3.96 39.128 0.061 6.04 1.56 12.75
12/12/2020 9:45:00 PM 3.97 39.146 0.061 6.03 1.56 12.75
12/12/2020 10:00:00 PM 3.97 39.146 0.061 6.03 1.61 12.74
12/12/2020 10:15:00 PM 3.98 39.164 0.061 6.03 1.57 12.74
12/12/2020 10:30:00 PM 3.99 39.182 0.061 6.03 1.58 12.74
12/12/2020 10:45:00 PM 3.99 39.182 0.061 6.04 1.57 12.73
12/12/2020 11:00:00 PM 4 39.2 0.061 6.03 1.63 12.73
12/12/2020 11:15:00 PM 4.01 39.218 0.061 6.04 1.61 12.72
12/12/2020 11:30:00 PM 4.02 39.236 0.061 6.03 1.56 12.72
12/12/2020 11:45:00 PM 4.02 39.236 0.061 6.02 1.64 12.72
12/13/2020 12:00:00 AM 4.03 39.254 0.061 6.02 1.61 12.71
12/13/2020 12:15:00 AM 4.04 39.272 0.061 6.02 1.58 12.71
12/13/2020 12:30:00 AM 4.04 39.272 0.061 6.02 1.55 12.71
12/13/2020 12:45:00 AM 4.04 39.272 0.061 6.02 1.58 12.7
12/13/2020 1:00:00 AM 4.03 39.254 0.061 6.03 1.57 12.71
12/13/2020 1:15:00 AM 4.03 39.254 0.061 6.02 1.57 12.71
12/13/2020 1:30:00 AM 4.02 39.236 0.06 6 1.61 12.71
12/13/2020 1:45:00 AM 4.01 39.218 0.06 6 1.57 12.71
12/13/2020 2:00:00 AM 4 39.2 0.06 6 1.63 12.71
12/13/2020 2:15:00 AM 3.99 39.182 0.06 6 1.58 12.72
12/13/2020 2:30:00 AM 3.98 39.164 0.06 6 1.57 12.72
12/13/2020 2:45:00 AM 3.97 39.146 0.06 6.01 1.58 12.73
12/13/2020 3:00:00 AM 3.96 39.128 0.06 6.01 1.57 12.73
12/13/2020 3:15:00 AM 3.96 39.128 0.06 6 1.62 12.73
12/13/2020 3:30:00 AM 3.95 39.11 0.06 6 1.67 12.73
12/13/2020 3:45:00 AM 3.95 39.11 0.06 6 1.59 12.73
12/13/2020 4:00:00 AM 3.95 39.11 0.06 6.01 1.6 12.73
12/13/2020 4:15:00 AM 3.94 39.092 0.06 6 1.61 12.73
12/13/2020 4:30:00 AM 3.93 39.074 0.06 5.98 1.58 12.74
12/13/2020 4:45:00 AM 3.91 39.038 0.06 5.99 1.64 12.74
12/13/2020 5:00:00 AM 3.9 39.02 0.06 6 1.62 12.75
12/13/2020 5:15:00 AM 3.88 38.984 0.06 5.99 1.63 12.75
12/13/2020 5:30:00 AM 3.86 38.948 0.06 6 1.66 12.76
12/13/2020 5:45:00 AM 3.84 38.912 0.06 6 1.64 12.76
12/13/2020 6:00:00 AM 3.82 38.876 0.06 6.01 1.63 12.77
12/13/2020 6:15:00 AM 3.8 38.84 0.06 6.01 1.68 12.78
12/13/2020 6:30:00 AM 3.78 38.804 0.06 6.01 1.66 12.79
12/13/2020 6:45:00 AM 3.77 38.786 0.06 6.01 1.66 12.79
12/13/2020 7:00:00 AM 3.76 38.768 0.06 6.02 1.82 12.8
12/13/2020 7:15:00 AM 3.75 38.75 0.06 6.01 1.67 12.81
12/13/2020 7:30:00 AM 3.74 38.732 0.06 6.02 1.71 12.82
12/13/2020 7:45:00 AM 3.73 38.714 0.06 6.03 1.77 12.85
12/13/2020 8:00:00 AM 3.73 38.714 0.06 6.02 1.72 12.9
12/13/2020 8:15:00 AM 3.73 38.714 0.06 6.03 1.74 12.93
12/13/2020 8:30:00 AM 3.72 38.696 0.06 6.06 1.71 12.96
12/13/2020 8:45:00 AM 3.73 38.714 0.06 6.05 1.73 12.99
12/13/2020 9:00:00 AM 3.76 38.768 0.06 6.06 1.71 13.01
12/13/2020 9:15:00 AM 3.8 38.84 0.06 6.08 1.7 13.05
12/13/2020 9:30:00 AM 3.86 38.948 0.06 6.1 1.7 13.07
12/13/2020 9:45:00 AM 3.92 39.056 0.059 6.14 1.66 13.09
12/13/2020 10:00:00 AM 3.99 39.182 0.059 6.15 1.68 13.07
12/13/2020 10:15:00 AM 4.04 39.272 0.059 6.16 1.65 13.04
12/13/2020 10:30:00 AM 4.11 39.398 0.059 6.15 1.66 13.05
12/13/2020 10:45:00 AM 4.17 39.506 0.059 6.16 1.65 13.02
12/13/2020 11:00:00 AM 4.24 39.632 0.059 6.17 1.62 13.01
12/13/2020 11:15:00 AM 4.3 39.74 0.059 6.17 1.63 12.99
12/13/2020 11:30:00 AM 4.38 39.884 0.059 6.17 1.6 12.98
12/13/2020 11:45:00 AM 4.45 40.01 0.059 6.18 1.68 12.96
12/13/2020 12:00:00 PM 4.52 40.136 0.059 6.17 1.6 12.94
12/13/2020 12:15:00 PM 4.57 40.226 0.059 6.2 1.61 12.91
12/13/2020 12:30:00 PM 4.62 40.316 0.059 6.19 1.63 12.87
12/13/2020 12:45:00 PM 4.68 40.424 0.059 6.17 1.62 12.85
12/13/2020 1:00:00 PM 4.72 40.496 0.059 6.18 1.61 12.82
12/13/2020 1:15:00 PM 4.77 40.586 0.059 6.18 1.64 12.79
12/13/2020 1:30:00 PM 4.8 40.64 0.059 6.17 1.59 12.76
12/13/2020 1:45:00 PM 4.82 40.676 0.059 6.18 1.61 12.73
12/13/2020 2:00:00 PM 4.86 40.748 0.059 6.16 1.62 12.74
12/13/2020 2:15:00 PM 4.87 40.766 0.059 6.16 1.69 12.72
12/13/2020 2:30:00 PM 4.89 40.802 0.059 6.16 1.59 12.7
12/13/2020 2:45:00 PM 4.91 40.838 0.059 6.15 1.59 12.7
12/13/2020 3:00:00 PM 4.92 40.856 0.059 6.15 1.58 12.67
12/13/2020 3:15:00 PM 4.93 40.874 0.059 6.12 1.56 12.65
12/13/2020 3:30:00 PM 4.94 40.892 0.059 6.14 1.58 12.62
12/13/2020 3:45:00 PM 4.94 40.892 0.059 6.12 1.64 12.59
12/13/2020 4:00:00 PM 4.94 40.892 0.059 6.1 1.59 12.57
12/13/2020 4:15:00 PM 4.94 40.892 0.059 6.09 1.62 12.55
12/13/2020 4:30:00 PM 4.94 40.892 0.059 6.09 1.63 12.53
12/13/2020 4:45:00 PM 4.93 40.874 0.059 6.09 1.63 12.52
12/13/2020 5:00:00 PM 4.93 40.874 0.059 6.08 1.71 12.51
12/13/2020 5:15:00 PM 4.92 40.856 0.059 6.07 1.68 12.5
12/13/2020 5:30:00 PM 4.91 40.838 0.06 6.06 1.64 12.49
12/13/2020 5:45:00 PM 4.91 40.838 0.06 6.06 1.61 12.49
12/13/2020 6:00:00 PM 4.9 40.82 0.06 6.05 1.64 12.49
12/13/2020 6:15:00 PM 4.89 40.802 0.06 6.06 1.7 12.49
12/13/2020 6:30:00 PM 4.89 40.802 0.06 6.06 1.66 12.5
12/13/2020 6:45:00 PM 4.88 40.784 0.06 6.05 1.67 12.5
12/13/2020 7:00:00 PM 4.87 40.766 0.06 6.08 1.6 12.5
12/13/2020 7:15:00 PM 4.87 40.766 0.06 6.05 1.67 12.51
12/13/2020 7:30:00 PM 4.86 40.748 0.06 6.06 1.63 12.52
12/13/2020 7:45:00 PM 4.85 40.73 0.06 6.05 1.69 12.52
12/13/2020 8:00:00 PM 4.84 40.712 0.06 6.05 1.66 12.52
12/13/2020 8:15:00 PM 4.82 40.676 0.06 6.07 1.66 12.53
12/13/2020 8:30:00 PM 4.79 40.622 0.06 6.05 1.66 12.54
12/13/2020 8:45:00 PM 4.78 40.604 0.06 6.05 1.6 12.54
12/13/2020 9:00:00 PM 4.77 40.586 0.06 6.06 1.64 12.54
12/13/2020 9:15:00 PM 4.76 40.568 0.06 6.05 1.65 12.55
12/13/2020 9:30:00 PM 4.74 40.532 0.06 6.03 1.63 12.55
12/13/2020 9:45:00 PM 4.73 40.514 0.06 6.03 1.62 12.55
12/13/2020 10:00:00 PM 4.72 40.496 0.06 6.04 1.63 12.55
12/13/2020 10:15:00 PM 4.71 40.478 0.06 6.06 1.62 12.55
12/13/2020 10:30:00 PM 4.7 40.46 0.06 6.04 1.62 12.55
12/13/2020 10:45:00 PM 4.69 40.442 0.06 6.05 1.62 12.56
12/13/2020 11:00:00 PM 4.66 40.388 0.06 6.05 1.61 12.56
12/13/2020 11:15:00 PM 4.64 40.352 0.06 6.06 1.66 12.57
12/13/2020 11:30:00 PM 4.63 40.334 0.06 6.06 1.62 12.57
12/13/2020 11:45:00 PM 4.6 40.28 0.06 6.05 1.63 12.57
12/14/2020 12:00:00 AM 4.58 40.244 0.06 6.05 1.65 12.58
12/14/2020 12:15:00 AM 4.57 40.226 0.06 6.06 1.6 12.59
12/14/2020 12:30:00 AM 4.55 40.19 0.06 6.06 1.66 12.59
12/14/2020 12:45:00 AM 4.54 40.172 0.06 6.05 1.61 12.59
12/14/2020 1:00:00 AM 4.53 40.154 0.06 6.05 1.67 12.6
12/14/2020 1:15:00 AM 4.52 40.136 0.06 6.05 1.61 12.61
12/14/2020 1:30:00 AM 4.51 40.118 0.059 6.05 1.68 12.6
12/14/2020 1:45:00 AM 4.5 40.1 0.059 6.06 1.63 12.61
12/14/2020 2:00:00 AM 4.49 40.082 0.059 6.06 1.63 12.61
12/14/2020 2:15:00 AM 4.48 40.064 0.06 6.05 1.68 12.61
12/14/2020 2:30:00 AM 4.47 40.046 0.06 6.03 1.68 12.62
12/14/2020 2:45:00 AM 4.46 40.028 0.06 6.05 1.72 12.61
12/14/2020 3:00:00 AM 4.44 39.992 0.06 6.03 1.69 12.61
12/14/2020 3:15:00 AM 4.43 39.974 0.06 6.05 1.71 12.62
12/14/2020 3:30:00 AM 4.41 39.938 0.06 6.03 1.75 12.62
12/14/2020 3:45:00 AM 4.39 39.902 0.06 6.04 1.79 12.61
12/14/2020 4:00:00 AM 4.38 39.884 0.06 6.04 1.77 12.61
12/14/2020 4:15:00 AM 4.37 39.866 0.06 6.06 1.84 12.62
12/14/2020 4:30:00 AM 4.35 39.83 0.06 6.05 1.79 12.64
12/14/2020 4:45:00 AM 4.34 39.812 0.06 6.05 1.75 12.65
12/14/2020 5:00:00 AM 4.33 39.794 0.06 6.06 1.75 12.65
12/14/2020 5:15:00 AM 4.32 39.776 0.06 6.06 1.8 12.65
12/14/2020 5:30:00 AM 4.31 39.758 0.06 6.06 1.74 12.65
12/14/2020 5:45:00 AM 4.3 39.74 0.06 6.05 1.71 12.65
12/14/2020 6:00:00 AM 4.29 39.722 0.06 6.07 1.72 12.64
12/14/2020 6:15:00 AM 4.29 39.722 0.06 6.06 1.74 12.65
12/14/2020 6:30:00 AM 4.28 39.704 0.06 6.07 1.75 12.65
12/14/2020 6:45:00 AM 4.27 39.686 0.06 6.05 1.73 12.66
12/14/2020 7:00:00 AM 4.24 39.632 0.06 6.07 1.79 12.65
12/14/2020 7:15:00 AM 4.21 39.578 0.06 6.04 1.76 12.67
12/14/2020 7:30:00 AM 4.18 39.524 0.06 6.03 1.79 12.67
12/14/2020 7:45:00 AM 4.12 39.416 0.06 6.03 1.87 12.68
12/14/2020 8:00:00 AM 4.06 39.308 0.06 6.03 1.72 12.71
12/14/2020 8:15:00 AM 4.01 39.218 0.06 6.03 1.72 12.75
12/14/2020 8:30:00 AM 3.98 39.164 0.06 6.04 1.73 12.78
12/14/2020 8:45:00 AM 3.94 39.092 0.06 6.04 1.75 12.82
12/14/2020 9:00:00 AM 3.91 39.038 0.06 6.07 1.77 12.86
12/14/2020 9:15:00 AM 3.89 39.002 0.06 6.06 1.74 12.9
12/14/2020 9:30:00 AM 3.87 38.966 0.06 6.1 1.77 12.94
12/14/2020 9:45:00 AM 3.86 38.948 0.06 6.06 1.74 12.97
12/14/2020 10:00:00 AM 3.85 38.93 0.06 6.07 1.73 12.99
12/14/2020 10:15:00 AM 3.84 38.912 0.059 6.1 1.77 13.01
12/14/2020 10:30:00 AM 3.85 38.93 0.059 6.12 1.7 13.02
12/14/2020 10:45:00 AM 3.84 38.912 0.059 6.1 1.69 13.04
12/14/2020 11:00:00 AM 3.83 38.894 0.059 6.09 1.66 13.04
12/14/2020 11:15:00 AM 3.82 38.876 0.059 6.09 1.67 13.05
12/14/2020 11:30:00 AM 3.81 38.858 0.059 6.12 1.72 13.06
12/14/2020 11:45:00 AM 3.79 38.822 0.059 6.08 1.68 13.06
12/14/2020 12:00:00 PM 3.79 38.822 0.059 6.12 1.85 13.06
12/14/2020 12:15:00 PM 3.79 38.822 0.059 6.08 1.73 13.07
12/14/2020 12:30:00 PM 3.8 38.84 0.059 6.1 1.7 13.07
12/14/2020 12:45:00 PM 3.81 38.858 0.059 6.13 1.72 13.06
12/14/2020 1:00:00 PM 3.82 38.876 0.059 6.14 1.73 13.06
12/14/2020 1:15:00 PM 3.85 38.93 0.059 6.13 1.74 13.06
12/14/2020 1:30:00 PM 3.88 38.984 0.059 6.16 1.71 13.07
12/14/2020 1:45:00 PM 3.92 39.056 0.059 6.16 1.75 13.08
12/14/2020 2:00:00 PM 3.95 39.11 0.059 6.17 1.74 13.07
12/14/2020 2:15:00 PM 3.97 39.146 0.059 6.16 1.71 13.04
12/14/2020 2:30:00 PM 3.99 39.182 0.059 6.16 1.67 13.03
12/14/2020 2:45:00 PM 4 39.2 0.059 6.16 1.7 13.02
12/14/2020 3:00:00 PM 4.02 39.236 0.059 6.16 1.73 13.01
12/14/2020 3:15:00 PM 4.02 39.236 0.059 6.15 1.68 12.99
12/14/2020 3:30:00 PM 4.02 39.236 0.059 6.15 1.65 12.97
12/14/2020 3:45:00 PM 4.02 39.236 0.059 6.12 1.66 12.94
12/14/2020 4:00:00 PM 4 39.2 0.059 6.14 1.71 12.92
12/14/2020 4:15:00 PM 3.98 39.164 0.06 6.11 1.68 12.89
12/14/2020 4:30:00 PM 3.97 39.146 0.06 6.11 1.67 12.86
12/14/2020 4:45:00 PM 3.95 39.11 0.06 6.09 1.69 12.83
12/14/2020 5:00:00 PM 3.93 39.074 0.06 6.08 1.7 12.82
12/14/2020 5:15:00 PM 3.91 39.038 0.06 6.07 1.68 12.82
12/14/2020 5:30:00 PM 3.87 38.966 0.06 6.09 1.7 12.82
12/14/2020 5:45:00 PM 3.84 38.912 0.06 6.08 1.78 12.82
12/14/2020 6:00:00 PM 3.82 38.876 0.06 6.08 1.66 12.83
12/14/2020 6:15:00 PM 3.8 38.84 0.06 6.07 1.74 12.84
12/14/2020 6:30:00 PM 3.78 38.804 0.06 6.07 1.67 12.85
12/14/2020 6:45:00 PM 3.76 38.768 0.06 6.09 1.78 12.86
12/14/2020 7:00:00 PM 3.75 38.75 0.06 6.08 1.71 12.87
12/14/2020 7:15:00 PM 3.73 38.714 0.061 6.05 1.69 12.88
12/14/2020 7:30:00 PM 3.72 38.696 0.061 6.06 1.67 12.88
12/14/2020 7:45:00 PM 3.69 38.642 0.061 6.07 1.72 12.89
12/14/2020 8:00:00 PM 3.65 38.57 0.061 6.06 1.75 12.9
12/14/2020 8:15:00 PM 3.62 38.516 0.061 6.06 1.69 12.91
12/14/2020 8:30:00 PM 3.57 38.426 0.061 6.07 1.7 12.93
12/14/2020 8:45:00 PM 3.52 38.336 0.061 6.06 1.68 12.94
12/14/2020 9:00:00 PM 3.48 38.264 0.061 6.07 1.71 12.96
12/14/2020 9:15:00 PM 3.43 38.174 0.061 6.08 1.73 12.98
12/14/2020 9:30:00 PM 3.37 38.066 0.061 6.07 1.68 13
12/14/2020 9:45:00 PM 3.3 37.94 0.061 6.05 1.75 13.03
12/14/2020 10:00:00 PM 3.24 37.832 0.061 6.06 1.69 13.05
12/14/2020 10:15:00 PM 3.18 37.724 0.061 6.06 1.7 13.09
12/14/2020 10:30:00 PM 3.12 37.616 0.061 6.07 1.69 13.11
12/14/2020 10:45:00 PM 3.07 37.526 0.061 6.07 1.71 13.14
12/14/2020 11:00:00 PM 3.01 37.418 0.061 6.06 1.68 13.17
12/14/2020 11:15:00 PM 2.96 37.328 0.061 6.05 1.66 13.19
12/14/2020 11:30:00 PM 2.91 37.238 0.061 6.06 1.67 13.22
12/14/2020 11:45:00 PM 2.88 37.184 0.061 6.06 1.65 13.24
12/15/2020 12:00:00 AM 2.85 37.13 0.061 6.08 1.72 13.25
12/15/2020 12:15:00 AM 2.82 37.076 0.061 6.06 1.69 13.27
12/15/2020 12:30:00 AM 2.79 37.022 0.061 6.05 1.72 13.28
12/15/2020 12:45:00 AM 2.77 36.986 0.061 6.08 1.71 13.29
12/15/2020 1:00:00 AM 2.74 36.932 0.061 6.06 1.7 13.3
12/15/2020 1:15:00 AM 2.7 36.86 0.061 6.06 1.69 13.32
12/15/2020 1:30:00 AM 2.66 36.788 0.061 6.07 1.65 13.33
12/15/2020 1:45:00 AM 2.63 36.734 0.061 6.04 1.72 13.34
12/15/2020 2:00:00 AM 2.61 36.698 0.061 6.06 1.7 13.35
12/15/2020 2:15:00 AM 2.59 36.662 0.061 6.06 1.72 13.36
12/15/2020 2:30:00 AM 2.56 36.608 0.061 6.07 1.69 13.37
12/15/2020 2:45:00 AM 2.54 36.572 0.061 6.08 1.68 13.38
12/15/2020 3:00:00 AM 2.51 36.518 0.061 6.06 1.66 13.39
12/15/2020 3:15:00 AM 2.49 36.482 0.061 6.08 1.7 13.41
12/15/2020 3:30:00 AM 2.46 36.428 0.061 6.08 1.66 13.42
12/15/2020 3:45:00 AM 2.44 36.392 0.061 6.08 1.7 13.43
12/15/2020 4:00:00 AM 2.42 36.356 0.061 6.05 1.71 13.44
12/15/2020 4:15:00 AM 2.39 36.302 0.061 6.07 1.69 13.46
12/15/2020 4:30:00 AM 2.35 36.23 0.061 6.05 1.71 13.47
12/15/2020 4:45:00 AM 2.31 36.158 0.061 6.06 1.7 13.48
12/15/2020 5:00:00 AM 2.27 36.086 0.061 6.09 1.7 13.5
12/15/2020 5:15:00 AM 2.22 35.996 0.061 6.07 1.77 13.52
12/15/2020 5:30:00 AM 2.18 35.924 0.061 6.06 1.77 13.55
12/15/2020 5:45:00 AM 2.14 35.852 0.061 6.08 1.75 13.57
12/15/2020 6:00:00 AM 2.1 35.78 0.061 6.08 1.76 13.59
12/15/2020 6:15:00 AM 2.06 35.708 0.061 6.06 1.75 13.61
12/15/2020 6:30:00 AM 2.02 35.636 0.061 6.05 1.71 13.63
12/15/2020 6:45:00 AM 1.99 35.582 0.062 6.04 1.72 13.65
12/15/2020 7:00:00 AM 1.95 35.51 0.062 6.02 1.74 13.67
12/15/2020 7:15:00 AM 1.91 35.438 0.062 6.02 1.69 13.69
12/15/2020 7:30:00 AM 1.88 35.384 0.062 6.03 1.72 13.71
12/15/2020 7:45:00 AM 1.85 35.33 0.062 6.05 1.68 13.74
12/15/2020 8:00:00 AM 1.82 35.276 0.062 6.05 1.68 13.78
12/15/2020 8:15:00 AM 1.8 35.24 0.061 6.07 1.66 13.82
12/15/2020 8:30:00 AM 1.79 35.222 0.061 6.06 1.64 13.87
12/15/2020 8:45:00 AM 1.8 35.24 0.061 6.09 1.69 13.92
12/15/2020 9:00:00 AM 1.78 35.204 0.061 6.09 1.68 13.95
12/15/2020 9:15:00 AM 1.78 35.204 0.061 6.1 1.66 13.97
12/15/2020 9:30:00 AM 1.78 35.204 0.061 6.1 1.68 14
12/15/2020 9:45:00 AM 1.78 35.204 0.061 6.11 1.67 14.02
12/15/2020 10:00:00 AM 1.79 35.222 0.061 6.07 1.65 14.02
12/15/2020 10:15:00 AM 1.81 35.258 0.061 6.11 1.66 14.03
12/15/2020 10:30:00 AM 1.84 35.312 0.061 6.17 1.67 14.03
12/15/2020 10:45:00 AM 1.88 35.384 0.061 6.17 1.67 14.02
12/15/2020 11:00:00 AM 1.94 35.492 0.061 6.17 1.68 14.02
12/15/2020 11:15:00 AM 2 35.6 0.061 6.18 1.67 14
12/15/2020 11:30:00 AM 2.06 35.708 0.061 6.19 1.67 13.99
12/15/2020 11:45:00 AM 2.11 35.798 0.061 6.18 1.65 13.97
12/15/2020 12:00:00 PM 2.17 35.906 0.061 6.19 1.64 13.96
12/15/2020 12:15:00 PM 2.23 36.014 0.061 6.18 1.61 13.94
12/15/2020 12:30:00 PM 2.27 36.086 0.061 6.19 1.58 13.92
12/15/2020 12:45:00 PM 2.28 36.104 0.061 6.17 1.66 13.9
12/15/2020 1:00:00 PM 2.28 36.104 0.061 6.17 1.64 13.88
12/15/2020 1:15:00 PM 2.26 36.068 0.061 6.14 1.62 13.87
12/15/2020 1:30:00 PM 2.25 36.05 0.061 6.15 1.61 13.87
12/15/2020 1:45:00 PM 2.23 36.014 0.061 6.12 1.63 13.87
12/15/2020 2:00:00 PM 2.22 35.996 0.061 6.12 1.61 13.88
12/15/2020 2:15:00 PM 2.21 35.978 0.061 6.15 1.62 13.88
12/15/2020 2:30:00 PM 2.19 35.942 0.061 6.15 1.62 13.88
12/15/2020 2:45:00 PM 2.17 35.906 0.061 6.13 1.64 13.88
12/15/2020 3:00:00 PM 2.14 35.852 0.061 6.15 1.65 13.86
12/15/2020 3:15:00 PM 2.12 35.816 0.061 6.11 1.62 13.85
12/15/2020 3:30:00 PM 2.09 35.762 0.061 6.11 1.6 13.84
12/15/2020 3:45:00 PM 2.07 35.726 0.062 6.1 1.59 13.82
12/15/2020 4:00:00 PM 2.04 35.672 0.062 6.11 1.64 13.81
12/15/2020 4:15:00 PM 2.02 35.636 0.062 6.08 1.59 13.79
12/15/2020 4:30:00 PM 1.99 35.582 0.062 6.09 1.65 13.77
12/15/2020 4:45:00 PM 1.96 35.528 0.062 6.1 1.63 13.74
12/15/2020 5:00:00 PM 1.94 35.492 0.063 6.08 1.57 13.73
12/15/2020 5:15:00 PM 1.91 35.438 0.063 6.06 1.63 13.73
12/15/2020 5:30:00 PM 1.89 35.402 0.063 6.06 1.68 13.73
12/15/2020 5:45:00 PM 1.86 35.348 0.063 6.06 1.71 13.74
12/15/2020 6:00:00 PM 1.83 35.294 0.064 6.09 1.71 13.75
12/15/2020 6:15:00 PM 1.79 35.222 0.064 6.08 1.64 13.77
12/15/2020 6:30:00 PM 1.75 35.15 0.065 6.06 1.63 13.79
12/15/2020 6:45:00 PM 1.71 35.078 0.065 6.08 1.64 13.81
12/15/2020 7:00:00 PM 1.67 35.006 0.065 6.08 1.64 13.82
12/15/2020 7:15:00 PM 1.63 34.934 0.064 6.11 1.63 13.84
12/15/2020 7:30:00 PM 1.59 34.862 0.063 6.1 1.64 13.86
12/15/2020 7:45:00 PM 1.55 34.79 0.063 6.09 1.64 13.88
12/15/2020 8:00:00 PM 1.51 34.718 0.062 6.08 1.65 13.9
12/15/2020 8:15:00 PM 1.47 34.646 0.062 6.09 1.6 13.91
12/15/2020 8:30:00 PM 1.43 34.574 0.062 6.08 1.58 13.93
12/15/2020 8:45:00 PM 1.4 34.52 0.062 6.08 1.65 13.95
12/15/2020 9:00:00 PM 1.36 34.448 0.062 6.1 1.64 13.97
12/15/2020 9:15:00 PM 1.32 34.376 0.062 6.09 1.59 13.98
12/15/2020 9:30:00 PM 1.29 34.322 0.062 6.09 1.61 14
12/15/2020 9:45:00 PM 1.25 34.25 0.062 6.08 1.57 14.01
12/15/2020 10:00:00 PM 1.21 34.178 0.062 6.09 1.63 14.03
12/15/2020 10:15:00 PM 1.17 34.106 0.062 6.08 1.62 14.04
12/15/2020 10:30:00 PM 1.14 34.052 0.062 6.09 1.62 14.05
12/15/2020 10:45:00 PM 1.1 33.98 0.062 6.09 1.58 14.06
12/15/2020 11:00:00 PM 1.07 33.926 0.062 6.08 1.61 14.07
12/15/2020 11:15:00 PM 1.04 33.872 0.062 6.09 1.59 14.09
12/15/2020 11:30:00 PM 1.01 33.818 0.062 6.08 1.6 14.1
12/15/2020 11:45:00 PM 0.98 33.764 0.062 6.09 1.6 14.11
12/16/2020 12:00:00 AM 0.95 33.71 0.062 6.08 1.63 14.12
12/16/2020 12:15:00 AM 0.92 33.656 0.062 6.09 1.65 14.13
12/16/2020 12:30:00 AM 0.89 33.602 0.062 6.1 1.61 14.14
12/16/2020 12:45:00 AM 0.85 33.53 0.062 6.08 1.74 14.15
12/16/2020 1:00:00 AM 0.82 33.476 0.062 6.09 1.61 14.17
12/16/2020 1:15:00 AM 0.78 33.404 0.062 6.09 1.62 14.18
12/16/2020 1:30:00 AM 0.75 33.35 0.062 6.08 1.66 14.2
12/16/2020 1:45:00 AM 0.71 33.278 0.062 6.1 1.62 14.21
12/16/2020 2:00:00 AM 0.68 33.224 0.062 6.08 1.66 14.23
12/16/2020 2:15:00 AM 0.65 33.17 0.062 6.08 1.62 14.25
12/16/2020 2:30:00 AM 0.61 33.098 0.062 6.08 1.63 14.26
12/16/2020 2:45:00 AM 0.58 33.044 0.062 6.07 1.62 14.28
12/16/2020 3:00:00 AM 0.55 32.99 0.062 6.09 1.62 14.3
12/16/2020 3:15:00 AM 0.53 32.954 0.062 6.08 1.65 14.31
12/16/2020 3:30:00 AM 0.51 32.918 0.062 6.08 1.66 14.32
12/16/2020 3:45:00 AM 0.49 32.882 0.062 6.09 1.63 14.33
12/16/2020 4:00:00 AM 0.46 32.828 0.062 6.09 1.63 14.34
12/16/2020 4:15:00 AM 0.43 32.774 0.062 6.09 1.65 14.35
12/16/2020 4:30:00 AM 0.4 32.72 0.062 6.1 1.61 14.37
12/16/2020 4:45:00 AM 0.38 32.684 0.062 6.09 1.67 14.37
12/16/2020 5:00:00 AM 0.36 32.648 0.062 6.11 1.63 14.39
12/16/2020 5:15:00 AM 0.34 32.612 0.062 6.1 1.66 14.4
12/16/2020 5:30:00 AM 0.32 32.576 0.062 6.1 1.62 14.4
12/16/2020 5:45:00 AM 0.31 32.558 0.062 6.11 1.65 14.42
12/16/2020 6:00:00 AM 0.28 32.504 0.062 6.1 1.66 14.42
12/16/2020 6:15:00 AM 0.26 32.468 0.062 6.1 1.62 14.43
12/16/2020 6:30:00 AM 0.24 32.432 0.063 6.12 1.65 14.44
12/16/2020 6:45:00 AM 0.22 32.396 0.063 6.13 1.61 14.44
12/16/2020 7:00:00 AM 0.21 32.378 0.063 6.12 1.64 14.44
12/16/2020 7:15:00 AM 0.2 32.36 0.063 6.13 1.65 14.46
12/16/2020 7:30:00 AM 0.19 32.342 0.063 6.1 1.64 14.47
12/16/2020 7:45:00 AM 0.18 32.324 0.063 6.13 1.6 14.47
12/16/2020 8:00:00 AM 0.17 32.306 0.063 6.13 1.63 14.49
12/16/2020 8:15:00 AM 0.17 32.306 0.063 6.15 1.59 14.54
12/16/2020 8:30:00 AM 0.17 32.306 0.063 6.16 1.59 14.57
12/16/2020 8:45:00 AM 0.17 32.306 0.063 6.16 1.56 14.59
12/16/2020 9:00:00 AM 0.18 32.324 0.063 6.17 1.57 14.61
12/16/2020 9:15:00 AM 0.19 32.342 0.063 6.19 1.6 14.63
12/16/2020 9:30:00 AM 0.21 32.378 0.064 6.19 1.64 14.65
12/16/2020 9:45:00 AM 0.22 32.396 0.064 6.2 1.64 14.66
12/16/2020 10:00:00 AM 0.25 32.45 0.064 6.2 1.59 14.67
12/16/2020 10:15:00 AM 0.29 32.522 0.064 6.22 1.54 14.69
12/16/2020 10:30:00 AM 0.32 32.576 0.064 6.22 1.53 14.69
12/16/2020 10:45:00 AM 0.34 32.612 0.064 6.22 1.62 14.68
12/16/2020 11:00:00 AM 0.34 32.612 0.064 6.22 1.54 14.65
12/16/2020 11:15:00 AM 0.37 32.666 0.064 6.22 1.51 14.64
12/16/2020 11:30:00 AM 0.39 32.702 0.064 6.22 1.53 14.62
12/16/2020 11:45:00 AM 0.4 32.72 0.064 6.23 1.51 14.6
12/16/2020 12:00:00 PM 0.4 32.72 0.064 6.21 1.51 14.58
12/16/2020 12:15:00 PM 0.41 32.738 0.064 6.2 1.57 14.57
12/16/2020 12:30:00 PM 0.42 32.756 0.064 6.21 1.54 14.57
12/16/2020 12:45:00 PM 0.44 32.792 0.064 6.21 1.57 14.57
12/16/2020 1:00:00 PM 0.43 32.774 0.064 6.2 1.57 14.56
12/16/2020 1:15:00 PM 0.43 32.774 0.064 6.2 1.58 14.55
12/16/2020 1:30:00 PM 0.43 32.774 0.064 6.2 1.56 14.53
12/16/2020 1:45:00 PM 0.42 32.756 0.064 6.18 1.54 14.51
12/16/2020 2:00:00 PM 0.38 32.684 0.064 6.19 1.6 14.51
12/16/2020 2:15:00 PM 0.33 32.594 0.063 6.19 1.55 14.5
12/16/2020 2:30:00 PM 0.23 32.414 0.063 6.18 1.57 14.5
12/16/2020 2:45:00 PM 0.14 32.252 0.063 6.16 1.63 14.5
12/16/2020 3:00:00 PM 0.06 32.108 0.063 6.15 1.55 14.52
12/16/2020 3:15:00 PM 0.02 32.036 0.062 6.15 1.67 14.52
12/16/2020 3:30:00 PM -0.02 31.964 0.062 6.16 1.63 14.52
12/16/2020 3:45:00 PM -0.08 31.856 0.062 6.15 1.7 14.52
12/16/2020 4:00:00 PM -0.09 31.838 0.062 6.17 1.73 14.53
12/16/2020 4:15:00 PM -0.09 31.838 0.062 6.13 2 14.53
12/16/2020 4:30:00 PM -0.09 31.838 0.062 6.15 1.96 14.53
12/16/2020 4:45:00 PM -0.09 31.838 0.062 5.97 1.98 14.53
12/16/2020 5:00:00 PM -0.09 31.838 0.062 6.1 2.18 14.52
12/16/2020 5:15:00 PM -0.09 31.838 0.062 6.17 2.19 14.52
12/16/2020 5:30:00 PM -0.09 31.838 0.063 6.15 2.12 14.51
12/16/2020 5:45:00 PM -0.09 31.838 0.063 6.15 2.11 14.52
12/16/2020 6:00:00 PM -0.09 31.838 0.063 6.16 2.06 14.52
12/16/2020 6:15:00 PM -0.09 31.838 0.063 6.14 2.26 14.51
12/16/2020 6:30:00 PM -0.09 31.838 0.063 6.15 2.39 14.51
12/16/2020 6:45:00 PM -0.08 31.856 0.063 6.16 2.5 14.46
12/16/2020 7:00:00 PM -0.08 31.856 0.063 6.19 2.19 14.41
12/16/2020 7:15:00 PM -0.08 31.856 0.063 6.17 2.44 14.41
12/16/2020 7:30:00 PM -0.07 31.874 0.063 6.17 2.47 14.39
12/16/2020 7:45:00 PM -0.08 31.856 0.064 6.17 2.57 14.37
12/16/2020 8:00:00 PM -0.08 31.856 0.064 6.17 2.75 14.35
12/16/2020 8:15:00 PM -0.08 31.856 0.064 6.16 2.63 14.35
12/16/2020 8:30:00 PM -0.08 31.856 0.064 6.16 2.82 14.33
12/16/2020 8:45:00 PM -0.08 31.856 0.064 6.16 2.63 14.31
12/16/2020 9:00:00 PM -0.08 31.856 0.064 6.13 2.62 14.29
12/16/2020 9:15:00 PM -0.08 31.856 0.064 6.13 2.61 14.28
12/16/2020 9:30:00 PM -0.07 31.874 0.064 6.14 2.4 14.26
12/16/2020 9:45:00 PM -0.08 31.856 0.064 6.13 2.45 14.25
12/16/2020 10:00:00 PM -0.08 31.856 0.064 6.13 2.45 14.24
12/16/2020 10:15:00 PM -0.08 31.856 0.064 6.14 2.37 14.24
12/16/2020 10:30:00 PM -0.08 31.856 0.063 6.12 2.43 14.23
12/16/2020 10:45:00 PM -0.07 31.874 0.063 6.12 2.47 14.2
12/16/2020 11:00:00 PM -0.07 31.874 0.063 6.12 2.43 14.18
12/16/2020 11:15:00 PM -0.07 31.874 0.063 6.12 1.76 14.16
12/16/2020 11:30:00 PM -0.07 31.874 0.063 6.12 1.79 14.16
12/16/2020 11:45:00 PM -0.07 31.874 0.063 6.11 1.71 14.15
12/17/2020 12:00:00 AM -0.07 31.874 0.063 6.1 1.78 14.14
12/17/2020 12:15:00 AM -0.07 31.874 0.063 6.11 1.75 14.14
12/17/2020 12:30:00 AM -0.07 31.874 0.063 6.11 1.72 14.13
12/17/2020 12:45:00 AM -0.08 31.856 0.063 6.12 1.72 14.13
12/17/2020 1:00:00 AM -0.08 31.856 0.063 6.11 1.7 14.12
12/17/2020 1:15:00 AM -0.08 31.856 0.063 6.1 1.63 14.12
12/17/2020 1:30:00 AM -0.08 31.856 0.062 6.1 1.7 14.12
12/17/2020 1:45:00 AM -0.08 31.856 0.062 6.1 1.72 14.12
12/17/2020 2:00:00 AM -0.08 31.856 0.062 6.11 1.69 14.11
12/17/2020 2:15:00 AM -0.08 31.856 0.062 6.11 1.68 14.12
12/17/2020 2:30:00 AM -0.08 31.856 0.062 6.11 1.67 14.12
12/17/2020 2:45:00 AM -0.08 31.856 0.062 6.1 1.65 14.12
12/17/2020 3:00:00 AM -0.08 31.856 0.061 6.11 1.58 14.11
12/17/2020 3:15:00 AM -0.08 31.856 0.061 6.09 1.54 14.11
12/17/2020 3:30:00 AM -0.08 31.856 0.061 6.09 1.62 14.11
12/17/2020 3:45:00 AM -0.08 31.856 0.061 6.08 1.57 14.11
12/17/2020 4:00:00 AM -0.08 31.856 0.06 6.1 1.54 14.1
12/17/2020 4:15:00 AM -0.08 31.856 0.06 6.09 1.55 14.09
12/17/2020 4:30:00 AM -0.08 31.856 0.06 6.09 1.59 14.09
12/17/2020 4:45:00 AM -0.08 31.856 0.06 6.08 1.55 14.07
12/17/2020 5:00:00 AM -0.08 31.856 0.06 6.09 1.56 14.08
12/17/2020 5:15:00 AM -0.08 31.856 0.059 6.08 1.58 14.08
12/17/2020 5:30:00 AM -0.08 31.856 0.059 6.08 1.55 14.07
12/17/2020 5:45:00 AM -0.08 31.856 0.059 6.08 1.54 14.07
12/17/2020 6:00:00 AM -0.08 31.856 0.059 6.07 1.68 14.07
12/17/2020 6:15:00 AM -0.08 31.856 0.059 6.06 1.61 14.08
12/17/2020 6:30:00 AM -0.08 31.856 0.059 6.05 1.62 14.09
12/17/2020 6:45:00 AM -0.08 31.856 0.059 6.03 1.6 14.1
12/17/2020 7:00:00 AM -0.08 31.856 0.058 6.03 1.63 14.1
12/17/2020 7:15:00 AM -0.08 31.856 0.058 6 1.57 14.1
12/17/2020 7:30:00 AM -0.08 31.856 0.058 6.01 1.62 14.11
12/17/2020 7:45:00 AM -0.08 31.856 0.058 6 1.62 14.13
12/17/2020 8:00:00 AM -0.08 31.856 0.058 6.04 1.61 14.16
12/17/2020 8:15:00 AM -0.08 31.856 0.058 6.06 1.58 14.21
12/17/2020 8:30:00 AM -0.08 31.856 0.059 6.06 1.63 14.25
12/17/2020 8:45:00 AM -0.08 31.856 0.058 6.07 1.65 14.3
12/17/2020 9:00:00 AM -0.08 31.856 0.058 6.02 1.95 14.36
12/17/2020 9:15:00 AM -0.08 31.856 0.058 6.02 1.64 14.4
12/17/2020 9:30:00 AM -0.08 31.856 0.058 6.02 1.63 14.42
12/17/2020 9:45:00 AM -0.08 31.856 0.058 6.03 1.64 14.44
12/17/2020 10:00:00 AM -0.08 31.856 0.058 6.04 1.65 14.47
12/17/2020 10:15:00 AM -0.08 31.856 0.058 6.14 1.65 14.49
12/17/2020 10:30:00 AM -0.08 31.856 0.059 6.16 1.93 14.52
12/17/2020 10:45:00 AM -0.08 31.856 0.059 6.17 1.99 14.53
12/17/2020 11:00:00 AM -0.08 31.856 0.06 6.18 1.94 14.54
12/17/2020 11:15:00 AM -0.08 31.856 0.062 6.17 1.88 14.55
12/17/2020 11:30:00 AM -0.08 31.856 0.063 6.18 2.03 14.56
12/17/2020 11:45:00 AM -0.08 31.856 0.064 6.2 2.42 14.57
12/17/2020 12:00:00 PM -0.08 31.856 0.064 6.2 2.13 14.57
12/17/2020 12:15:00 PM -0.08 31.856 0.064 6.2 2.17 14.57
12/17/2020 12:30:00 PM -0.08 31.856 0.064 6.21 2.04 14.57
12/17/2020 12:45:00 PM -0.08 31.856 0.064 6.2 2.14 14.57
12/17/2020 1:00:00 PM -0.08 31.856 0.064 6.21 2.05 14.56
12/17/2020 1:15:00 PM -0.08 31.856 0.064 6.2 2.14 14.56
12/17/2020 1:30:00 PM -0.08 31.856 0.064 6.21 2.08 14.57
12/17/2020 1:45:00 PM -0.08 31.856 0.064 6.2 2.1 14.57
12/17/2020 2:00:00 PM -0.08 31.856 0.064 6.21 2.02 14.57
12/17/2020 2:15:00 PM -0.08 31.856 0.064 6.2 2.13 14.57
12/17/2020 2:30:00 PM -0.08 31.856 0.064 6.19 2.23 14.57
12/17/2020 2:45:00 PM -0.08 31.856 0.063 6.19 2.08 14.56
12/17/2020 3:00:00 PM -0.08 31.856 0.063 6.19 2.05 14.56
12/17/2020 3:15:00 PM -0.08 31.856 0.063 6.18 2.12 14.55
12/17/2020 3:30:00 PM -0.08 31.856 0.063 6.18 2.12 14.54
12/17/2020 3:45:00 PM -0.08 31.856 0.063 6.17 2.13 14.53
12/17/2020 4:00:00 PM -0.08 31.856 0.063 6.16 2.03 14.51
12/17/2020 4:15:00 PM -0.08 31.856 0.064 6.15 2.45 14.5
12/17/2020 4:30:00 PM -0.08 31.856 0.064 6.15 2.08 14.48
12/17/2020 4:45:00 PM -0.08 31.856 0.064 6.14 2.13 14.46
12/17/2020 5:00:00 PM -0.08 31.856 0.063 6.13 2.27 14.45
12/17/2020 5:15:00 PM -0.08 31.856 0.063 6.12 2.21 14.44
12/17/2020 5:30:00 PM -0.08 31.856 0.063 6.12 2.08 14.43
12/17/2020 5:45:00 PM -0.08 31.856 0.063 6.12 2.72 14.43
12/17/2020 6:00:00 PM -0.08 31.856 0.063 6.1 2.24 14.43
12/17/2020 6:15:00 PM -0.08 31.856 0.063 6.11 2.12 14.43
12/17/2020 6:30:00 PM -0.08 31.856 0.063 6.1 2.11 14.43
12/17/2020 6:45:00 PM -0.08 31.856 0.064 6.11 2.04 14.42
12/17/2020 7:00:00 PM -0.08 31.856 0.064 6.11 2.03 14.42
12/17/2020 7:15:00 PM -0.08 31.856 0.064 6.12 1.96 14.42
12/17/2020 7:30:00 PM -0.08 31.856 0.064 6.11 2.19 14.43
12/17/2020 7:45:00 PM -0.08 31.856 0.063 6.1 2.05 14.43
12/17/2020 8:00:00 PM -0.08 31.856 0.063 6.1 2 14.43
12/17/2020 8:15:00 PM -0.08 31.856 0.063 6.1 2.04 14.44
12/17/2020 8:30:00 PM -0.08 31.856 0.062 6.09 2.02 14.44
12/17/2020 8:45:00 PM -0.08 31.856 0.062 6.09 1.96 14.44
12/17/2020 9:00:00 PM -0.08 31.856 0.062 6.1 2.02 14.44
12/17/2020 9:15:00 PM -0.08 31.856 0.061 6.09 1.95 14.45
12/17/2020 9:30:00 PM -0.08 31.856 0.061 6.09 1.96 14.45
12/17/2020 9:45:00 PM -0.08 31.856 0.061 6.07 1.99 14.45
12/17/2020 10:00:00 PM -0.08 31.856 0.061 6.07 2.01 14.45
12/17/2020 10:15:00 PM -0.08 31.856 0.061 6.06 1.94 14.46
12/17/2020 10:30:00 PM -0.08 31.856 0.06 6.08 1.95 14.45
12/17/2020 10:45:00 PM -0.08 31.856 0.06 6.09 2 14.46
12/17/2020 11:00:00 PM -0.08 31.856 0.06 6.07 2 14.46
12/17/2020 11:15:00 PM -0.08 31.856 0.06 6.07 2.06 14.45
12/17/2020 11:30:00 PM -0.09 31.838 0.06 6.08 2.01 14.46
12/17/2020 11:45:00 PM -0.09 31.838 0.06 6.07 1.85 14.47
12/18/2020 12:00:00 AM -0.09 31.838 0.06 5.93 1.88 14.46
12/18/2020 12:15:00 AM -0.09 31.838 0.06 6.08 2.02 14.47
12/18/2020 12:30:00 AM -0.09 31.838 0.06 6.07 1.98 14.47
12/18/2020 12:45:00 AM -0.09 31.838 0.06 6.07 2.04 14.47
12/18/2020 1:00:00 AM -0.09 31.838 0.06 6.08 2.23 14.47
12/18/2020 1:15:00 AM -0.09 31.838 0.06 6.07 1.91 14.47
12/18/2020 1:30:00 AM -0.09 31.838 0.06 6.07 1.89 14.47
12/18/2020 1:45:00 AM -0.08 31.856 0.06 6.08 1.94 14.47
12/18/2020 2:00:00 AM -0.08 31.856 0.06 6.07 1.93 14.47
12/18/2020 2:15:00 AM -0.08 31.856 0.06 6.07 1.85 14.47
12/18/2020 2:30:00 AM -0.08 31.856 0.06 6.06 1.86 14.47
12/18/2020 2:45:00 AM -0.08 31.856 0.06 6.06 1.81 14.47
12/18/2020 3:00:00 AM -0.08 31.856 0.06 6 1.88 14.47
12/18/2020 3:15:00 AM -0.08 31.856 0.06 6.01 1.88 14.46
12/18/2020 3:30:00 AM -0.08 31.856 0.06 5.97 1.91 14.46
12/18/2020 3:45:00 AM -0.08 31.856 0.06 5.97 1.88 14.46
12/18/2020 4:00:00 AM -0.08 31.856 0.06 5.97 1.96 14.46
12/18/2020 4:15:00 AM -0.08 31.856 0.06 5.98 1.89 14.46
12/18/2020 4:30:00 AM -0.08 31.856 0.06 5.98 1.89 14.46
12/18/2020 4:45:00 AM -0.08 31.856 0.06 5.98 1.97 14.46
12/18/2020 5:00:00 AM -0.08 31.856 0.061 5.98 1.85 14.46
12/18/2020 5:15:00 AM -0.08 31.856 0.061 6 1.85 14.46
12/18/2020 5:30:00 AM -0.08 31.856 0.061 6.07 1.91 14.47
12/18/2020 5:45:00 AM -0.08 31.856 0.061 6.07 1.85 14.47
12/18/2020 6:00:00 AM -0.08 31.856 0.061 6.07 1.92 14.47
12/18/2020 6:15:00 AM -0.08 31.856 0.061 6.07 1.94 14.47
12/18/2020 6:30:00 AM -0.08 31.856 0.061 6.06 1.89 14.47
12/18/2020 6:45:00 AM -0.08 31.856 0.061 6.06 1.92 14.48
12/18/2020 7:00:00 AM -0.08 31.856 0.061 6.07 1.85 14.48
12/18/2020 7:15:00 AM -0.08 31.856 0.061 6.06 1.81 14.48
12/18/2020 7:30:00 AM -0.08 31.856 0.061 6.01 1.87 14.48
12/18/2020 7:45:00 AM -0.08 31.856 0.061 6.02 1.77 14.49
12/18/2020 8:00:00 AM -0.08 31.856 0.061 6.02 1.84 14.51
12/18/2020 8:15:00 AM -0.08 31.856 0.061 6.04 1.9 14.54
12/18/2020 8:30:00 AM -0.07 31.874 0.061 6.08 1.88 14.57
12/18/2020 8:45:00 AM -0.07 31.874 0.061 6.07 1.89 14.6
12/18/2020 9:00:00 AM -0.07 31.874 0.061 6.06 1.92 14.63
12/18/2020 9:15:00 AM -0.07 31.874 0.061 6.09 1.9 14.65
12/18/2020 9:30:00 AM -0.07 31.874 0.061 6.07 1.9 14.67
12/18/2020 9:45:00 AM -0.07 31.874 0.06 6.06 2.12 14.69
12/18/2020 10:00:00 AM -0.06 31.892 0.06 6.06 1.95 14.7
12/18/2020 10:15:00 AM -0.06 31.892 0.06 6.04 1.97 14.71
12/18/2020 10:30:00 AM -0.06 31.892 0.06 6.07 2 14.71
12/18/2020 10:45:00 AM -0.06 31.892 0.06 6.08 1.96 14.71
12/18/2020 11:00:00 AM -0.06 31.892 0.06 6.07 2.04 14.71
12/18/2020 11:15:00 AM -0.06 31.892 0.06 6.08 1.91 14.71
12/18/2020 11:30:00 AM -0.06 31.892 0.06 6.07 1.97 14.71
12/18/2020 11:45:00 AM -0.06 31.892 0.06 6.1 1.97 14.71
12/18/2020 12:00:00 PM -0.06 31.892 0.06 6.09 1.93 14.71
12/18/2020 12:15:00 PM -0.06 31.892 0.059 6.09 1.94 14.72
12/18/2020 12:30:00 PM -0.06 31.892 0.059 6.12 2.01 14.71
12/18/2020 12:45:00 PM -0.06 31.892 0.059 6.14 2.04 14.71
12/18/2020 1:00:00 PM -0.06 31.892 0.059 6.12 1.93 14.71
12/18/2020 1:15:00 PM -0.06 31.892 0.059 6.12 1.97 14.7
12/18/2020 1:30:00 PM -0.06 31.892 0.059 6.1 2.17 14.69
12/18/2020 1:45:00 PM -0.06 31.892 0.059 6.1 1.93 14.69
12/18/2020 2:00:00 PM -0.06 31.892 0.059 6.06 1.98 14.69
12/18/2020 2:15:00 PM -0.06 31.892 0.059 6.1 1.98 14.69
12/18/2020 2:30:00 PM -0.06 31.892 0.059 6.09 2.02 14.69
12/18/2020 2:45:00 PM -0.06 31.892 0.059 6.1 2.1 14.68
12/18/2020 3:00:00 PM -0.06 31.892 0.059 6.1 1.97 14.67
12/18/2020 3:15:00 PM -0.06 31.892 0.059 6.1 2.04 14.68
12/18/2020 3:30:00 PM -0.06 31.892 0.059 6.06 2.16 14.66
12/18/2020 3:45:00 PM -0.06 31.892 0.059 6.06 1.98 14.66
12/18/2020 4:00:00 PM -0.06 31.892 0.059 6.05 2.02 14.64
12/18/2020 4:15:00 PM -0.06 31.892 0.059 6.02 1.98 14.63
12/18/2020 4:30:00 PM -0.07 31.874 0.059 5.99 2.03 14.61
12/18/2020 4:45:00 PM -0.07 31.874 0.059 6.01 1.99 14.6
12/18/2020 5:00:00 PM -0.07 31.874 0.059 5.97 2.01 14.58
12/18/2020 5:15:00 PM -0.07 31.874 0.059 5.99 1.92 14.57
12/18/2020 5:30:00 PM -0.07 31.874 0.059 6 1.92 14.56
12/18/2020 5:45:00 PM -0.07 31.874 0.059 5.99 1.93 14.56
12/18/2020 6:00:00 PM -0.07 31.874 0.059 5.99 1.89 14.56
12/18/2020 6:15:00 PM -0.07 31.874 0.059 5.97 1.88 14.57
12/18/2020 6:30:00 PM -0.08 31.856 0.059 5.97 1.88 14.57
12/18/2020 6:45:00 PM -0.08 31.856 0.059 5.98 1.87 14.58
12/18/2020 7:00:00 PM -0.08 31.856 0.059 6.01 1.85 14.58
12/18/2020 7:15:00 PM -0.08 31.856 0.059 5.99 1.85 14.58
12/18/2020 7:30:00 PM -0.08 31.856 0.059 5.99 1.9 14.58
12/18/2020 7:45:00 PM -0.08 31.856 0.059 5.99 1.83 14.59
12/18/2020 8:00:00 PM -0.08 31.856 0.059 6 1.83 14.59
12/18/2020 8:15:00 PM -0.08 31.856 0.059 6.01 1.87 14.6
12/18/2020 8:30:00 PM -0.08 31.856 0.059 6.02 1.84 14.6
12/18/2020 8:45:00 PM -0.09 31.838 0.059 6.01 1.79 14.6
12/18/2020 9:00:00 PM -0.09 31.838 0.059 6.02 1.81 14.61
12/18/2020 9:15:00 PM -0.09 31.838 0.059 6.01 1.81 14.6
12/18/2020 9:30:00 PM -0.09 31.838 0.059 6.01 1.84 14.61
12/18/2020 9:45:00 PM -0.09 31.838 0.059 6.02 1.79 14.61
12/18/2020 10:00:00 PM -0.09 31.838 0.059 6.01 1.81 14.61
12/18/2020 10:15:00 PM -0.09 31.838 0.059 6.01 1.88 14.61
12/18/2020 10:30:00 PM -0.09 31.838 0.059 6.02 1.82 14.61
12/18/2020 10:45:00 PM -0.09 31.838 0.059 6.02 1.84 14.61
12/18/2020 11:00:00 PM -0.09 31.838 0.06 6.01 1.78 14.61
12/18/2020 11:15:00 PM -0.09 31.838 0.06 6.02 1.79 14.61
12/18/2020 11:30:00 PM -0.09 31.838 0.06 6.01 1.79 14.6
12/18/2020 11:45:00 PM -0.1 31.82 0.06 6.01 1.8 14.61
12/19/2020 12:00:00 AM -0.09 31.838 0.06 6.02 1.81 14.61
12/19/2020 12:15:00 AM -0.09 31.838 0.06 6 1.79 14.61
12/19/2020 12:30:00 AM -0.09 31.838 0.06 5.96 1.78 14.6
12/19/2020 12:45:00 AM -0.09 31.838 0.06 5.96 1.78 14.6
12/19/2020 1:00:00 AM -0.09 31.838 0.06 5.96 1.72 14.6
12/19/2020 1:15:00 AM -0.09 31.838 0.06 5.98 1.73 14.6
12/19/2020 1:30:00 AM -0.09 31.838 0.06 6.03 1.73 14.6
12/19/2020 1:45:00 AM -0.09 31.838 0.06 5.97 1.77 14.6
12/19/2020 2:00:00 AM -0.09 31.838 0.06 5.97 1.76 14.6
12/19/2020 2:15:00 AM -0.09 31.838 0.06 5.96 1.75 14.6
12/19/2020 2:30:00 AM -0.09 31.838 0.06 5.95 1.73 14.6
12/19/2020 2:45:00 AM -0.09 31.838 0.061 5.93 1.76 14.6
12/19/2020 3:00:00 AM -0.09 31.838 0.061 5.93 1.7 14.61
12/19/2020 3:15:00 AM -0.09 31.838 0.061 5.93 1.75 14.61
12/19/2020 3:30:00 AM -0.09 31.838 0.061 5.91 1.7 14.61
12/19/2020 3:45:00 AM -0.09 31.838 0.061 5.93 1.65 14.6
12/19/2020 4:00:00 AM -0.09 31.838 0.061 5.92 1.66 14.6
12/19/2020 4:15:00 AM -0.09 31.838 0.061 5.92 1.7 14.6
12/19/2020 4:30:00 AM -0.09 31.838 0.061 5.91 1.68 14.61
12/19/2020 4:45:00 AM -0.09 31.838 0.061 5.92 1.71 14.6
12/19/2020 5:00:00 AM -0.09 31.838 0.061 5.91 1.67 14.6
12/19/2020 5:15:00 AM -0.09 31.838 0.061 5.91 1.65 14.6
12/19/2020 5:30:00 AM -0.09 31.838 0.061 5.94 1.65 14.59
12/19/2020 5:45:00 AM -0.09 31.838 0.061 5.92 1.87 14.6
12/19/2020 6:00:00 AM -0.09 31.838 0.061 5.94 1.69 14.59
12/19/2020 6:15:00 AM -0.09 31.838 0.061 5.95 1.67 14.59
12/19/2020 6:30:00 AM -0.09 31.838 0.062 5.94 1.83 14.6
12/19/2020 6:45:00 AM -0.09 31.838 0.062 5.94 1.8 14.59
12/19/2020 7:00:00 AM -0.09 31.838 0.062 5.93 1.68 14.59
12/19/2020 7:15:00 AM -0.09 31.838 0.062 5.93 1.67 14.59
12/19/2020 7:30:00 AM -0.09 31.838 0.062 5.93 1.68 14.6
12/19/2020 7:45:00 AM -0.09 31.838 0.062 5.93 1.67 14.61
12/19/2020 8:00:00 AM -0.09 31.838 0.062 5.94 1.64 14.63
12/19/2020 8:15:00 AM -0.09 31.838 0.062 5.97 1.64 14.66
12/19/2020 8:30:00 AM -0.09 31.838 0.062 5.97 1.68 14.68
12/19/2020 8:45:00 AM -0.09 31.838 0.062 5.98 1.65 14.7
12/19/2020 9:00:00 AM -0.09 31.838 0.062 5.99 1.65 14.72
12/19/2020 9:15:00 AM -0.09 31.838 0.062 6.01 1.65 14.74
12/19/2020 9:30:00 AM -0.09 31.838 0.062 5.99 1.67 14.76
12/19/2020 9:45:00 AM -0.08 31.856 0.062 6.01 1.65 14.78
12/19/2020 10:00:00 AM -0.08 31.856 0.062 6 1.67 14.8
12/19/2020 10:15:00 AM -0.08 31.856 0.062 6.03 1.7 14.81
12/19/2020 10:30:00 AM -0.08 31.856 0.062 6.02 1.71 14.81
12/19/2020 10:45:00 AM -0.08 31.856 0.062 6.01 1.73 14.82
12/19/2020 11:00:00 AM -0.08 31.856 0.062 6.01 1.7 14.81
12/19/2020 11:15:00 AM -0.08 31.856 0.062 6.05 1.7 14.81
12/19/2020 11:30:00 AM -0.08 31.856 0.062 6.04 1.76 14.81
12/19/2020 11:45:00 AM -0.08 31.856 0.062 6.11 1.81 14.81
12/19/2020 12:00:00 PM -0.07 31.874 0.062 6.11 1.75 14.79
12/19/2020 12:15:00 PM -0.07 31.874 0.062 6.08 1.83 14.79
12/19/2020 12:30:00 PM -0.07 31.874 0.062 6.11 1.78 14.78
12/19/2020 12:45:00 PM -0.07 31.874 0.062 6.06 1.79 14.78
12/19/2020 1:00:00 PM -0.07 31.874 0.062 6.09 1.91 14.77
12/19/2020 1:15:00 PM -0.06 31.892 0.062 6.1 1.7 14.77
12/19/2020 1:30:00 PM -0.06 31.892 0.062 6.1 1.71 14.76
12/19/2020 1:45:00 PM -0.05 31.91 0.062 6.09 1.77 14.76
12/19/2020 2:00:00 PM -0.05 31.91 0.062 6.09 1.78 14.75
12/19/2020 2:15:00 PM -0.05 31.91 0.062 6.07 1.82 14.75
12/19/2020 2:30:00 PM -0.05 31.91 0.062 6.08 1.76 14.74
12/19/2020 2:45:00 PM -0.05 31.91 0.062 6.06 1.77 14.73
12/19/2020 3:00:00 PM -0.06 31.892 0.062 6.05 1.77 14.73
12/19/2020 3:15:00 PM -0.06 31.892 0.062 6.04 1.78 14.72
12/19/2020 3:30:00 PM -0.06 31.892 0.062 6.05 1.7 14.71
12/19/2020 3:45:00 PM -0.06 31.892 0.062 6.04 1.78 14.7
12/19/2020 4:00:00 PM -0.06 31.892 0.062 6.03 1.77 14.68
12/19/2020 4:15:00 PM -0.06 31.892 0.062 6.04 1.81 14.65
12/19/2020 4:30:00 PM -0.06 31.892 0.062 6.03 1.75 14.63
12/19/2020 4:45:00 PM -0.06 31.892 0.062 6.03 1.78 14.61
12/19/2020 5:00:00 PM -0.06 31.892 0.061 6.04 1.8 14.59
12/19/2020 5:15:00 PM -0.06 31.892 0.061 6.02 1.74 14.57
12/19/2020 5:30:00 PM -0.06 31.892 0.061 6.01 1.79 14.56
12/19/2020 5:45:00 PM -0.07 31.874 0.061 6 1.8 14.55
12/19/2020 6:00:00 PM -0.06 31.892 0.06 6 1.76 14.54
12/19/2020 6:15:00 PM -0.06 31.892 0.06 5.98 1.75 14.53
12/19/2020 6:30:00 PM -0.06 31.892 0.06 5.99 1.78 14.53
12/19/2020 6:45:00 PM -0.06 31.892 0.06 5.99 1.76 14.52
12/19/2020 7:00:00 PM -0.06 31.892 0.06 5.99 1.74 14.52
12/19/2020 7:15:00 PM -0.06 31.892 0.06 5.98 1.75 14.52
12/19/2020 7:30:00 PM -0.07 31.874 0.06 5.98 1.74 14.51
12/19/2020 7:45:00 PM -0.07 31.874 0.06 5.98 1.73 14.52
12/19/2020 8:00:00 PM -0.07 31.874 0.06 5.96 1.74 14.52
12/19/2020 8:15:00 PM -0.07 31.874 0.06 5.95 1.78 14.52
12/19/2020 8:30:00 PM -0.07 31.874 0.06 5.97 1.74 14.52
12/19/2020 8:45:00 PM -0.07 31.874 0.06 6 1.78 14.52
12/19/2020 9:00:00 PM -0.07 31.874 0.06 6 1.7 14.52
12/19/2020 9:15:00 PM -0.07 31.874 0.06 6 1.7 14.52
12/19/2020 9:30:00 PM -0.07 31.874 0.06 6 1.72 14.51
12/19/2020 9:45:00 PM -0.07 31.874 0.06 5.99 1.69 14.52
12/19/2020 10:00:00 PM -0.07 31.874 0.06 6 1.65 14.51
12/19/2020 10:15:00 PM -0.07 31.874 0.06 5.99 1.68 14.52
12/19/2020 10:30:00 PM -0.07 31.874 0.06 5.99 1.69 14.51
12/19/2020 10:45:00 PM -0.06 31.892 0.06 5.99 1.68 14.51
12/19/2020 11:00:00 PM -0.06 31.892 0.06 5.99 1.67 14.51
12/19/2020 11:15:00 PM -0.06 31.892 0.06 6 1.64 14.51
12/19/2020 11:30:00 PM -0.06 31.892 0.06 6 1.7 14.5
12/19/2020 11:45:00 PM -0.06 31.892 0.06 6 1.67 14.51
12/20/2020 12:00:00 AM -0.06 31.892 0.06 6.01 1.69 14.5
12/20/2020 12:15:00 AM -0.06 31.892 0.06 5.99 1.67 14.49
12/20/2020 12:30:00 AM -0.06 31.892 0.06 5.99 1.67 14.49
12/20/2020 12:45:00 AM -0.06 31.892 0.06 5.99 1.7 14.48
12/20/2020 1:00:00 AM -0.06 31.892 0.06 5.98 1.7 14.48
12/20/2020 1:15:00 AM -0.06 31.892 0.06 5.99 1.68 14.48
12/20/2020 1:30:00 AM -0.06 31.892 0.06 6 1.67 14.48
12/20/2020 1:45:00 AM -0.06 31.892 0.06 6 1.67 14.47
12/20/2020 2:00:00 AM -0.06 31.892 0.06 6.01 1.65 14.47
12/20/2020 2:15:00 AM -0.06 31.892 0.06 6.01 1.65 14.47
12/20/2020 2:30:00 AM -0.06 31.892 0.06 5.98 1.73 14.47
12/20/2020 2:45:00 AM -0.05 31.91 0.06 5.98 1.65 14.47
12/20/2020 3:00:00 AM -0.05 31.91 0.06 5.99 1.7 14.47
12/20/2020 3:15:00 AM -0.05 31.91 0.06 5.98 1.67 14.46
12/20/2020 3:30:00 AM -0.05 31.91 0.06 5.99 1.7 14.46
12/20/2020 3:45:00 AM -0.05 31.91 0.06 5.99 1.7 14.46
12/20/2020 4:00:00 AM -0.05 31.91 0.06 5.99 1.68 14.46
12/20/2020 4:30:00 AM -0.05 31.91 0.059 6 1.71 14.45
12/20/2020 4:45:00 AM -0.05 31.91 0.059 6 1.68 14.45
12/20/2020 5:00:00 AM -0.05 31.91 0.059 5.98 1.67 14.45
12/20/2020 5:15:00 AM -0.05 31.91 0.059 5.98 1.64 14.44
12/20/2020 5:30:00 AM -0.05 31.91 0.059 5.99 1.68 14.45
12/20/2020 5:45:00 AM -0.05 31.91 0.059 6 1.69 14.44
12/20/2020 6:00:00 AM -0.05 31.91 0.059 5.98 1.69 14.44
12/20/2020 6:15:00 AM -0.05 31.91 0.059 5.99 1.67 14.44
12/20/2020 6:30:00 AM -0.05 31.91 0.059 5.98 1.69 14.44
12/20/2020 6:45:00 AM -0.05 31.91 0.059 5.99 1.65 14.43
12/20/2020 7:00:00 AM -0.05 31.91 0.059 5.99 1.66 14.43
12/20/2020 7:15:00 AM -0.04 31.928 0.059 5.97 1.72 14.43
12/20/2020 7:30:00 AM -0.04 31.928 0.059 5.98 1.8 14.43
12/20/2020 7:45:00 AM -0.04 31.928 0.059 5.99 1.66 14.44
12/20/2020 8:00:00 AM -0.04 31.928 0.059 5.98 1.68 14.45
12/20/2020 8:15:00 AM -0.04 31.928 0.059 5.99 1.63 14.46
12/20/2020 8:30:00 AM -0.03 31.946 0.059 6 1.64 14.48
12/20/2020 8:45:00 AM -0.03 31.946 0.059 6 1.67 14.5
12/20/2020 9:00:00 AM -0.02 31.964 0.059 6.01 1.66 14.52
12/20/2020 9:15:00 AM -0.02 31.964 0.059 6.02 1.69 14.53
12/20/2020 9:30:00 AM -0.02 31.964 0.059 6.01 1.73 14.54
12/20/2020 9:45:00 AM -0.02 31.964 0.059 6.02 1.72 14.56
12/20/2020 10:00:00 AM -0.02 31.964 0.059 6.05 1.69 14.56
12/20/2020 10:15:00 AM -0.02 31.964 0.059 6.04 1.74 14.56
12/20/2020 10:30:00 AM -0.01 31.982 0.059 6.04 1.72 14.56
12/20/2020 10:45:00 AM -0.01 31.982 0.059 6.05 1.76 14.57
12/20/2020 11:00:00 AM -0.01 31.982 0.059 6.04 1.73 14.56
12/20/2020 11:15:00 AM -0.01 31.982 0.059 6.05 1.73 14.56
12/20/2020 11:30:00 AM 0 32 0.059 6.06 1.72 14.56
12/20/2020 11:45:00 AM 0 32 0.059 6.05 1.76 14.56
12/20/2020 12:00:00 PM -0.01 31.982 0.059 6.05 1.78 14.54
12/20/2020 12:15:00 PM -0.01 31.982 0.059 6.05 1.81 14.52
12/20/2020 12:30:00 PM -0.02 31.964 0.059 6.05 1.79 14.51
12/20/2020 12:45:00 PM -0.02 31.964 0.059 6.06 1.82 14.5
12/20/2020 1:00:00 PM -0.01 31.982 0.059 6.06 1.77 14.5
12/20/2020 1:15:00 PM -0.01 31.982 0.059 6.05 1.75 14.5
12/20/2020 1:30:00 PM -0.01 31.982 0.058 6.06 1.8 14.5
12/20/2020 1:45:00 PM -0.01 31.982 0.058 6.03 1.79 14.5
12/20/2020 2:00:00 PM -0.01 31.982 0.058 6.04 1.85 14.51
12/20/2020 2:15:00 PM -0.01 31.982 0.058 6.04 1.77 14.5
12/20/2020 2:30:00 PM -0.01 31.982 0.058 6.03 1.8 14.5
12/20/2020 2:45:00 PM -0.01 31.982 0.058 6.03 1.79 14.49
12/20/2020 3:00:00 PM -0.01 31.982 0.058 6.03 1.73 14.48
12/20/2020 3:15:00 PM -0.01 31.982 0.058 6.04 1.85 14.47
12/20/2020 3:30:00 PM -0.01 31.982 0.058 6.04 1.77 14.46
12/20/2020 3:45:00 PM -0.01 31.982 0.058 6.02 1.82 14.44
12/20/2020 4:00:00 PM -0.01 31.982 0.059 6.03 1.77 14.42
12/20/2020 4:15:00 PM -0.01 31.982 0.059 6.02 1.8 14.39
12/20/2020 4:30:00 PM -0.01 31.982 0.059 6.02 1.8 14.38
12/20/2020 4:45:00 PM -0.02 31.964 0.059 6.01 1.76 14.35
12/20/2020 5:00:00 PM -0.02 31.964 0.059 6 1.91 14.34
12/20/2020 5:15:00 PM -0.02 31.964 0.059 6 1.8 14.33
12/20/2020 5:30:00 PM -0.02 31.964 0.059 5.99 1.78 14.32
12/20/2020 5:45:00 PM -0.02 31.964 0.059 5.98 1.86 14.31
12/20/2020 6:00:00 PM -0.02 31.964 0.059 5.99 1.81 14.31
12/20/2020 6:15:00 PM -0.02 31.964 0.059 5.99 1.82 14.31
12/20/2020 6:30:00 PM -0.02 31.964 0.059 5.99 1.81 14.3
12/20/2020 6:45:00 PM -0.02 31.964 0.059 5.99 1.87 14.3
12/20/2020 7:00:00 PM -0.02 31.964 0.059 5.98 1.84 14.3
12/20/2020 7:15:00 PM -0.02 31.964 0.059 5.98 1.85 14.3
12/20/2020 7:30:00 PM -0.02 31.964 0.059 5.98 1.94 14.29
12/20/2020 7:45:00 PM -0.02 31.964 0.059 5.97 1.87 14.29
12/20/2020 8:00:00 PM -0.02 31.964 0.059 5.96 1.87 14.29
12/20/2020 8:15:00 PM -0.02 31.964 0.059 5.98 1.87 14.29
12/20/2020 8:30:00 PM -0.01 31.982 0.059 5.98 1.9 14.28
12/20/2020 8:45:00 PM -0.02 31.964 0.059 5.97 1.94 14.28
12/20/2020 9:00:00 PM -0.02 31.964 0.059 5.99 1.89 14.28
12/20/2020 9:15:00 PM -0.02 31.964 0.059 6 1.93 14.28
12/20/2020 9:30:00 PM -0.01 31.982 0.059 6 1.92 14.28
12/20/2020 9:45:00 PM -0.01 31.982 0.059 6.01 1.9 14.28
12/20/2020 10:00:00 PM -0.01 31.982 0.059 5.99 1.93 14.28
12/20/2020 10:15:00 PM -0.01 31.982 0.059 5.98 2 14.28
12/20/2020 10:30:00 PM -0.01 31.982 0.059 5.99 1.92 14.28
12/20/2020 10:45:00 PM 0 32 0.059 5.98 1.98 14.27
12/20/2020 11:00:00 PM 0 32 0.059 6 2 14.27
12/20/2020 11:15:00 PM 0 32 0.059 5.98 1.93 14.27
12/20/2020 11:30:00 PM 0 32 0.059 5.99 1.92 14.27
12/20/2020 11:45:00 PM 0.01 32.018 0.059 5.98 1.98 14.27
12/21/2020 12:00:00 AM 0.01 32.018 0.059 5.99 1.88 14.26
12/21/2020 12:15:00 AM 0.02 32.036 0.059 5.99 1.95 14.26
12/21/2020 12:30:00 AM 0.03 32.054 0.059 6 1.99 14.26
12/21/2020 12:45:00 AM 0.03 32.054 0.059 6 2.05 14.25
12/21/2020 1:00:00 AM 0.04 32.072 0.059 5.99 1.93 14.25
12/21/2020 1:15:00 AM 0.05 32.09 0.059 5.99 1.97 14.24
12/21/2020 1:30:00 AM 0.06 32.108 0.059 6 1.8 14.24
12/21/2020 1:45:00 AM 0.07 32.126 0.059 5.98 1.81 14.24
12/21/2020 2:00:00 AM 0.07 32.126 0.059 6 1.79 14.23
12/21/2020 2:15:00 AM 0.08 32.144 0.059 6.02 1.77 14.23
12/21/2020 2:30:00 AM 0.08 32.144 0.059 6 1.75 14.23
12/21/2020 2:45:00 AM 0.09 32.162 0.059 5.98 1.68 14.23
12/21/2020 3:00:00 AM 0.1 32.18 0.059 5.97 1.68 14.23
12/21/2020 3:15:00 AM 0.1 32.18 0.059 5.99 1.74 14.23
12/21/2020 3:30:00 AM 0.11 32.198 0.059 5.98 1.72 14.22
12/21/2020 3:45:00 AM 0.12 32.216 0.06 5.99 1.75 14.22
12/21/2020 4:00:00 AM 0.12 32.216 0.06 5.99 1.7 14.22
12/21/2020 4:15:00 AM 0.12 32.216 0.06 5.98 1.71 14.22
12/21/2020 4:30:00 AM 0.11 32.198 0.06 5.99 1.73 14.21
12/21/2020 4:45:00 AM 0.11 32.198 0.06 6 1.67 14.21
12/21/2020 5:00:00 AM 0.12 32.216 0.06 6 1.71 14.21
12/21/2020 5:15:00 AM 0.13 32.234 0.06 6 1.7 14.22
12/21/2020 5:30:00 AM 0.13 32.234 0.06 6 1.78 14.21
12/21/2020 5:45:00 AM 0.13 32.234 0.06 6 1.69 14.21
12/21/2020 6:00:00 AM 0.12 32.216 0.06 6.02 1.66 14.22
12/21/2020 6:15:00 AM 0.13 32.234 0.06 6.02 1.67 14.22
12/21/2020 6:30:00 AM 0.12 32.216 0.06 6.02 1.66 14.22
12/21/2020 6:45:00 AM 0.13 32.234 0.06 6.05 1.66 14.22
12/21/2020 7:00:00 AM 0.13 32.234 0.06 6.01 1.65 14.22
12/21/2020 7:15:00 AM 0.12 32.216 0.06 6.03 1.73 14.23
12/21/2020 7:30:00 AM 0.13 32.234 0.06 6.04 1.7 14.24
12/21/2020 7:45:00 AM 0.13 32.234 0.06 6.05 1.7 14.24
12/21/2020 8:00:00 AM 0.14 32.252 0.06 6.04 1.65 14.25
12/21/2020 8:15:00 AM 0.15 32.27 0.06 6.03 1.66 14.27
12/21/2020 8:30:00 AM 0.16 32.288 0.06 6.05 1.66 14.3
12/21/2020 8:45:00 AM 0.18 32.324 0.06 6.06 1.67 14.33
12/21/2020 9:00:00 AM 0.21 32.378 0.06 6.08 1.66 14.34
12/21/2020 9:15:00 AM 0.23 32.414 0.06 6.08 1.65 14.35
12/21/2020 9:30:00 AM 0.26 32.468 0.06 6.09 1.64 14.37
12/21/2020 9:45:00 AM 0.3 32.54 0.06 6.1 1.73 14.37
12/21/2020 10:00:00 AM 0.34 32.612 0.06 6.1 1.65 14.37
12/21/2020 10:15:00 AM 0.37 32.666 0.06 6.11 1.75 14.37
12/21/2020 10:30:00 AM 0.41 32.738 0.06 6.13 1.77 14.35
12/21/2020 10:45:00 AM 0.43 32.774 0.06 6.13 1.7 14.34
12/21/2020 11:00:00 AM 0.48 32.864 0.059 6.12 1.71 14.32
12/21/2020 11:15:00 AM 0.53 32.954 0.059 6.14 1.75 14.3
12/21/2020 11:30:00 AM 0.57 33.026 0.059 6.13 1.71 14.28
12/21/2020 11:45:00 AM 0.61 33.098 0.059 6.14 1.71 14.27
12/21/2020 12:00:00 PM 0.64 33.152 0.059 6.16 1.67 14.25
12/21/2020 12:15:00 PM 0.69 33.242 0.059 6.15 1.69 14.23
12/21/2020 12:30:00 PM 0.7 33.26 0.059 6.15 1.67 14.22
12/21/2020 12:45:00 PM 0.73 33.314 0.059 6.16 1.66 14.2
12/21/2020 1:00:00 PM 0.75 33.35 0.059 6.18 1.7 14.18
12/21/2020 1:15:00 PM 0.73 33.314 0.059 6.15 1.81 14.17
12/21/2020 1:30:00 PM 0.76 33.368 0.059 6.16 1.72 14.16
12/21/2020 1:45:00 PM 0.8 33.44 0.059 6.17 1.68 14.14
12/21/2020 2:00:00 PM 0.82 33.476 0.059 6.14 1.76 14.14
12/21/2020 2:15:00 PM 0.85 33.53 0.059 6.15 1.73 14.13
12/21/2020 2:30:00 PM 0.84 33.512 0.059 6.17 1.7 14.12
12/21/2020 2:45:00 PM 0.79 33.422 0.059 6.14 1.73 14.11
12/21/2020 3:00:00 PM 0.8 33.44 0.059 6.16 1.82 14.11
12/21/2020 3:15:00 PM 0.78 33.404 0.059 6.14 1.7 14.1
12/21/2020 3:30:00 PM 0.78 33.404 0.059 6.16 1.68 14.1
12/21/2020 3:45:00 PM 0.73 33.314 0.059 6.15 1.67 14.08
12/21/2020 4:00:00 PM 0.73 33.314 0.059 6.12 1.68 14.08
12/21/2020 4:15:00 PM 0.71 33.278 0.059 6.13 1.65 14.06
12/21/2020 4:30:00 PM 0.7 33.26 0.059 6.13 1.71 14.04
12/21/2020 4:45:00 PM 0.68 33.224 0.06 6.13 1.73 14.02
12/21/2020 5:00:00 PM 0.65 33.17 0.06 6.11 1.69 14.01
12/21/2020 5:15:00 PM 0.66 33.188 0.06 6.11 1.77 14.01
12/21/2020 5:30:00 PM 0.66 33.188 0.06 6.1 1.67 13.99
12/21/2020 5:45:00 PM 0.64 33.152 0.06 6.08 1.66 14
12/21/2020 6:00:00 PM 0.64 33.152 0.06 6.11 1.67 14
12/21/2020 6:15:00 PM 0.64 33.152 0.06 6.11 1.69 14
12/21/2020 6:30:00 PM 0.63 33.134 0.06 6.09 1.63 14
12/21/2020 6:45:00 PM 0.61 33.098 0.06 6.1 1.65 14.01
12/21/2020 7:00:00 PM 0.61 33.098 0.06 6.1 1.7 14.01
12/21/2020 7:15:00 PM 0.62 33.116 0.06 6.1 1.67 14.01
12/21/2020 7:30:00 PM 0.62 33.116 0.06 6.1 1.65 14
12/21/2020 7:45:00 PM 0.61 33.098 0.06 6.09 1.69 14
12/21/2020 8:00:00 PM 0.62 33.116 0.06 6.09 1.72 14.01
12/21/2020 8:15:00 PM 0.62 33.116 0.06 6.1 1.66 14
12/21/2020 8:30:00 PM 0.63 33.134 0.06 6.1 1.78 14
12/21/2020 8:45:00 PM 0.64 33.152 0.06 6.1 1.7 14
12/21/2020 9:00:00 PM 0.64 33.152 0.06 6.09 1.73 14
12/21/2020 9:15:00 PM 0.65 33.17 0.06 6.07 1.72 13.99
12/21/2020 9:30:00 PM 0.66 33.188 0.06 6.07 1.67 13.98
12/21/2020 9:45:00 PM 0.67 33.206 0.06 6.09 1.71 13.98
12/21/2020 10:00:00 PM 0.67 33.206 0.06 6.09 1.71 13.98
12/21/2020 10:15:00 PM 0.68 33.224 0.06 6.08 1.69 13.97
12/21/2020 10:30:00 PM 0.66 33.188 0.06 6.07 1.69 13.98
12/21/2020 10:45:00 PM 0.63 33.134 0.06 6.06 1.64 13.98
12/21/2020 11:00:00 PM 0.65 33.17 0.06 6.08 1.71 13.98
12/21/2020 11:15:00 PM 0.67 33.206 0.06 6.08 1.66 13.98
12/21/2020 11:30:00 PM 0.68 33.224 0.06 6.1 1.69 13.97
12/21/2020 11:45:00 PM 0.69 33.242 0.06 6.08 1.66 13.97
12/22/2020 12:00:00 AM 0.7 33.26 0.06 6.08 1.7 13.96
12/22/2020 12:15:00 AM 0.71 33.278 0.06 6.08 1.67 13.96
12/22/2020 12:30:00 AM 0.71 33.278 0.06 6.07 1.66 13.95
12/22/2020 12:45:00 AM 0.69 33.242 0.06 6.1 1.63 13.95
12/22/2020 1:00:00 AM 0.71 33.278 0.06 6.08 1.62 13.95
12/22/2020 1:15:00 AM 0.72 33.296 0.06 6.09 1.68 13.95
12/22/2020 1:30:00 AM 0.73 33.314 0.06 6.08 1.7 13.94
12/22/2020 1:45:00 AM 0.71 33.278 0.06 6.09 1.63 13.93
12/22/2020 2:00:00 AM 0.72 33.296 0.06 6.1 1.63 13.94
12/22/2020 2:15:00 AM 0.73 33.314 0.06 6.09 1.66 13.94
12/22/2020 2:30:00 AM 0.73 33.314 0.06 6.09 1.68 13.94
12/22/2020 2:45:00 AM 0.71 33.278 0.06 6.08 1.65 13.94
12/22/2020 3:00:00 AM 0.72 33.296 0.06 6.11 1.68 13.94
12/22/2020 3:15:00 AM 0.74 33.332 0.06 6.1 1.73 13.93
12/22/2020 3:30:00 AM 0.74 33.332 0.06 6.1 1.68 13.93
12/22/2020 3:45:00 AM 0.75 33.35 0.061 6.1 1.65 13.93
12/22/2020 4:00:00 AM 0.75 33.35 0.061 6.09 1.65 13.93
12/22/2020 4:15:00 AM 0.75 33.35 0.061 6.09 1.68 13.93
12/22/2020 4:30:00 AM 0.76 33.368 0.061 6.1 1.66 13.92
12/22/2020 4:45:00 AM 0.76 33.368 0.061 6.1 1.66 13.92
12/22/2020 5:00:00 AM 0.75 33.35 0.061 6.08 1.64 13.93
12/22/2020 5:15:00 AM 0.75 33.35 0.061 6.09 1.66 13.93
12/22/2020 5:30:00 AM 0.75 33.35 0.061 6.09 1.64 13.93
12/22/2020 5:45:00 AM 0.76 33.368 0.061 6.08 1.65 13.93
12/22/2020 6:00:00 AM 0.75 33.35 0.061 6.08 1.67 13.93
12/22/2020 6:15:00 AM 0.75 33.35 0.061 6.07 1.65 13.94
12/22/2020 6:30:00 AM 0.76 33.368 0.061 6.07 1.68 13.94
12/22/2020 6:45:00 AM 0.76 33.368 0.061 6.08 1.64 13.94
12/22/2020 7:00:00 AM 0.76 33.368 0.061 6.07 1.66 13.94
12/22/2020 7:15:00 AM 0.77 33.386 0.061 6.08 1.65 13.94
12/22/2020 7:30:00 AM 0.78 33.404 0.061 6.08 1.64 13.94
12/22/2020 7:45:00 AM 0.78 33.404 0.061 6.08 1.63 13.95
12/22/2020 8:00:00 AM 0.78 33.404 0.061 6.09 1.57 13.98
12/22/2020 8:15:00 AM 0.79 33.422 0.061 6.1 1.59 14.01
12/22/2020 8:30:00 AM 0.8 33.44 0.061 6.1 1.59 14.04
12/22/2020 8:45:00 AM 0.82 33.476 0.061 6.11 1.6 14.07
12/22/2020 9:00:00 AM 0.86 33.548 0.061 6.12 1.6 14.11
12/22/2020 9:15:00 AM 0.89 33.602 0.061 6.14 1.61 14.12
12/22/2020 9:30:00 AM 0.91 33.638 0.061 6.14 1.62 14.11
12/22/2020 9:45:00 AM 0.93 33.674 0.061 6.15 1.64 14.13
12/22/2020 10:00:00 AM 0.97 33.746 0.061 6.16 1.63 14.11
12/22/2020 10:15:00 AM 1.01 33.818 0.061 6.16 1.63 14.11
12/22/2020 10:30:00 AM 1.03 33.854 0.061 6.16 1.63 14.1
12/22/2020 10:45:00 AM 1.07 33.926 0.061 6.17 1.6 14.1
12/22/2020 11:00:00 AM 1.08 33.944 0.061 6.17 1.63 14.09
12/22/2020 11:15:00 AM 1.08 33.944 0.061 6.18 1.6 14.09
12/22/2020 11:30:00 AM 1.12 34.016 0.061 6.18 1.57 14.08
12/22/2020 11:45:00 AM 1.15 34.07 0.061 6.18 1.61 14.08
12/22/2020 12:00:00 PM 1.17 34.106 0.061 6.19 1.7 14.07
12/22/2020 12:15:00 PM 1.18 34.124 0.061 6.18 1.59 14.06
12/22/2020 12:30:00 PM 1.18 34.124 0.061 6.2 1.62 14.07
12/22/2020 12:45:00 PM 1.21 34.178 0.061 6.21 1.61 14.06
12/22/2020 1:00:00 PM 1.27 34.286 0.061 6.2 1.6 14.05
12/22/2020 1:15:00 PM 1.29 34.322 0.061 6.2 1.6 14.01
12/22/2020 1:30:00 PM 1.29 34.322 0.061 6.19 1.63 14.01
12/22/2020 1:45:00 PM 1.3 34.34 0.061 6.18 1.61 14.01
12/22/2020 2:00:00 PM 1.33 34.394 0.061 6.19 1.64 14.01
12/22/2020 2:15:00 PM 1.34 34.412 0.061 6.2 1.65 14
12/22/2020 2:30:00 PM 1.31 34.358 0.061 6.18 1.6 13.98
12/22/2020 2:45:00 PM 1.34 34.412 0.061 6.21 1.6 13.99
12/22/2020 3:00:00 PM 1.36 34.448 0.061 6.19 1.65 13.97
12/22/2020 3:15:00 PM 1.3 34.34 0.061 6.14 1.7 13.96
12/22/2020 3:30:00 PM 1.32 34.376 0.061 6.19 1.64 13.97
12/22/2020 3:45:00 PM 1.33 34.394 0.061 6.17 1.6 13.95
12/22/2020 4:00:00 PM 1.31 34.358 0.061 6.16 1.62 13.93
12/22/2020 4:15:00 PM 1.31 34.358 0.061 6.16 1.61 13.92
12/22/2020 4:30:00 PM 1.31 34.358 0.061 6.15 1.58 13.9
12/22/2020 4:45:00 PM 1.3 34.34 0.061 6.15 1.61 13.88
12/22/2020 5:00:00 PM 1.28 34.304 0.061 6.14 1.72 13.87
12/22/2020 5:15:00 PM 1.29 34.322 0.061 6.15 1.64 13.86
12/22/2020 5:30:00 PM 1.28 34.304 0.061 6.13 1.62 13.86
12/22/2020 5:45:00 PM 1.25 34.25 0.061 6.14 1.66 13.86
12/22/2020 6:00:00 PM 1.22 34.196 0.061 6.15 100.3 13.87
12/22/2020 6:15:00 PM 1.21 34.178 0.061 6.16 1.67 13.89
12/22/2020 6:30:00 PM 1.2 34.16 0.061 6.13 1.64 13.89
12/22/2020 6:45:00 PM 1.17 34.106 0.061 6.11 1.64 13.9
12/22/2020 7:00:00 PM 1.18 34.124 0.061 6.11 1.61 13.91
12/22/2020 7:15:00 PM 1.18 34.124 0.061 6.11 1.65 13.91
12/22/2020 7:30:00 PM 1.2 34.16 0.061 6.12 1.63 13.92
12/22/2020 7:45:00 PM 1.19 34.142 0.061 6.12 1.61 13.93
12/22/2020 8:00:00 PM 1.18 34.124 0.061 6.13 1.64 13.93
12/22/2020 8:15:00 PM 1.17 34.106 0.061 6.13 1.61 13.94
12/22/2020 8:30:00 PM 1.19 34.142 0.061 6.13 1.64 13.94
12/22/2020 8:45:00 PM 1.19 34.142 0.061 6.15 1.61 13.94
12/22/2020 9:00:00 PM 1.2 34.16 0.061 6.15 1.62 13.94
12/22/2020 9:15:00 PM 1.2 34.16 0.061 6.15 1.62 13.95
12/22/2020 9:30:00 PM 1.19 34.142 0.061 6.15 1.58 13.95
12/22/2020 9:45:00 PM 1.2 34.16 0.061 6.14 1.66 13.95
12/22/2020 10:00:00 PM 1.18 34.124 0.061 6.14 1.65 13.95
12/22/2020 10:15:00 PM 1.18 34.124 0.061 6.15 1.59 13.95
12/22/2020 10:30:00 PM 1.17 34.106 0.061 6.13 1.61 13.96
12/22/2020 10:45:00 PM 1.19 34.142 0.061 6.13 1.59 13.96
12/22/2020 11:00:00 PM 1.2 34.16 0.061 6.13 1.61 13.96
12/22/2020 11:15:00 PM 1.19 34.142 0.061 6.13 1.61 13.96
12/22/2020 11:30:00 PM 1.18 34.124 0.061 6.12 1.6 13.96
12/22/2020 11:45:00 PM 1.18 34.124 0.061 6.13 1.61 13.97
12/23/2020 12:00:00 AM 1.17 34.106 0.061 6.13 1.63 13.97
12/23/2020 12:15:00 AM 1.12 34.016 0.061 6.1 1.63 13.97
12/23/2020 12:30:00 AM 1.14 34.052 0.061 6.13 1.62 13.98
12/23/2020 12:45:00 AM 1.14 34.052 0.061 6.12 1.61 13.99
12/23/2020 1:00:00 AM 1.13 34.034 0.061 6.11 1.59 13.98
12/23/2020 1:15:00 AM 1.11 33.998 0.061 6.09 1.59 14
12/23/2020 1:30:00 AM 1.09 33.962 0.061 6.09 1.61 14.01
12/23/2020 1:45:00 AM 1.06 33.908 0.061 6.12 1.58 14.02
12/23/2020 2:00:00 AM 1.03 33.854 0.061 6.13 1.62 14.04
12/23/2020 2:15:00 AM 1.01 33.818 0.061 6.1 1.59 14.05
12/23/2020 2:30:00 AM 1 33.8 0.061 6.09 1.64 14.06
12/23/2020 2:45:00 AM 1 33.8 0.061 6.11 1.61 14.07
12/23/2020 3:00:00 AM 0.99 33.782 0.061 6.09 1.58 14.08
12/23/2020 3:15:00 AM 0.99 33.782 0.061 6.15 1.64 14.08
12/23/2020 3:30:00 AM 0.99 33.782 0.062 6.13 1.54 14.08
12/23/2020 3:45:00 AM 0.98 33.764 0.062 6.15 1.58 14.09
12/23/2020 4:00:00 AM 0.98 33.764 0.062 6.14 1.59 14.09
12/23/2020 4:15:00 AM 0.98 33.764 0.062 6.1 1.59 14.1
12/23/2020 4:30:00 AM 0.98 33.764 0.062 6.11 1.63 14.09
12/23/2020 4:45:00 AM 0.98 33.764 0.062 6.12 1.58 14.09
12/23/2020 5:00:00 AM 0.98 33.764 0.062 6.09 1.59 14.1
12/23/2020 5:15:00 AM 0.98 33.764 0.062 6.1 1.59 14.1
12/23/2020 5:30:00 AM 0.96 33.728 0.062 6.09 1.62 14.11
12/23/2020 5:45:00 AM 0.95 33.71 0.062 6.1 1.59 14.11
12/23/2020 6:00:00 AM 0.93 33.674 0.062 6.1 1.58 14.12
12/23/2020 6:15:00 AM 0.91 33.638 0.062 6.1 1.6 14.12
12/23/2020 6:30:00 AM 0.89 33.602 0.062 6.09 1.61 14.14
12/23/2020 6:45:00 AM 0.88 33.584 0.062 6.11 1.61 14.15
12/23/2020 7:00:00 AM 0.86 33.548 0.062 6.1 1.58 14.16
12/23/2020 7:15:00 AM 0.84 33.512 0.062 6.09 1.62 14.17
12/23/2020 7:30:00 AM 0.82 33.476 0.062 6.1 1.62 14.18
12/23/2020 7:45:00 AM 0.81 33.458 0.062 6.1 1.61 14.21
12/23/2020 8:00:00 AM 0.79 33.422 0.062 6.11 1.6 14.25
12/23/2020 8:15:00 AM 0.79 33.422 0.062 6.14 1.67 14.29
12/23/2020 8:30:00 AM 0.8 33.44 0.062 6.12 1.61 14.33
12/23/2020 8:45:00 AM 0.81 33.458 0.062 6.13 1.59 14.35
12/23/2020 9:00:00 AM 0.82 33.476 0.062 6.13 1.58 14.37
12/23/2020 9:15:00 AM 0.84 33.512 0.062 6.14 1.55 14.38
12/23/2020 9:30:00 AM 0.85 33.53 0.062 6.15 1.56 14.38
12/23/2020 9:45:00 AM 0.88 33.584 0.062 6.16 1.59 14.38
12/23/2020 10:00:00 AM 0.91 33.638 0.062 6.17 1.62 14.38
12/23/2020 10:15:00 AM 0.96 33.728 0.062 6.18 1.59 14.38
12/23/2020 10:30:00 AM 1 33.8 0.062 6.18 1.53 14.36
12/23/2020 10:45:00 AM 1.07 33.926 0.062 6.19 1.6 14.35
12/23/2020 11:00:00 AM 1.14 34.052 0.062 6.19 1.55 14.32
12/23/2020 11:15:00 AM 1.22 34.196 0.062 6.2 1.6 14.29
12/23/2020 11:30:00 AM 1.31 34.358 0.062 6.21 1.58 14.27
12/23/2020 11:45:00 AM 1.39 34.502 0.062 6.22 1.67 14.24
12/23/2020 12:00:00 PM 1.46 34.628 0.062 6.22 1.51 14.21
12/23/2020 12:15:00 PM 1.52 34.736 0.062 6.22 1.53 14.18
12/23/2020 12:30:00 PM 1.58 34.844 0.062 6.22 1.58 14.15
12/23/2020 12:45:00 PM 1.63 34.934 0.062 6.22 1.56 14.12
12/23/2020 1:00:00 PM 1.65 34.97 0.062 6.22 1.57 14.1
12/23/2020 1:15:00 PM 1.69 35.042 0.062 6.22 1.56 14.08
12/23/2020 1:30:00 PM 1.71 35.078 0.062 6.22 1.54 14.07
12/23/2020 1:45:00 PM 1.66 34.988 0.062 6.21 1.57 14.06
12/23/2020 2:00:00 PM 1.69 35.042 0.062 6.2 1.53 14.05
12/23/2020 2:15:00 PM 1.71 35.078 0.062 6.21 1.58 14.04
12/23/2020 2:30:00 PM 1.73 35.114 0.062 6.22 1.58 14.03
12/23/2020 2:45:00 PM 1.74 35.132 0.062 6.2 1.56 14.02
12/23/2020 3:00:00 PM 1.74 35.132 0.062 6.2 1.53 14
12/23/2020 3:15:00 PM 1.73 35.114 0.062 6.19 1.57 14
12/23/2020 3:30:00 PM 1.71 35.078 0.062 6.2 1.55 13.99
12/23/2020 3:45:00 PM 1.72 35.096 0.062 6.19 1.54 13.98
12/23/2020 4:00:00 PM 1.71 35.078 0.062 6.17 1.64 13.96
12/23/2020 4:15:00 PM 1.68 35.024 0.062 6.14 1.54 13.94
12/23/2020 4:30:00 PM 1.67 35.006 0.062 6.18 1.52 13.91
12/23/2020 4:45:00 PM 1.66 34.988 0.062 6.18 1.59 13.88
12/23/2020 5:00:00 PM 1.64 34.952 0.062 6.16 1.59 13.85
12/23/2020 5:15:00 PM 1.62 34.916 0.062 6.15 1.57 13.83
12/23/2020 5:30:00 PM 1.59 34.862 0.062 6.14 1.6 13.84
12/23/2020 5:45:00 PM 1.56 34.808 0.062 6.15 1.64 13.84
12/23/2020 6:00:00 PM 1.53 34.754 0.062 6.13 1.62 13.84
12/23/2020 6:15:00 PM 1.5 34.7 0.062 6.14 1.58 13.85
12/23/2020 6:30:00 PM 1.47 34.646 0.062 6.13 1.52 13.86
12/23/2020 6:45:00 PM 1.44 34.592 0.062 6.12 1.57 13.87
12/23/2020 7:00:00 PM 1.41 34.538 0.062 6.11 1.59 13.88
12/23/2020 7:15:00 PM 1.39 34.502 0.062 6.12 1.55 13.89
12/23/2020 7:30:00 PM 1.36 34.448 0.062 6.13 1.56 13.9
12/23/2020 7:45:00 PM 1.34 34.412 0.062 6.11 1.56 13.91
12/23/2020 8:00:00 PM 1.32 34.376 0.062 6.12 1.56 13.92
12/23/2020 8:15:00 PM 1.31 34.358 0.063 6.14 1.58 13.92
12/23/2020 8:30:00 PM 1.3 34.34 0.063 6.13 1.56 13.92
12/23/2020 8:45:00 PM 1.27 34.286 0.063 6.14 1.59 13.93
12/23/2020 9:00:00 PM 1.26 34.268 0.063 6.11 1.56 13.94
12/23/2020 9:15:00 PM 1.24 34.232 0.063 6.13 1.58 13.94
12/23/2020 9:30:00 PM 1.22 34.196 0.063 6.12 1.57 13.95
12/23/2020 9:45:00 PM 1.21 34.178 0.063 6.13 1.54 13.95
12/23/2020 10:00:00 PM 1.2 34.16 0.063 6.12 1.6 13.96
12/23/2020 10:15:00 PM 1.19 34.142 0.063 6.13 1.57 13.96
12/23/2020 10:30:00 PM 1.18 34.124 0.063 6.12 1.58 13.96
12/23/2020 10:45:00 PM 1.17 34.106 0.063 6.12 1.58 13.97
12/23/2020 11:00:00 PM 1.16 34.088 0.063 6.14 1.58 13.97
12/23/2020 11:15:00 PM 1.14 34.052 0.063 6.12 1.6 13.97
12/23/2020 11:30:00 PM 1.14 34.052 0.063 6.13 1.57 13.97
12/23/2020 11:45:00 PM 1.14 34.052 0.063 6.12 1.56 13.97
12/24/2020 12:00:00 AM 1.13 34.034 0.063 6.12 1.59 13.98
12/24/2020 12:15:00 AM 1.12 34.016 0.063 6.13 1.62 13.98
12/24/2020 12:30:00 AM 1.11 33.998 0.063 6.13 1.59 13.98
12/24/2020 12:45:00 AM 1.1 33.98 0.063 6.12 1.62 13.98
12/24/2020 1:00:00 AM 1.08 33.944 0.063 6.12 1.56 13.98
12/24/2020 1:15:00 AM 1.07 33.926 0.063 6.12 1.62 13.98
12/24/2020 1:30:00 AM 1.06 33.908 0.063 6.13 1.63 13.98
12/24/2020 1:45:00 AM 1.05 33.89 0.063 6.14 1.56 13.99
12/24/2020 2:00:00 AM 1.06 33.908 0.063 6.15 1.59 13.99
12/24/2020 2:15:00 AM 1.06 33.908 0.063 6.15 1.56 13.99
12/24/2020 2:30:00 AM 1.07 33.926 0.063 6.15 1.59 13.99
12/24/2020 2:45:00 AM 1.08 33.944 0.063 6.12 1.57 13.98
12/24/2020 3:00:00 AM 1.08 33.944 0.063 6.14 1.59 13.97
12/24/2020 3:15:00 AM 1.1 33.98 0.063 6.13 1.62 13.97
12/24/2020 3:30:00 AM 1.11 33.998 0.063 6.14 1.55 13.96
12/24/2020 3:45:00 AM 1.13 34.034 0.063 6.13 1.58 13.95
12/24/2020 4:00:00 AM 1.15 34.07 0.063 6.13 1.58 13.94
12/24/2020 4:15:00 AM 1.16 34.088 0.063 6.12 1.57 13.94
12/24/2020 4:30:00 AM 1.18 34.124 0.063 6.12 1.56 13.93
12/24/2020 4:45:00 AM 1.2 34.16 0.063 6.14 1.57 13.92
12/24/2020 5:00:00 AM 1.21 34.178 0.063 6.13 1.62 13.91
12/24/2020 5:15:00 AM 1.21 34.178 0.063 6.13 1.62 13.9
12/24/2020 5:30:00 AM 1.23 34.214 0.063 6.13 1.56 13.9
12/24/2020 5:45:00 AM 1.25 34.25 0.063 6.13 1.53 13.88
12/24/2020 6:00:00 AM 1.27 34.286 0.063 6.13 1.54 13.88
12/24/2020 6:15:00 AM 1.28 34.304 0.063 6.13 1.52 13.87
12/24/2020 6:30:00 AM 1.29 34.322 0.063 6.12 1.61 13.86
12/24/2020 6:45:00 AM 1.31 34.358 0.063 6.13 1.57 13.85
12/24/2020 7:00:00 AM 1.32 34.376 0.063 6.12 1.54 13.85
12/24/2020 7:15:00 AM 1.33 34.394 0.063 6.13 1.55 13.85
12/24/2020 7:30:00 AM 1.34 34.412 0.063 6.12 1.54 13.83
12/24/2020 7:45:00 AM 1.36 34.448 0.063 6.13 1.53 13.83
12/24/2020 8:00:00 AM 1.37 34.466 0.063 6.12 1.68 13.83
12/24/2020 8:15:00 AM 1.39 34.502 0.063 6.13 1.52 13.83
12/24/2020 8:30:00 AM 1.4 34.52 0.063 6.13 1.54 13.84
12/24/2020 8:45:00 AM 1.41 34.538 0.063 6.14 1.56 13.85
12/24/2020 9:00:00 AM 1.43 34.574 0.063 6.14 1.54 13.87
12/24/2020 9:15:00 AM 1.46 34.628 0.063 6.15 1.57 13.87
12/24/2020 9:30:00 AM 1.48 34.664 0.063 6.15 1.6 13.88
12/24/2020 9:45:00 AM 1.49 34.682 0.063 6.16 1.58 13.88
12/24/2020 10:00:00 AM 1.52 34.736 0.062 6.16 1.59 13.89
12/24/2020 10:15:00 AM 1.54 34.772 0.062 6.15 1.59 13.89
12/24/2020 10:30:00 AM 1.54 34.772 0.062 6.15 1.61 13.88
12/24/2020 10:45:00 AM 1.54 34.772 0.062 6.14 1.62 13.88
12/24/2020 11:00:00 AM 1.53 34.754 0.062 6.14 1.64 13.88
12/24/2020 11:15:00 AM 1.52 34.736 0.062 6.14 1.77 13.88
12/24/2020 11:30:00 AM 1.49 34.682 0.062 6.12 1.7 13.86
12/24/2020 11:45:00 AM 1.47 34.646 0.062 6.12 1.79 13.85
12/24/2020 12:00:00 PM 1.45 34.61 0.062 6.11 2.06 13.84
12/24/2020 12:15:00 PM 1.44 34.592 0.062 6.11 2.21 13.83
12/24/2020 12:30:00 PM 1.43 34.574 0.062 6.18 2.66 13.83
12/24/2020 12:45:00 PM 1.4 34.52 0.062 6.11 3.66 13.82
12/24/2020 1:00:00 PM 1.35 34.43 0.062 6.1 5.12 13.82
12/24/2020 1:15:00 PM 1.28 34.304 0.061 6.16 8.22 13.82
12/24/2020 1:30:00 PM 1.21 34.178 0.061 6.11 13.14 13.83
12/24/2020 1:45:00 PM 1.15 34.07 0.061 6.15 17.16 13.84
12/24/2020 2:00:00 PM 1.09 33.962 0.061 6.15 29.66 13.87
12/24/2020 2:15:00 PM 1.05 33.89 0.061 6.15 44.64 13.88
12/24/2020 2:30:00 PM 1.03 33.854 0.06 6.14 42.04 13.89
12/24/2020 2:45:00 PM 0.97 33.746 0.06 6.12 48.77 13.91
12/24/2020 3:00:00 PM 0.91 33.638 0.058 6.07 66.84 13.93
12/24/2020 3:15:00 PM 0.85 33.53 0.056 6.02 88.1 13.97
12/24/2020 3:30:00 PM 0.8 33.44 0.053 5.99 70.06 14.01
12/24/2020 3:45:00 PM 0.8 33.44 0.051 5.98 79.12 14.03
12/24/2020 4:00:00 PM 0.8 33.44 0.051 5.93 73.45 14.04
12/24/2020 4:15:00 PM 0.82 33.476 0.051 5.82 68.33 14.05
12/24/2020 4:30:00 PM 0.88 33.584 0.054 5.8 78.76 14.03
12/24/2020 4:45:00 PM 0.95 33.71 0.054 5.82 78.75 14.02
12/24/2020 5:00:00 PM 1 33.8 0.054 5.73 75.26 14
12/24/2020 5:15:00 PM 1.1 33.98 0.053 5.78 280.32 13.96
12/24/2020 5:30:00 PM 1.23 34.214 0.053 5.71 74.86 13.9
12/24/2020 5:45:00 PM 1.37 34.466 0.052 5.74 75.2 13.84
12/24/2020 6:00:00 PM 1.48 34.664 0.052 5.72 81.4 13.79
12/24/2020 6:15:00 PM 1.63 34.934 0.051 5.78 71.56 13.74
12/24/2020 6:30:00 PM 1.77 35.186 0.05 5.73 76.15 13.67
12/24/2020 6:45:00 PM 1.91 35.438 0.049 5.72 78.51 13.63
12/24/2020 7:00:00 PM 2.03 35.654 0.048 5.65 92.43 13.58
12/24/2020 7:15:00 PM 2.13 35.834 0.048 5.6 82.25 13.54
12/24/2020 7:30:00 PM 2.21 35.978 0.047 5.64 99.12 13.5
12/24/2020 7:45:00 PM 2.27 36.086 0.047 5.58 91.92 13.48
12/24/2020 8:00:00 PM 2.34 36.212 0.047 5.57 113.53 13.45
12/24/2020 8:15:00 PM 2.43 36.374 0.047 5.53 108.54 13.42
12/24/2020 8:30:00 PM 2.51 36.518 0.046 5.47 106.48 13.38
12/24/2020 8:45:00 PM 2.56 36.608 0.046 5.42 95.33 13.35
12/24/2020 9:00:00 PM 2.64 36.752 0.046 5.44 105.3 13.32
12/24/2020 9:15:00 PM 2.72 36.896 0.046 5.44 85.52 13.28
12/24/2020 9:30:00 PM 2.79 37.022 0.045 5.41 73.43 13.26
12/24/2020 9:45:00 PM 2.84 37.112 0.045 5.39 69.13 13.24
12/24/2020 10:00:00 PM 2.88 37.184 0.046 5.41 80.22 13.22
12/24/2020 10:15:00 PM 2.92 37.256 0.046 5.4 60.6 13.2
12/24/2020 10:30:00 PM 2.98 37.364 0.046 5.42 55.94 13.18
12/24/2020 10:45:00 PM 3.04 37.472 0.046 5.38 62.01 13.16
12/24/2020 11:00:00 PM 3.1 37.58 0.047 5.42 54.11 13.13
12/24/2020 11:15:00 PM 3.15 37.67 0.047 5.41 70.62 13.11
12/24/2020 11:30:00 PM 3.18 37.724 0.047 5.4 70.33 13.09
12/24/2020 11:45:00 PM 3.2 37.76 0.047 5.39 84.45 13.07
12/25/2020 12:00:00 AM 3.23 37.814 0.047 5.37 111.11 13.06
12/25/2020 12:15:00 AM 3.28 37.904 0.046 5.4 102.48 13.05
12/25/2020 12:30:00 AM 3.35 38.03 0.046 5.37 94.19 13.02
12/25/2020 12:45:00 AM 3.43 38.174 0.045 5.38 99.86 12.98
12/25/2020 1:00:00 AM 3.5 38.3 0.045 5.36 94.34 12.95
12/25/2020 1:15:00 AM 3.58 38.444 0.044 5.34 103.33 12.91
12/25/2020 1:30:00 AM 3.74 38.732 0.043 5.34 127.89 12.85
12/25/2020 1:45:00 AM 3.84 38.912 0.043 5.38 203.53 12.8
12/25/2020 2:00:00 AM 3.87 38.966 0.032 5.32 185.28 12.79
12/25/2020 2:15:00 AM 3.88 38.984 0.042 5.38 186.48 12.78
12/25/2020 2:30:00 AM 3.89 39.002 0.042 5.36 175.04 12.79
12/25/2020 2:45:00 AM 3.91 39.038 0.033 5.33 169.9 12.79
12/25/2020 3:00:00 AM 3.87 38.966 0.03 5.24 170.65 12.8
12/25/2020 3:15:00 AM 3.84 38.912 0.026 5.22 227.47 12.8
12/25/2020 3:30:00 AM 3.81 38.858 0.03 5.1 252.8 12.81
12/25/2020 3:45:00 AM 3.85 38.93 0.041 5.08 244.49 12.8
12/25/2020 4:00:00 AM 3.95 39.11 0.03 5.13 209.87 12.79
12/25/2020 4:15:00 AM 3.99 39.182 0.041 5.11 218.01 12.79
12/25/2020 4:30:00 AM 4.03 39.254 0.032 5.11 185.09 12.78
12/25/2020 4:45:00 AM 4.06 39.308 0.029 5.17 187.77 12.78
12/25/2020 5:00:00 AM 4.09 39.362 0.041 5.18 135.85 12.77
12/25/2020 5:15:00 AM 4.11 39.398 0.031 5.13 137.29 12.77
12/25/2020 5:30:00 AM 4.11 39.398 0.041 5.13 166.91 12.77
12/25/2020 5:45:00 AM 4.11 39.398 0.041 5.15 122.2 12.77
12/25/2020 6:00:00 AM 4.09 39.362 0.032 5.11 114.24 12.78
12/25/2020 6:15:00 AM 4.06 39.308 0.03 5.08 114.58 12.79
12/25/2020 6:30:00 AM 4.02 39.236 0.041 5.11 104.9 12.81
12/25/2020 6:45:00 AM 3.98 39.164 0.031 5.09 115.7 12.83
12/25/2020 7:00:00 AM 3.95 39.11 0.042 4.98 90.46 12.84
12/25/2020 7:15:00 AM 3.92 39.056 0.034 5.01 104.82 12.85
12/25/2020 7:30:00 AM 3.9 39.02 0.031 5.07 89.7 12.85
12/25/2020 7:45:00 AM 3.87 38.966 0.043 5.06 84.5 12.87
12/25/2020 8:00:00 AM 3.85 38.93 0.03 5.03 91.85 12.88
12/25/2020 8:15:00 AM 3.82 38.876 0.029 5.07 62.34 12.88
12/25/2020 8:30:00 AM 3.79 38.822 0.026 5.12 81.62 12.9
12/25/2020 8:45:00 AM 3.73 38.714 0.043 5.11 63.45 12.91
12/25/2020 9:00:00 AM 3.71 38.678 0.043 5.15 60.68 12.92
12/25/2020 9:15:00 AM 3.7 38.66 0.043 5.15 42.59 12.93
12/25/2020 9:30:00 AM 3.7 38.66 0.043 5.18 55.24 12.93
12/25/2020 9:45:00 AM 3.7 38.66 0.043 5.18 39.71 12.94
12/25/2020 10:00:00 AM 3.69 38.642 0.043 5.2 64.14 12.94
12/25/2020 10:15:00 AM 3.67 38.606 0.034 5.2 45.03 12.95
12/25/2020 10:30:00 AM 3.66 38.588 0.032 5.19 38.54 12.96
12/25/2020 10:45:00 AM 3.64 38.552 0.03 5.21 35.3 12.96
12/25/2020 11:00:00 AM 3.63 38.534 0.043 5.27 34.54 12.96
12/25/2020 11:15:00 AM 3.62 38.516 0.044 5.18 44.86 12.96
12/25/2020 11:30:00 AM 3.61 38.498 0.044 5.2 32.42 12.96
12/25/2020 11:45:00 AM 3.6 38.48 0.044 5.23 31.59 12.96
12/25/2020 12:00:00 PM 3.58 38.444 0.044 5.21 28.14 12.96
12/25/2020 12:15:00 PM 3.57 38.426 0.044 5.22 31.02 12.96
12/25/2020 12:30:00 PM 3.55 38.39 0.044 5.27 25.45 12.96
12/25/2020 12:45:00 PM 3.53 38.354 0.044 5.26 27.67 12.97
12/25/2020 1:00:00 PM 3.53 38.354 0.044 5.26 25.48 12.98
12/25/2020 1:15:00 PM 3.51 38.318 0.044 5.28 27.62 12.98
12/25/2020 1:30:00 PM 3.49 38.282 0.044 5.28 21.69 12.99
12/25/2020 1:45:00 PM 3.47 38.246 0.044 5.29 21.92 13
12/25/2020 2:00:00 PM 3.45 38.21 0.044 5.31 24.92 13.01
12/25/2020 2:15:00 PM 3.42 38.156 0.044 5.3 22.13 13.02
12/25/2020 2:30:00 PM 3.4 38.12 0.044 5.3 25.02 13.03
12/25/2020 2:45:00 PM 3.38 38.084 0.044 5.3 20.93 13.03
12/25/2020 3:00:00 PM 3.36 38.048 0.044 5.31 23 13.04
12/25/2020 3:15:00 PM 3.34 38.012 0.044 5.31 20.8 13.04
12/25/2020 3:30:00 PM 3.32 37.976 0.044 5.32 20.81 13.05
12/25/2020 3:45:00 PM 3.3 37.94 0.044 5.34 20.66 13.06
12/25/2020 4:00:00 PM 3.27 37.886 0.044 5.32 19.56 13.08
12/25/2020 4:15:00 PM 3.25 37.85 0.044 5.35 16.75 13.09
12/25/2020 4:30:00 PM 3.22 37.796 0.044 5.36 18.88 13.1
12/25/2020 4:45:00 PM 3.19 37.742 0.044 5.37 18.18 13.11
12/25/2020 5:00:00 PM 3.16 37.688 0.044 5.39 18.55 13.13
12/25/2020 5:15:00 PM 3.13 37.634 0.044 5.38 18.1 13.13
12/25/2020 5:30:00 PM 3.11 37.598 0.045 5.4 17.57 13.14
12/25/2020 5:45:00 PM 3.08 37.544 0.045 5.41 17.83 13.15
12/25/2020 6:00:00 PM 3.05 37.49 0.045 5.36 16.82 13.17
12/25/2020 6:15:00 PM 3.02 37.436 0.045 5.39 16.36 13.17
12/25/2020 6:30:00 PM 2.98 37.364 0.045 5.4 17.7 13.19
12/25/2020 6:45:00 PM 2.94 37.292 0.045 5.39 15.66 13.2
12/25/2020 7:00:00 PM 2.9 37.22 0.045 5.42 17.32 13.22
12/25/2020 7:15:00 PM 2.86 37.148 0.045 5.43 16.12 13.24
12/25/2020 7:30:00 PM 2.81 37.058 0.045 5.42 15.6 13.27
12/25/2020 7:45:00 PM 2.76 36.968 0.045 5.46 15.76 13.29
12/25/2020 8:00:00 PM 2.71 36.878 0.045 5.44 15.86 13.31
12/25/2020 8:15:00 PM 2.65 36.77 0.045 5.42 15.17 13.34
12/25/2020 8:30:00 PM 2.6 36.68 0.045 5.45 13.53 13.36
12/25/2020 8:45:00 PM 2.54 36.572 0.045 5.43 13.47 13.38
12/25/2020 9:00:00 PM 2.49 36.482 0.045 5.44 12.94 13.41
12/25/2020 9:15:00 PM 2.44 36.392 0.045 5.45 12.88 13.43
12/25/2020 9:30:00 PM 2.39 36.302 0.045 5.47 13.11 13.46
12/25/2020 9:45:00 PM 2.34 36.212 0.045 5.47 12.11 13.48
12/25/2020 10:00:00 PM 2.29 36.122 0.045 5.48 12.05 13.5
12/25/2020 10:15:00 PM 2.24 36.032 0.045 5.49 12.55 13.53
12/25/2020 10:30:00 PM 2.2 35.96 0.045 5.49 12.09 13.55
12/25/2020 10:45:00 PM 2.16 35.888 0.045 5.49 11.75 13.56
12/25/2020 11:00:00 PM 2.11 35.798 0.045 5.49 11.9 13.59
12/25/2020 11:15:00 PM 2.07 35.726 0.045 5.5 11.63 13.6
12/25/2020 11:30:00 PM 2.03 35.654 0.045 5.51 11.25 13.62
12/25/2020 11:45:00 PM 1.98 35.564 0.045 5.52 11.06 13.63
12/26/2020 12:00:00 AM 1.93 35.474 0.045 5.51 10.93 13.64
12/26/2020 12:15:00 AM 1.89 35.402 0.045 5.49 10.91 13.66
12/26/2020 12:30:00 AM 1.86 35.348 0.045 5.51 11.15 13.67
12/26/2020 12:45:00 AM 1.81 35.258 0.045 5.52 10.81 13.69
12/26/2020 1:00:00 AM 1.77 35.186 0.045 5.52 10.64 13.7
12/26/2020 1:15:00 AM 1.74 35.132 0.045 5.52 10.56 13.72
12/26/2020 1:30:00 AM 1.7 35.06 0.045 5.5 10.33 13.73
12/26/2020 1:45:00 AM 1.67 35.006 0.045 5.52 10.17 13.74
12/26/2020 2:00:00 AM 1.63 34.934 0.045 5.51 10.74 13.76
12/26/2020 2:15:00 AM 1.59 34.862 0.045 5.52 10.91 13.78
12/26/2020 2:30:00 AM 1.54 34.772 0.045 5.51 10.57 13.79
12/26/2020 2:45:00 AM 1.51 34.718 0.045 5.52 10.01 13.82
12/26/2020 3:00:00 AM 1.48 34.664 0.045 5.52 9.97 13.83
12/26/2020 3:15:00 AM 1.45 34.61 0.045 5.52 9.82 13.85
12/26/2020 3:30:00 AM 1.42 34.556 0.045 5.52 10.1 13.86
12/26/2020 3:45:00 AM 1.39 34.502 0.045 5.54 9.81 13.88
12/26/2020 4:00:00 AM 1.36 34.448 0.045 5.53 9.91 13.89
12/26/2020 4:15:00 AM 1.33 34.394 0.045 5.51 9.65 13.91
12/26/2020 4:30:00 AM 1.3 34.34 0.045 5.52 10.76 13.92
12/26/2020 4:45:00 AM 1.27 34.286 0.045 5.54 10.91 13.93
12/26/2020 5:00:00 AM 1.25 34.25 0.045 5.55 10.9 13.94
12/26/2020 5:15:00 AM 1.22 34.196 0.045 5.54 10.47 13.95
12/26/2020 5:30:00 AM 1.2 34.16 0.045 5.54 10.44 13.96
12/26/2020 5:45:00 AM 1.17 34.106 0.045 5.53 10.03 13.98
12/26/2020 6:00:00 AM 1.15 34.07 0.045 5.55 9.49 13.99
12/26/2020 6:15:00 AM 1.13 34.034 0.045 5.56 9.4 14
12/26/2020 6:30:00 AM 1.11 33.998 0.045 5.55 9.8 14.01
12/26/2020 6:45:00 AM 1.09 33.962 0.045 5.55 9.22 14.02
12/26/2020 7:00:00 AM 1.07 33.926 0.045 5.54 9.35 14.03
12/26/2020 7:15:00 AM 1.06 33.908 0.045 5.52 9.19 14.04
12/26/2020 7:30:00 AM 1.04 33.872 0.045 5.54 9.49 14.05
12/26/2020 7:45:00 AM 1.02 33.836 0.045 5.53 9.03 14.06
12/26/2020 8:00:00 AM 1.01 33.818 0.045 5.55 9.52 14.06
12/26/2020 8:15:00 AM 1 33.8 0.045 5.54 9.49 14.07
12/26/2020 8:30:00 AM 0.99 33.782 0.045 5.55 9.35 14.08
12/26/2020 8:45:00 AM 0.99 33.782 0.045 5.56 9.29 14.08
12/26/2020 9:00:00 AM 0.99 33.782 0.045 5.58 9.21 14.09
12/26/2020 9:15:00 AM 0.99 33.782 0.045 5.55 8.79 14.09
12/26/2020 9:30:00 AM 0.99 33.782 0.045 5.58 8.8 14.09
12/26/2020 9:45:00 AM 1 33.8 0.045 5.56 9.15 14.09
12/26/2020 10:00:00 AM 1.02 33.836 0.045 5.59 9.1 14.09
12/26/2020 10:15:00 AM 1.03 33.854 0.045 5.59 8.83 14.08
12/26/2020 10:30:00 AM 1.04 33.872 0.045 5.58 8.78 14.08
12/26/2020 10:45:00 AM 1.06 33.908 0.045 5.58 8.98 14.08
12/26/2020 11:00:00 AM 1.07 33.926 0.046 5.58 8.93 14.07
12/26/2020 11:15:00 AM 1.08 33.944 0.045 5.59 8.52 14.06
12/26/2020 11:30:00 AM 1.09 33.962 0.045 5.58 8.5 14.06
12/26/2020 11:45:00 AM 1.1 33.98 0.045 5.58 8.62 14.05
12/26/2020 12:00:00 PM 1.1 33.98 0.045 5.59 9.02 14.05
12/26/2020 12:15:00 PM 1.11 33.998 0.045 5.59 7.68 14.05
12/26/2020 12:30:00 PM 1.13 34.034 0.045 5.6 8.27 14.03
12/26/2020 12:45:00 PM 1.14 34.052 0.046 5.61 8.58 14.03
12/26/2020 1:00:00 PM 1.15 34.07 0.046 5.6 10.21 14.02
12/26/2020 1:15:00 PM 1.18 34.124 0.046 5.59 7.71 14.01
12/26/2020 1:30:00 PM 1.2 34.16 0.046 5.61 8.24 14
12/26/2020 1:45:00 PM 1.22 34.196 0.046 5.6 8.12 14
12/26/2020 2:00:00 PM 1.24 34.232 0.046 5.61 8.54 13.99
12/26/2020 2:15:00 PM 1.26 34.268 0.046 5.6 8.63 13.98
12/26/2020 2:30:00 PM 1.27 34.286 0.046 5.61 8.84 13.97
12/26/2020 2:45:00 PM 1.27 34.286 0.046 5.6 8.09 13.96
12/26/2020 3:00:00 PM 1.27 34.286 0.046 5.59 7.36 13.97
12/26/2020 3:15:00 PM 1.28 34.304 0.046 5.64 7.27 13.97
12/26/2020 3:30:00 PM 1.28 34.304 0.046 5.62 7.17 13.96
12/26/2020 3:45:00 PM 1.27 34.286 0.046 5.62 7.24 13.96
12/26/2020 4:00:00 PM 1.26 34.268 0.046 5.61 7.16 13.97
12/26/2020 4:15:00 PM 1.26 34.268 0.046 5.61 7.4 13.97
12/26/2020 4:30:00 PM 1.25 34.25 0.046 5.62 7.05 13.97
12/26/2020 4:45:00 PM 1.24 34.232 0.046 5.62 7.11 13.97
12/26/2020 5:00:00 PM 1.22 34.196 0.046 5.6 7.11 13.98
12/26/2020 5:15:00 PM 1.21 34.178 0.046 5.62 7.15 13.99
12/26/2020 5:30:00 PM 1.2 34.16 0.046 5.62 6.85 13.99
12/26/2020 5:45:00 PM 1.19 34.142 0.046 5.59 7.2 14
12/26/2020 6:00:00 PM 1.17 34.106 0.046 5.63 6.97 14
12/26/2020 6:15:00 PM 1.16 34.088 0.046 5.64 7.13 14.01
12/26/2020 6:30:00 PM 1.15 34.07 0.046 5.62 6.86 14.02
12/26/2020 6:45:00 PM 1.14 34.052 0.046 5.62 7.21 14.02
12/26/2020 7:00:00 PM 1.12 34.016 0.046 5.61 6.92 14.03
12/26/2020 7:15:00 PM 1.1 33.98 0.046 5.6 7.04 14.04
12/26/2020 7:30:00 PM 1.07 33.926 0.046 5.62 6.83 14.05
12/26/2020 7:45:00 PM 1.04 33.872 0.046 5.6 6.89 14.07
12/26/2020 8:00:00 PM 1.01 33.818 0.046 5.61 6.69 14.08
12/26/2020 8:15:00 PM 0.98 33.764 0.046 5.63 6.69 14.1
12/26/2020 8:30:00 PM 0.94 33.692 0.046 5.61 6.69 14.11
12/26/2020 8:45:00 PM 0.91 33.638 0.046 5.61 6.76 14.12
12/26/2020 9:00:00 PM 0.88 33.584 0.046 5.63 6.86 14.14
12/26/2020 9:15:00 PM 0.84 33.512 0.046 5.62 6.67 14.15
12/26/2020 9:30:00 PM 0.81 33.458 0.046 5.62 6.83 14.17
12/26/2020 9:45:00 PM 0.78 33.404 0.046 5.61 6.38 14.18
12/26/2020 10:00:00 PM 0.74 33.332 0.046 5.62 6.56 14.19
12/26/2020 10:15:00 PM 0.7 33.26 0.046 5.63 6.75 14.21
12/26/2020 10:30:00 PM 0.66 33.188 0.046 5.62 6.71 14.23
12/26/2020 10:45:00 PM 0.63 33.134 0.046 5.61 6.45 14.25
12/26/2020 11:00:00 PM 0.59 33.062 0.046 5.63 6.54 14.27
12/26/2020 11:15:00 PM 0.56 33.008 0.046 5.59 6.4 14.29
12/26/2020 11:30:00 PM 0.54 32.972 0.046 5.61 6.42 14.3
12/26/2020 11:45:00 PM 0.52 32.936 0.046 5.61 6.68 14.31
12/27/2020 12:00:00 AM 0.51 32.918 0.046 5.61 7.11 14.32
12/27/2020 12:15:00 AM 0.51 32.918 0.046 5.64 6.89 14.32
12/27/2020 12:30:00 AM 0.51 32.918 0.047 5.63 6.33 14.33
12/27/2020 12:45:00 AM 0.51 32.918 0.047 5.64 6.52 14.33
12/27/2020 1:00:00 AM 0.51 32.918 0.047 5.62 6.34 14.32
12/27/2020 1:15:00 AM 0.52 32.936 0.047 5.65 6.53 14.32
12/27/2020 1:30:00 AM 0.53 32.954 0.047 5.64 6.47 14.32
12/27/2020 1:45:00 AM 0.54 32.972 0.047 5.67 6.47 14.32
12/27/2020 2:00:00 AM 0.55 32.99 0.047 5.65 6.4 14.32
12/27/2020 2:15:00 AM 0.56 33.008 0.047 5.66 6.46 14.32
12/27/2020 2:30:00 AM 0.57 33.026 0.047 5.65 6.19 14.32
12/27/2020 2:45:00 AM 0.58 33.044 0.047 5.64 6.18 14.32
12/27/2020 3:00:00 AM 0.59 33.062 0.047 5.65 6.13 14.31
12/27/2020 3:15:00 AM 0.6 33.08 0.047 5.66 6.47 14.31
12/27/2020 3:30:00 AM 0.62 33.116 0.047 5.65 6.39 14.31
12/27/2020 3:45:00 AM 0.63 33.134 0.047 5.65 6.11 14.3
12/27/2020 4:00:00 AM 0.64 33.152 0.047 5.65 6.35 14.3
12/27/2020 4:15:00 AM 0.66 33.188 0.047 5.64 6.49 14.29
12/27/2020 4:30:00 AM 0.67 33.206 0.047 5.66 6.64 14.29
12/27/2020 4:45:00 AM 0.68 33.224 0.047 5.66 6.5 14.29
12/27/2020 5:00:00 AM 0.7 33.26 0.047 5.67 6.44 14.28
12/27/2020 5:15:00 AM 0.71 33.278 0.047 5.64 6.31 14.28
12/27/2020 5:30:00 AM 0.72 33.296 0.047 5.66 6.18 14.28
12/27/2020 5:45:00 AM 0.74 33.332 0.047 5.66 5.96 14.28
12/27/2020 6:00:00 AM 0.75 33.35 0.047 5.66 6.32 14.27
12/27/2020 6:15:00 AM 0.76 33.368 0.047 5.67 6.24 14.27
12/27/2020 6:30:00 AM 0.78 33.404 0.047 5.68 5.95 14.27
12/27/2020 6:45:00 AM 0.79 33.422 0.047 5.67 5.98 14.27
12/27/2020 7:00:00 AM 0.8 33.44 0.047 5.66 6 14.27
12/27/2020 7:15:00 AM 0.8 33.44 0.047 5.65 5.87 14.27
12/27/2020 7:30:00 AM 0.81 33.458 0.047 5.67 5.95 14.26
12/27/2020 7:45:00 AM 0.82 33.476 0.047 5.67 5.98 14.26
12/27/2020 8:00:00 AM 0.83 33.494 0.047 5.66 5.9 14.26
12/27/2020 8:15:00 AM 0.84 33.512 0.047 5.68 5.76 14.26
12/27/2020 8:30:00 AM 0.85 33.53 0.047 5.68 5.89 14.26
12/27/2020 8:45:00 AM 0.87 33.566 0.047 5.69 6.03 14.25
12/27/2020 9:00:00 AM 0.89 33.602 0.047 5.66 5.86 14.25
12/27/2020 9:15:00 AM 0.91 33.638 0.047 5.68 5.82 14.24
12/27/2020 9:30:00 AM 0.93 33.674 0.047 5.68 5.89 14.24
12/27/2020 9:45:00 AM 0.96 33.728 0.047 5.68 5.81 14.23
12/27/2020 10:00:00 AM 1 33.8 0.047 5.69 5.82 14.21
12/27/2020 10:15:00 AM 1.03 33.854 0.047 5.68 5.7 14.21
12/27/2020 10:30:00 AM 1.07 33.926 0.047 5.7 5.74 14.19
12/27/2020 10:45:00 AM 1.12 34.016 0.047 5.69 5.69 14.18
12/27/2020 11:00:00 AM 1.17 34.106 0.047 5.7 5.7 14.16
12/27/2020 11:15:00 AM 1.24 34.232 0.047 5.7 5.87 14.13
12/27/2020 11:30:00 AM 1.29 34.322 0.047 5.7 5.74 14.12
12/27/2020 11:45:00 AM 1.34 34.412 0.047 5.7 5.71 14.1
12/27/2020 12:00:00 PM 1.38 34.484 0.047 5.71 5.56 14.08
12/27/2020 12:15:00 PM 1.41 34.538 0.047 5.71 5.57 14.07
12/27/2020 12:30:00 PM 1.45 34.61 0.047 5.7 5.48 14.05
12/27/2020 12:45:00 PM 1.47 34.646 0.047 5.71 5.6 14.04
12/27/2020 1:00:00 PM 1.51 34.718 0.047 5.73 5.62 14.03
12/27/2020 1:15:00 PM 1.53 34.754 0.047 5.7 5.67 14.01
12/27/2020 1:30:00 PM 1.56 34.808 0.047 5.69 5.73 14
12/27/2020 1:45:00 PM 1.59 34.862 0.047 5.71 5.5 13.98
12/27/2020 2:00:00 PM 1.62 34.916 0.047 5.71 5.5 13.98
12/27/2020 2:15:00 PM 1.64 34.952 0.047 5.71 5.41 13.96
12/27/2020 2:30:00 PM 1.64 34.952 0.047 5.71 5.61 13.95
12/27/2020 2:45:00 PM 1.66 34.988 0.047 5.7 5.64 13.94
12/27/2020 3:00:00 PM 1.68 35.024 0.047 5.71 5.57 13.93
12/27/2020 3:15:00 PM 1.7 35.06 0.047 5.68 5.56 13.92
12/27/2020 3:30:00 PM 1.72 35.096 0.047 5.7 5.58 13.91
12/27/2020 3:45:00 PM 1.74 35.132 0.047 5.72 5.56 13.9
12/27/2020 4:00:00 PM 1.75 35.15 0.047 5.73 5.52 13.9
12/27/2020 4:15:00 PM 1.77 35.186 0.047 5.71 5.42 13.88
12/27/2020 4:30:00 PM 1.78 35.204 0.047 5.71 5.43 13.88
12/27/2020 4:45:00 PM 1.79 35.222 0.047 5.71 5.46 13.87
12/27/2020 5:00:00 PM 1.79 35.222 0.047 5.7 5.39 13.86
12/27/2020 5:15:00 PM 1.79 35.222 0.047 5.71 5.46 13.86
12/27/2020 5:30:00 PM 1.78 35.204 0.047 5.7 5.43 13.86
12/27/2020 5:45:00 PM 1.77 35.186 0.047 5.7 5.53 13.86
12/27/2020 6:00:00 PM 1.76 35.168 0.047 5.69 5.5 13.86
12/27/2020 6:15:00 PM 1.75 35.15 0.047 5.69 5.51 13.87
12/27/2020 6:30:00 PM 1.74 35.132 0.047 5.7 5.52 13.88
12/27/2020 6:45:00 PM 1.72 35.096 0.047 5.69 5.35 13.89
12/27/2020 7:00:00 PM 1.71 35.078 0.047 5.69 5.84 13.9
12/27/2020 7:15:00 PM 1.69 35.042 0.047 5.69 5.3 13.91
12/27/2020 7:30:00 PM 1.67 35.006 0.047 5.69 5.4 13.91
12/27/2020 7:45:00 PM 1.65 34.97 0.047 5.67 5.38 13.92
12/27/2020 8:00:00 PM 1.63 34.934 0.047 5.7 5.28 13.93
12/27/2020 8:15:00 PM 1.61 34.898 0.047 5.69 5.35 13.94
12/27/2020 8:30:00 PM 1.58 34.844 0.047 5.7 5.41 13.95
12/27/2020 8:45:00 PM 1.56 34.808 0.047 5.68 5.33 13.96
12/27/2020 9:00:00 PM 1.53 34.754 0.047 5.69 5.27 13.97
12/27/2020 9:15:00 PM 1.51 34.718 0.047 5.7 5.36 13.98
12/27/2020 9:30:00 PM 1.48 34.664 0.047 5.69 5.32 13.99
12/27/2020 9:45:00 PM 1.45 34.61 0.047 5.69 5.36 14
12/27/2020 10:00:00 PM 1.42 34.556 0.047 5.68 5.24 14.01
12/27/2020 10:15:00 PM 1.39 34.502 0.047 5.69 5.36 14.02
12/27/2020 10:30:00 PM 1.37 34.466 0.047 5.69 5.21 14.04
12/27/2020 10:45:00 PM 1.34 34.412 0.047 5.68 5.27 14.04
12/27/2020 11:00:00 PM 1.31 34.358 0.047 5.69 5.36 14.05
12/27/2020 11:15:00 PM 1.29 34.322 0.047 5.69 5.16 14.06
12/27/2020 11:30:00 PM 1.26 34.268 0.047 5.69 5.18 14.07
12/27/2020 11:45:00 PM 1.25 34.25 0.047 5.68 5.33 14.08
12/28/2020 12:00:00 AM 1.23 34.214 0.047 5.7 5.29 14.08
12/28/2020 12:15:00 AM 1.21 34.178 0.047 5.7 5.16 14.09
12/28/2020 12:30:00 AM 1.19 34.142 0.047 5.69 7.41 14.09
12/28/2020 12:45:00 AM 1.18 34.124 0.047 5.69 5.23 14.09
12/28/2020 1:00:00 AM 1.16 34.088 0.047 5.71 5.15 14.09
12/28/2020 1:15:00 AM 1.15 34.07 0.047 5.68 5.12 14.1
12/28/2020 1:30:00 AM 1.14 34.052 0.047 5.71 5.37 14.1
12/28/2020 1:45:00 AM 1.13 34.034 0.047 5.72 5.17 14.09
12/28/2020 2:00:00 AM 1.12 34.016 0.047 5.7 5.08 14.1
12/28/2020 2:15:00 AM 1.12 34.016 0.047 5.71 5.21 14.1
12/28/2020 2:30:00 AM 1.11 33.998 0.047 5.71 5.12 14.1
12/28/2020 2:45:00 AM 1.1 33.98 0.047 5.7 5.2 14.1
12/28/2020 3:00:00 AM 1.1 33.98 0.047 5.72 5.05 14.1
12/28/2020 3:15:00 AM 1.09 33.962 0.047 5.73 5.04 14.1
12/28/2020 3:30:00 AM 1.08 33.944 0.047 5.72 5.04 14.1
12/28/2020 3:45:00 AM 1.08 33.944 0.047 5.71 5.25 14.1
12/28/2020 4:00:00 AM 1.08 33.944 0.047 5.7 5.2 14.1
12/28/2020 4:15:00 AM 1.08 33.944 0.047 5.71 5 14.1
12/28/2020 4:30:00 AM 1.08 33.944 0.047 5.72 5.14 14.09
12/28/2020 4:45:00 AM 1.09 33.962 0.047 5.73 5.08 14.09
12/28/2020 5:00:00 AM 1.09 33.962 0.047 5.72 4.98 14.09
12/28/2020 5:15:00 AM 1.1 33.98 0.047 5.71 5.12 14.08
12/28/2020 5:30:00 AM 1.11 33.998 0.047 5.73 4.95 14.07
12/28/2020 5:45:00 AM 1.12 34.016 0.047 5.73 4.93 14.07
12/28/2020 6:00:00 AM 1.14 34.052 0.047 5.73 4.99 14.07
12/28/2020 6:15:00 AM 1.16 34.088 0.047 5.73 4.89 14.06
12/28/2020 6:30:00 AM 1.17 34.106 0.047 5.74 4.96 14.06
12/28/2020 6:45:00 AM 1.09 33.962 0.047 5.72 4.88 14.05
12/28/2020 7:00:00 AM 1.11 33.998 0.047 5.72 4.94 14.05
12/28/2020 7:15:00 AM 1.12 34.016 0.047 5.71 4.86 14.06
12/28/2020 7:30:00 AM 1.15 34.07 0.047 5.73 4.84 14.06
12/28/2020 7:45:00 AM 1.18 34.124 0.047 5.74 4.91 14.05
12/28/2020 8:00:00 AM 1.2 34.16 0.047 5.72 4.95 14.04
12/28/2020 8:15:00 AM 1.22 34.196 0.047 5.74 4.86 14.04
12/28/2020 8:30:00 AM 1.25 34.25 0.047 5.74 4.91 14.03
12/28/2020 8:45:00 AM 1.28 34.304 0.047 5.75 4.74 14.02
12/28/2020 9:00:00 AM 1.31 34.358 0.047 5.76 4.81 14.01
12/28/2020 9:15:00 AM 1.35 34.43 0.047 5.74 4.76 14
12/28/2020 9:30:00 AM 1.38 34.484 0.047 5.74 4.87 13.99
12/28/2020 9:45:00 AM 1.42 34.556</